Darstellungsparameter: Aktuell verwendete Einstellungen:
Skalierung der Graphiken ... ?
xyx+y,   Skalierungsfaktor:      Skalierung: Modus: x, Faktor: 1
Darstellungszeitraum ... ?
Vom - - bis: - -   Zeitraum: 23.08.2010 - 22.09.2010
Min/Max/Avg-Anzeige ... ?
Zeige MMA aktuell
Zeige MMA Monat
Zeige MMA alles
Zeige --A aktuell
Zeige --A Monat
Zeige --A alles
Keine MMA-Anzeige
MMA:
Minimum Maximum Average (ber die Originaldaten)
MMA-Basis: 21.08.2010 - 23.09.2010
Quicknavigation für Darstellung... ?
Tage:      1T, 2T, 3T, 5T -1T -2T -3T -5T +1T +2T +3T +5T
Wochen: 1W, 2W, 3W -1W -2W -3W +1W +2W +3W
Monate: 1M, 3M, 6M -1M -3M -6M +1M +3M +6M
Jahre:    1J, 3J, 5J, 10J -1J -3J -5J -10J +1J +3J +5J +10J
Nutze für die Darstellung ... ?
Originaldaten oder Mittelwerte auf ...
Stundenbasis Tagesbasis Wochenbasis
Monatsbasis Jahresbasis      Datenbasis: Original-Daten
Darstellen als:
Statistik (Auto) Statistik J:M      Darstellung:
Zur Graphik,    zurück zur Übersicht aller Sensoren.
 
Tabellarische Datenbersicht: ?
 
Sensor: Nr:Datum:Temp:Abs-Feuchte:Windchill:Wind:
Aussen-T/F 1 23-08-2010 00:02:03 21.1 C 11.98 g/m*3 21.1 C 0 km/h
2 23-08-2010 00:14:03 20.9 C 12.02 g/m*3 20.9 C 0 km/h
3 23-08-2010 00:26:03 20.9 C 12.02 g/m*3 20.9 C 0 km/h
4 23-08-2010 00:38:03 20.8 C 11.95 g/m*3 20.8 C 0 km/h
5 23-08-2010 00:50:03 20.7 C 12.06 g/m*3 20.7 C 0 km/h
6 23-08-2010 01:02:03 20.4 C 12.03 g/m*3 20.4 C 0 km/h
7 23-08-2010 01:14:03 20.3 C 12.31 g/m*3 20.3 C 0 km/h
8 23-08-2010 01:26:03 20.3 C 12.14 g/m*3 20.3 C 0 km/h
9 23-08-2010 01:38:03 20.4 C 12.21 g/m*3 20.4 C 0 km/h
10 23-08-2010 01:50:03 20.5 C 12.1 g/m*3 20.5 C 0 km/h
11 23-08-2010 02:02:03 20.4 C 12.21 g/m*3 20.4 C 0 km/h
12 23-08-2010 02:14:03 20.2 C 12.24 g/m*3 20.2 C 0 km/h
13 23-08-2010 02:26:03 19.8 C 12.3 g/m*3 19.8 C 0 km/h
14 23-08-2010 02:38:03 19.8 C 12.47 g/m*3 19.8 C 0 km/h
15 23-08-2010 02:50:04 19.9 C 12.37 g/m*3 19.9 C 0 km/h
16 23-08-2010 03:02:04 19.9 C 12.2 g/m*3 19.9 C 0 km/h
17 23-08-2010 03:14:04 19.9 C 12.37 g/m*3 19.9 C 0 km/h
18 23-08-2010 03:26:04 19.9 C 12.37 g/m*3 19.9 C 0 km/h
19 23-08-2010 03:38:04 19.7 C 12.23 g/m*3 19.7 C 0 km/h
20 23-08-2010 03:50:04 19.7 C 12.4 g/m*3 19.7 C 0 km/h
21 23-08-2010 04:02:04 19.6 C 12.32 g/m*3 19.6 C 0 km/h
22 23-08-2010 04:14:04 19.5 C 12.25 g/m*3 19.5 C 0 km/h
23 23-08-2010 04:26:04 19.5 C 12.42 g/m*3 19.5 C 0 km/h
24 23-08-2010 04:38:04 19.5 C 12.42 g/m*3 19.5 C 0 km/h
25 23-08-2010 04:50:04 19.5 C 12.25 g/m*3 19.5 C 0 km/h
Sensor: Nr:Datum:Temp:Abs-Feuchte:Windchill:Wind:
Aussen-T/F 26 23-08-2010 05:02:04 19.5 C 12.25 g/m*3 19.5 C 0 km/h
27 23-08-2010 05:14:04 19.4 C 12.18 g/m*3 19.4 C 0 km/h
28 23-08-2010 05:26:04 19.5 C 12.25 g/m*3 19.5 C 0 km/h
29 23-08-2010 05:38:04 19.4 C 12.18 g/m*3 19.4 C 0 km/h
30 23-08-2010 05:50:04 19.4 C 12.18 g/m*3 19.4 C 0 km/h
31 23-08-2010 06:02:04 19.5 C 12.42 g/m*3 19.5 C 0 km/h
32 23-08-2010 06:14:04 19.5 C 12.42 g/m*3 19.5 C 0 km/h
33 23-08-2010 06:26:04 19.4 C 12.35 g/m*3 19.4 C 0 km/h
34 23-08-2010 06:38:03 19.5 C 12.25 g/m*3 19.5 C 0 km/h
35 23-08-2010 06:50:02 19.5 C 12.25 g/m*3 19.5 C 0 km/h
36 23-08-2010 07:02:02 19.3 C 12.27 g/m*3 19.3 C 0 km/h
37 23-08-2010 07:14:03 19.5 C 12.59 g/m*3 19.5 C 0 km/h
38 23-08-2010 07:26:02 19.9 C 12.71 g/m*3 19.9 C 0 km/h
39 23-08-2010 07:38:02 20.4 C 12.38 g/m*3 20.4 C 0 km/h
40 23-08-2010 07:50:02 20.5 C 12.46 g/m*3 20.5 C 0 km/h
41 23-08-2010 08:02:02 20.6 C 12.71 g/m*3 20.6 C 0 km/h
42 23-08-2010 08:14:02 20.4 C 12.74 g/m*3 20.4 C 0 km/h
43 23-08-2010 08:26:01 19.5 C 13.26 g/m*3 19.5 C 0 km/h
44 23-08-2010 08:38:02 19.1 C 13.77 g/m*3 19.1 C 0 km/h
45 23-08-2010 08:50:02 19.1 C 13.93 g/m*3 19.1 C 0 km/h
46 23-08-2010 09:02:01 19.3 C 14.26 g/m*3 19.3 C 0 km/h
47 23-08-2010 09:14:01 19.4 C 14.52 g/m*3 19.4 C 0 km/h
48 23-08-2010 09:26:02 19.4 C 14.52 g/m*3 19.4 C 0 km/h
49 23-08-2010 09:38:01 19.4 C 14.52 g/m*3 19.4 C 0 km/h
50 23-08-2010 09:50:02 19.7 C 14.77 g/m*3 19.7 C 0 km/h
Sensor: Nr:Datum:Temp:Abs-Feuchte:Windchill:Wind:
Aussen-T/F 51 23-08-2010 10:02:01 20 C 14.86 g/m*3 20 C 0 km/h
52 23-08-2010 10:14:01 20.4 C 15.21 g/m*3 20.4 C 0 km/h
53 23-08-2010 10:26:01 20.7 C 15.12 g/m*3 20.7 C 0 km/h
54 23-08-2010 10:38:02 20.9 C 15.12 g/m*3 20.9 C 0 km/h
55 23-08-2010 10:50:02 21.2 C 15.01 g/m*3 21.2 C 0 km/h
56 23-08-2010 11:02:02 21.4 C 15 g/m*3 21.4 C 0 km/h
57 23-08-2010 11:14:02 21.7 C 14.69 g/m*3 21.7 C 0 km/h
58 23-08-2010 11:26:02 22.5 C 14.58 g/m*3 22.5 C 0 km/h
59 23-08-2010 11:38:02 22.8 C 14.63 g/m*3 22.8 C 0 km/h
60 23-08-2010 11:50:02 22.9 C 14.92 g/m*3 22.9 C 0 km/h
61 23-08-2010 12:02:02 22.5 C 14.78 g/m*3 22.5 C 0 km/h
62 23-08-2010 12:14:02 22.7 C 15.36 g/m*3 22.7 C 0 km/h
63 23-08-2010 12:26:02 23.3 C 16.1 g/m*3 23.3 C 0 km/h
64 23-08-2010 12:38:02 23.4 C 15.98 g/m*3 23.4 C 0 km/h
65 23-08-2010 12:50:01 23.5 C 15.86 g/m*3 23.5 C 0 km/h
66 23-08-2010 13:02:02 24.2 C 15.18 g/m*3 24.2 C 0 km/h
67 23-08-2010 13:14:02 24.9 C 14.42 g/m*3 24.9 C 0 km/h
68 23-08-2010 13:26:01 24 C 13.49 g/m*3 24 C 0 km/h
69 23-08-2010 13:38:01 23.1 C 13.85 g/m*3 23.1 C 0 km/h
70 23-08-2010 13:50:01 22.2 C 14.72 g/m*3 22.2 C 0 km/h
71 23-08-2010 14:02:01 21.9 C 14.86 g/m*3 21.9 C 0 km/h
72 23-08-2010 14:14:01 23.3 C 14.84 g/m*3 23.3 C 0 km/h
73 23-08-2010 14:26:01 24.8 C 14.11 g/m*3 24.8 C 0 km/h
74 23-08-2010 14:38:01 25.8 C 13.72 g/m*3 25.8 C 0 km/h
75 23-08-2010 14:50:01 25.9 C 13.32 g/m*3 25.9 C 0 km/h
Sensor: Nr:Datum:Temp:Abs-Feuchte:Windchill:Wind:
Aussen-T/F 76 23-08-2010 15:02:01 25.9 C 13.07 g/m*3 25.9 C 0 km/h
77 23-08-2010 15:14:01 25.9 C 12.59 g/m*3 25.9 C 0 km/h
78 23-08-2010 15:26:02 26.3 C 12.13 g/m*3 26.3 C 0 km/h
79 23-08-2010 15:38:01 25.9 C 11.86 g/m*3 25.9 C 0 km/h
80 23-08-2010 15:50:03 25.3 C 11.94 g/m*3 25.3 C 0 km/h
81 23-08-2010 16:02:02 25.9 C 11.38 g/m*3 25.9 C 0 km/h
82 23-08-2010 16:14:02 26.7 C 11.14 g/m*3 26.7 C 0 km/h
83 23-08-2010 16:26:02 26.6 C 11.33 g/m*3 26.6 C 0 km/h
84 23-08-2010 16:38:02 25.5 C 11.6 g/m*3 25.5 C 0 km/h
85 23-08-2010 16:50:02 25 C 11.51 g/m*3 25 C 0 km/h
86 23-08-2010 17:02:01 25.2 C 10.94 g/m*3 25.2 C 0 km/h
87 23-08-2010 17:14:01 24.6 C 11.25 g/m*3 24.6 C 0 km/h
88 23-08-2010 17:26:02 23.3 C 11.92 g/m*3 23.3 C 0 km/h
89 23-08-2010 17:38:02 22.7 C 12.53 g/m*3 22.7 C 0 km/h
90 23-08-2010 17:50:02 22.1 C 12.88 g/m*3 22.1 C 0 km/h
91 23-08-2010 18:02:01 21.9 C 13.31 g/m*3 21.9 C 0 km/h
92 23-08-2010 18:14:01 21.6 C 13.47 g/m*3 21.6 C 0 km/h
93 23-08-2010 18:26:01 21 C 13.74 g/m*3 21 C 0 km/h
94 23-08-2010 18:38:02 20.7 C 14.22 g/m*3 20.7 C 0 km/h
95 23-08-2010 18:50:02 20.4 C 13.98 g/m*3 20.4 C 0 km/h
96 23-08-2010 19:02:02 20.8 C 14.3 g/m*3 20.8 C 0 km/h
97 23-08-2010 19:14:02 20.9 C 13.84 g/m*3 20.9 C 0 km/h
98 23-08-2010 19:26:02 20.8 C 13.76 g/m*3 20.8 C 0 km/h
99 23-08-2010 19:38:02 20.7 C 13.5 g/m*3 20.7 C 0 km/h
100 23-08-2010 19:50:02 20.6 C 13.42 g/m*3 20.6 C 0 km/h
Sensor: Nr:Datum:Temp:Abs-Feuchte:Windchill:Wind:
Aussen-T/F 101 23-08-2010 20:02:02 20.5 C 13.17 g/m*3 20.5 C 0 km/h
102 23-08-2010 20:14:02 20.4 C 13.09 g/m*3 20.4 C 0 km/h
103 23-08-2010 20:26:02 20.4 C 12.91 g/m*3 20.4 C 0 km/h
104 23-08-2010 20:38:02 20.3 C 12.84 g/m*3 20.3 C 0 km/h
105 23-08-2010 20:50:02 20.1 C 12.69 g/m*3 20.1 C 0 km/h
106 23-08-2010 21:02:02 20 C 12.62 g/m*3 20 C 0 km/h
107 23-08-2010 21:14:02 19.8 C 12.64 g/m*3 19.8 C 0 km/h
108 23-08-2010 21:26:02 19.7 C 12.74 g/m*3 19.7 C 0 km/h
109 23-08-2010 21:38:02 19.7 C 12.57 g/m*3 19.7 C 0 km/h
110 23-08-2010 21:50:02 19.8 C 12.47 g/m*3 19.8 C 0 km/h
111 23-08-2010 22:03:03 19.7 C 12.4 g/m*3 19.7 C 0 km/h
112 23-08-2010 22:15:03 19.6 C 12.32 g/m*3 19.6 C 0 km/h
113 23-08-2010 22:27:03 19.6 C 12.15 g/m*3 19.6 C 0 km/h
114 23-08-2010 22:39:03 19.5 C 12.25 g/m*3 19.5 C 0 km/h
115 23-08-2010 22:51:03 19.5 C 12.08 g/m*3 19.5 C 0 km/h
116 23-08-2010 23:03:03 19.4 C 12.01 g/m*3 19.4 C 0 km/h
117 23-08-2010 23:15:03 19.3 C 11.94 g/m*3 19.3 C 0 km/h
118 23-08-2010 23:27:03 19.3 C 11.94 g/m*3 19.3 C 0 km/h
119 23-08-2010 23:39:03 19.2 C 11.87 g/m*3 19.2 C 0 km/h
120 23-08-2010 23:51:03 19.3 C 11.94 g/m*3 19.3 C 0 km/h
121 24-08-2010 00:03:03 19.2 C 12.04 g/m*3 19.2 C 0 km/h
122 24-08-2010 00:15:03 19.2 C 12.04 g/m*3 19.2 C 0 km/h
123 24-08-2010 00:27:03 19.1 C 11.97 g/m*3 19.1 C 0 km/h
124 24-08-2010 00:39:04 19.2 C 12.2 g/m*3 19.2 C 0 km/h
125 24-08-2010 00:51:04 19.2 C 12.2 g/m*3 19.2 C 0 km/h
Sensor: Nr:Datum:Temp:Abs-Feuchte:Windchill:Wind:
Aussen-T/F 126 24-08-2010 01:03:04 19.3 C 12.27 g/m*3 19.3 C 0 km/h
127 24-08-2010 01:15:04 19.2 C 12.37 g/m*3 19.2 C 0 km/h
128 24-08-2010 01:27:04 19.1 C 12.46 g/m*3 19.1 C 0 km/h
129 24-08-2010 01:39:04 19.2 C 12.53 g/m*3 19.2 C 0 km/h
130 24-08-2010 01:51:04 19.2 C 12.53 g/m*3 19.2 C 0 km/h
131 24-08-2010 02:03:04 19.3 C 12.44 g/m*3 19.3 C 0 km/h
132 24-08-2010 02:15:04 19.6 C 12.32 g/m*3 19.6 C 0 km/h
133 24-08-2010 02:27:04 19.9 C 12.37 g/m*3 19.9 C 0 km/h
134 24-08-2010 02:39:04 20 C 11.92 g/m*3 20 C 0 km/h
135 24-08-2010 02:51:04 19.6 C 12.32 g/m*3 19.6 C 0 km/h
136 24-08-2010 03:03:04 19 C 12.22 g/m*3 19 C 0 km/h
137 24-08-2010 03:15:04 18.7 C 12.33 g/m*3 18.7 C 0 km/h
138 24-08-2010 03:27:04 18.4 C 11.64 g/m*3 18.4 C 0 km/h
139 24-08-2010 03:39:04 17.9 C 11.76 g/m*3 17.9 C 0 km/h
140 24-08-2010 03:51:04 17.7 C 11.32 g/m*3 17.7 C 0 km/h
141 24-08-2010 04:03:04 18.1 C 9.73 g/m*3 18.1 C 0 km/h
142 24-08-2010 04:15:04 18.2 C 9.64 g/m*3 18.2 C 0 km/h
143 24-08-2010 04:27:04 18.1 C 9.43 g/m*3 18.1 C 0 km/h
144 24-08-2010 04:39:04 18 C 9.37 g/m*3 18 C 0 km/h
145 24-08-2010 04:51:05 17.9 C 9.47 g/m*3 17.9 C 0 km/h
146 24-08-2010 05:03:05 17.4 C 9.48 g/m*3 17.4 C 0 km/h
147 24-08-2010 05:15:05 17.3 C 9.58 g/m*3 17.3 C 0 km/h
148 24-08-2010 05:27:05 17.3 C 9.58 g/m*3 17.3 C 0 km/h
149 24-08-2010 05:39:05 17.2 C 9.37 g/m*3 17.2 C 0 km/h
150 24-08-2010 05:51:05 17 C 9.55 g/m*3 17 C 0 km/h
Sensor: Nr:Datum:Temp:Abs-Feuchte:Windchill:Wind:
Aussen-T/F 151 24-08-2010 06:03:05 17.1 C 9.46 g/m*3 17.1 C 0 km/h
152 24-08-2010 06:15:05 17.1 C 9.32 g/m*3 17.1 C 0 km/h
153 24-08-2010 06:27:05 17 C 9.55 g/m*3 17 C 0 km/h
154 24-08-2010 06:39:05 17.4 C 9.63 g/m*3 17.4 C 0 km/h
155 24-08-2010 06:51:05 16.8 C 9.44 g/m*3 16.8 C 0 km/h
156 24-08-2010 07:03:05 16.8 C 9.58 g/m*3 16.8 C 0 km/h
157 24-08-2010 07:15:02 16.7 C 9.38 g/m*3 16.7 C 0 km/h
158 24-08-2010 07:27:02 16.4 C 9.21 g/m*3 16.4 C 0 km/h
159 24-08-2010 07:39:03 16.2 C 8.96 g/m*3 16.2 C 0 km/h
160 24-08-2010 07:51:02 16.1 C 9.05 g/m*3 16.1 C 0 km/h
161 24-08-2010 08:03:02 16 C 8.99 g/m*3 16 C 0 km/h
162 24-08-2010 08:15:02 16.1 C 8.64 g/m*3 16.1 C 0 km/h
163 24-08-2010 08:27:02 16.2 C 8.41 g/m*3 16.2 C 0 km/h
164 24-08-2010 08:39:02 16.2 C 8.27 g/m*3 16.2 C 0 km/h
165 24-08-2010 08:51:02 16.3 C 7.91 g/m*3 16.3 C 0 km/h
166 24-08-2010 09:03:02 16.4 C 7.82 g/m*3 16.4 C 0 km/h
167 24-08-2010 09:15:02 16.5 C 7.44 g/m*3 16.5 C 0 km/h
168 24-08-2010 09:27:02 16.7 C 7.11 g/m*3 16.7 C 0 km/h
169 24-08-2010 09:39:01 17 C 6.95 g/m*3 17 C 0 km/h
170 24-08-2010 09:51:02 17.2 C 7.18 g/m*3 17.2 C 0 km/h
171 24-08-2010 10:03:01 17.4 C 7.11 g/m*3 17.4 C 0 km/h
172 24-08-2010 10:15:02 17.7 C 7.39 g/m*3 17.7 C 0 km/h
173 24-08-2010 10:27:02 17.8 C 7.29 g/m*3 17.8 C 0 km/h
174 24-08-2010 10:39:02 18 C 7.07 g/m*3 18 C 0 km/h
175 24-08-2010 10:51:02 18.5 C 7.28 g/m*3 18.5 C 0 km/h
Sensor: Nr:Datum:Temp:Abs-Feuchte:Windchill:Wind:
Aussen-T/F 176 24-08-2010 11:03:03 18.7 C 7.36 g/m*3 18.7 C 0 km/h
177 24-08-2010 11:15:02 18.9 C 6.97 g/m*3 18.9 C 0 km/h
178 24-08-2010 11:27:02 19.1 C 6.72 g/m*3 19.1 C 0 km/h
179 24-08-2010 11:39:02 19.4 C 6.51 g/m*3 19.4 C 0 km/h
180 24-08-2010 11:51:01 19.3 C 6.8 g/m*3 19.3 C 0 km/h
181 24-08-2010 12:03:02 19.1 C 6.56 g/m*3 19.1 C 0 km/h
182 24-08-2010 12:15:01 19.8 C 6.66 g/m*3 19.8 C 0 km/h
183 24-08-2010 12:27:01 20.1 C 6.26 g/m*3 20.1 C 0 km/h
184 24-08-2010 12:39:02 20 C 6.05 g/m*3 20 C 0 km/h
185 24-08-2010 12:51:01 21.2 C 6.12 g/m*3 21.2 C 0 km/h
186 24-08-2010 13:03:02 20.3 C 6.16 g/m*3 20.3 C 0 km/h
187 24-08-2010 13:15:01 20.5 C 6.23 g/m*3 20.5 C 0 km/h
188 24-08-2010 13:27:01 21.5 C 5.85 g/m*3 21.5 C 0 km/h
189 24-08-2010 13:39:02 21.7 C 5.72 g/m*3 21.7 C 0 km/h
190 24-08-2010 13:51:01 21 C 5.68 g/m*3 21 C 0 km/h
191 24-08-2010 14:03:02 20.8 C 5.79 g/m*3 20.8 C 0 km/h
192 24-08-2010 14:15:02 20.9 C 5.83 g/m*3 20.9 C 0 km/h
193 24-08-2010 14:27:02 21.7 C 5.34 g/m*3 21.7 C 0 km/h
194 24-08-2010 14:39:02 22.2 C 5.3 g/m*3 22.2 C 0 km/h
195 24-08-2010 14:51:02 21.7 C 5.15 g/m*3 21.7 C 0 km/h
196 24-08-2010 15:03:02 21.2 C 5.74 g/m*3 21.2 C 0 km/h
197 24-08-2010 15:15:02 21.2 C 5.19 g/m*3 21.2 C 0 km/h
198 24-08-2010 15:27:02 21.6 C 4.93 g/m*3 21.6 C 0 km/h
199 24-08-2010 15:39:01 22.1 C 5.08 g/m*3 22.1 C 0 km/h
200 24-08-2010 15:51:02 23 C 4.52 g/m*3 23 C 0 km/h
Sensor: Nr:Datum:Temp:Abs-Feuchte:Windchill:Wind:
Aussen-T/F 201 24-08-2010 16:03:01 23.2 C 4.57 g/m*3 23.2 C 0 km/h
202 24-08-2010 16:15:02 23.2 C 4.37 g/m*3 23.2 C 0 km/h
203 24-08-2010 16:27:03 23 C 4.73 g/m*3 23 C 0 km/h
204 24-08-2010 16:39:01 23.8 C 4.73 g/m*3 23.8 C 0 km/h
205 24-08-2010 16:51:02 22 C 4.66 g/m*3 22 C 0 km/h
206 24-08-2010 17:03:02 23 C 4.52 g/m*3 23 C 0 km/h
207 24-08-2010 17:15:02 23.4 C 4.21 g/m*3 23.4 C 0 km/h
208 24-08-2010 17:27:02 23.6 C 4.68 g/m*3 23.6 C 0 km/h
209 24-08-2010 17:39:03 22.9 C 4.9 g/m*3 22.9 C 0 km/h
210 24-08-2010 17:51:02 23.2 C 5.2 g/m*3 23.2 C 0 km/h
211 24-08-2010 18:03:02 23.8 C 4.95 g/m*3 23.8 C 0 km/h
212 24-08-2010 18:15:02 22.8 C 5.08 g/m*3 22.8 C 0 km/h
213 24-08-2010 18:27:02 22.9 C 5.11 g/m*3 22.9 C 0 km/h
214 24-08-2010 18:39:02 22.8 C 5.28 g/m*3 22.8 C 0 km/h
215 24-08-2010 18:51:02 22.3 C 5.13 g/m*3 22.3 C 0 km/h
216 24-08-2010 19:03:03 22.5 C 5.19 g/m*3 22.5 C 0 km/h
217 24-08-2010 19:15:02 21.7 C 5.15 g/m*3 21.7 C 0 km/h
218 24-08-2010 19:27:02 22.1 C 5.08 g/m*3 22.1 C 0 km/h
219 24-08-2010 19:39:02 21.3 C 5.03 g/m*3 21.3 C 0 km/h
220 24-08-2010 19:51:01 20.8 C 5.43 g/m*3 20.8 C 0 km/h
221 24-08-2010 20:03:02 20.4 C 5.48 g/m*3 20.4 C 0 km/h
222 24-08-2010 20:15:01 20.3 C 5.8 g/m*3 20.3 C 0 km/h
223 24-08-2010 20:27:01 19.7 C 5.94 g/m*3 19.7 C 0 km/h
224 24-08-2010 20:39:02 19.4 C 5.84 g/m*3 19.4 C 0 km/h
225 24-08-2010 20:51:01 19 C 5.87 g/m*3 19 C 0 km/h
Sensor: Nr:Datum:Temp:Abs-Feuchte:Windchill:Wind:
Aussen-T/F 226 24-08-2010 21:03:02 18.7 C 5.92 g/m*3 18.7 C 0 km/h
227 24-08-2010 21:15:02 18.4 C 6.13 g/m*3 18.4 C 0 km/h
228 24-08-2010 21:27:02 18.2 C 6.22 g/m*3 18.2 C 0 km/h
229 24-08-2010 21:39:02 18.1 C 6.18 g/m*3 18.1 C 0 km/h
230 24-08-2010 21:51:01 18 C 6.14 g/m*3 18 C 0 km/h
231 24-08-2010 22:04:03 17.7 C 6.19 g/m*3 17.7 C 0 km/h
232 24-08-2010 22:16:03 17.6 C 6.15 g/m*3 17.6 C 0 km/h
233 24-08-2010 22:28:03 17.5 C 6.26 g/m*3 17.5 C 0 km/h
234 24-08-2010 22:40:03 17.1 C 6.4 g/m*3 17.1 C 0 km/h
235 24-08-2010 22:52:03 17.1 C 6.4 g/m*3 17.1 C 0 km/h
236 24-08-2010 23:04:03 17 C 6.22 g/m*3 17 C 0 km/h
237 24-08-2010 23:16:03 16.8 C 6.43 g/m*3 16.8 C 0 km/h
238 24-08-2010 23:28:03 16.8 C 6.43 g/m*3 16.8 C 0 km/h
239 24-08-2010 23:40:03 16.7 C 6.54 g/m*3 16.7 C 0 km/h
240 24-08-2010 23:52:03 16.6 C 6.5 g/m*3 16.6 C 0 km/h
241 25-08-2010 00:04:03 16.4 C 6.42 g/m*3 16.4 C 0 km/h
242 25-08-2010 00:16:03 16.4 C 6.56 g/m*3 16.4 C 0 km/h
243 25-08-2010 00:28:03 16.2 C 6.48 g/m*3 16.2 C 0 km/h
244 25-08-2010 00:40:04 16 C 6.54 g/m*3 16 C 0 km/h
245 25-08-2010 00:52:04 15.8 C 6.73 g/m*3 15.8 C 0 km/h
246 25-08-2010 01:04:04 15.8 C 6.73 g/m*3 15.8 C 0 km/h
247 25-08-2010 01:16:04 15.6 C 6.78 g/m*3 15.6 C 0 km/h
248 25-08-2010 01:28:04 15.5 C 6.87 g/m*3 15.5 C 0 km/h
249 25-08-2010 01:40:04 15.4 C 6.83 g/m*3 15.4 C 0 km/h
250 25-08-2010 01:52:04 15.3 C 6.79 g/m*3 15.3 C 0 km/h
Sensor: Nr:Datum:Temp:Abs-Feuchte:Windchill:Wind:
Aussen-T/F 251 25-08-2010 02:04:04 15.1 C 6.97 g/m*3 15.1 C 0 km/h
252 25-08-2010 02:16:04 14.8 C 7.09 g/m*3 14.8 C 0 km/h
253 25-08-2010 02:28:04 14.6 C 7.13 g/m*3 14.6 C 0 km/h
254 25-08-2010 02:40:04 14.5 C 7.21 g/m*3 14.5 C 0 km/h
255 25-08-2010 02:52:04 14.3 C 7.13 g/m*3 14.3 C 0 km/h
256 25-08-2010 03:04:04 14.2 C 7.2 g/m*3 14.2 C 0 km/h
257 25-08-2010 03:16:04 13.9 C 7.55 g/m*3 13.9 C 0 km/h
258 25-08-2010 03:28:04 13.7 C 7.58 g/m*3 13.7 C 0 km/h
259 25-08-2010 03:40:04 13.6 C 7.77 g/m*3 13.6 C 0 km/h
260 25-08-2010 03:52:04 13.4 C 7.67 g/m*3 13.4 C 0 km/h
261 25-08-2010 04:04:04 13.4 C 7.79 g/m*3 13.4 C 0 km/h
262 25-08-2010 04:16:04 13.4 C 7.79 g/m*3 13.4 C 0 km/h
263 25-08-2010 04:28:04 13.4 C 7.67 g/m*3 13.4 C 0 km/h
264 25-08-2010 04:40:04 13.4 C 7.67 g/m*3 13.4 C 0 km/h
265 25-08-2010 04:52:05 13.4 C 7.56 g/m*3 13.4 C 0 km/h
266 25-08-2010 05:04:05 13.6 C 7.53 g/m*3 13.6 C 0 km/h
267 25-08-2010 05:16:05 13.6 C 7.41 g/m*3 13.6 C 0 km/h
268 25-08-2010 05:28:05 13.4 C 7.44 g/m*3 13.4 C 0 km/h
269 25-08-2010 05:40:05 13.2 C 7.58 g/m*3 13.2 C 0 km/h
270 25-08-2010 05:52:05 13.1 C 7.65 g/m*3 13.1 C 0 km/h
271 25-08-2010 06:04:05 13 C 7.6 g/m*3 13 C 0 km/h
272 25-08-2010 06:16:05 13.1 C 7.65 g/m*3 13.1 C 0 km/h
273 25-08-2010 06:28:05 12.9 C 7.78 g/m*3 12.9 C 0 km/h
274 25-08-2010 06:40:05 12.9 C 7.78 g/m*3 12.9 C 0 km/h
275 25-08-2010 06:52:05 12.8 C 7.73 g/m*3 12.8 C 0 km/h
Sensor: Nr:Datum:Temp:Abs-Feuchte:Windchill:Wind:
Aussen-T/F 276 25-08-2010 07:04:02 12.7 C 7.79 g/m*3 12.7 C 0 km/h
277 25-08-2010 07:16:03 12.8 C 7.84 g/m*3 12.8 C 0 km/h
278 25-08-2010 07:28:03 12.8 C 7.84 g/m*3 12.8 C 0 km/h
279 25-08-2010 07:40:02 12.7 C 7.79 g/m*3 12.7 C 0 km/h
280 25-08-2010 07:52:02 12.8 C 7.95 g/m*3 12.8 C 0 km/h
281 25-08-2010 08:04:01 13.1 C 7.87 g/m*3 13.1 C 0 km/h
282 25-08-2010 08:16:01 13.4 C 7.9 g/m*3 13.4 C 0 km/h
283 25-08-2010 08:28:01 13.5 C 7.84 g/m*3 13.5 C 0 km/h
284 25-08-2010 08:40:01 13.8 C 7.86 g/m*3 13.8 C 0 km/h
285 25-08-2010 08:52:03 13.9 C 7.79 g/m*3 13.9 C 0 km/h
286 25-08-2010 09:04:02 14.2 C 7.82 g/m*3 14.2 C 0 km/h
287 25-08-2010 09:16:02 14.7 C 8.06 g/m*3 14.7 C 0 km/h
288 25-08-2010 09:28:03 14.9 C 7.9 g/m*3 14.9 C 0 km/h
289 25-08-2010 09:40:02 15.2 C 7.79 g/m*3 15.2 C 0 km/h
290 25-08-2010 09:52:02 15.6 C 7.98 g/m*3 15.6 C 0 km/h
291 25-08-2010 10:04:01 16.1 C 7.81 g/m*3 16.1 C 0 km/h
292 25-08-2010 10:16:02 16.3 C 7.77 g/m*3 16.3 C 0 km/h
293 25-08-2010 10:28:02 16.3 C 7.77 g/m*3 16.3 C 0 km/h
294 25-08-2010 10:40:02 16.3 C 7.77 g/m*3 16.3 C 0 km/h
295 25-08-2010 10:52:02 16.5 C 7.86 g/m*3 16.5 C 0 km/h
296 25-08-2010 11:04:02 17.1 C 7.71 g/m*3 17.1 C 0 km/h
297 25-08-2010 11:16:01 17.4 C 7.85 g/m*3 17.4 C 0 km/h
298 25-08-2010 11:28:01 17.7 C 7.85 g/m*3 17.7 C 0 km/h
299 25-08-2010 11:40:02 18.1 C 7.88 g/m*3 18.1 C 0 km/h
300 25-08-2010 11:52:02 19.2 C 7.75 g/m*3 19.2 C 0 km/h
Sensor: Nr:Datum:Temp:Abs-Feuchte:Windchill:Wind:
Aussen-T/F 301 25-08-2010 12:04:02 19.7 C 7.47 g/m*3 19.7 C 0 km/h
302 25-08-2010 12:16:01 19.9 C 7.39 g/m*3 19.9 C 0 km/h
303 25-08-2010 12:28:01 20.4 C 7.43 g/m*3 20.4 C 0 km/h
304 25-08-2010 12:40:02 20 C 6.91 g/m*3 20 C 0 km/h
305 25-08-2010 12:52:02 20 C 6.74 g/m*3 20 C 0 km/h
306 25-08-2010 13:04:02 20.4 C 6.9 g/m*3 20.4 C 0 km/h
307 25-08-2010 13:16:02 20.7 C 6.84 g/m*3 20.7 C 0 km/h
308 25-08-2010 13:28:02 20.9 C 6.56 g/m*3 20.9 C 0 km/h
309 25-08-2010 13:40:02 20.8 C 6.52 g/m*3 20.8 C 0 km/h
310 25-08-2010 13:52:01 21.3 C 6.52 g/m*3 21.3 C 0 km/h
311 25-08-2010 14:04:02 21.2 C 6.49 g/m*3 21.2 C 0 km/h
312 25-08-2010 14:16:01 21.2 C 6.3 g/m*3 21.2 C 0 km/h
313 25-08-2010 14:28:01 21.7 C 6.49 g/m*3 21.7 C 0 km/h
314 25-08-2010 14:40:01 21.3 C 6.52 g/m*3 21.3 C 0 km/h
315 25-08-2010 14:52:01 21.9 C 6.37 g/m*3 21.9 C 0 km/h
316 25-08-2010 15:04:02 22.5 C 6.39 g/m*3 22.5 C 0 km/h
317 25-08-2010 15:16:01 23.1 C 6.2 g/m*3 23.1 C 0 km/h
318 25-08-2010 15:28:01 23.9 C 6.06 g/m*3 23.9 C 0 km/h
319 25-08-2010 15:40:01 24.1 C 5.69 g/m*3 24.1 C 0 km/h
320 25-08-2010 15:52:01 24.1 C 6.13 g/m*3 24.1 C 0 km/h
321 25-08-2010 16:04:01 24.3 C 5.53 g/m*3 24.3 C 0 km/h
322 25-08-2010 16:16:02 24.3 C 5.53 g/m*3 24.3 C 0 km/h
323 25-08-2010 16:28:02 25.3 C 5.62 g/m*3 25.3 C 0 km/h
324 25-08-2010 16:40:01 24.7 C 5.66 g/m*3 24.7 C 0 km/h
325 25-08-2010 16:52:01 23.7 C 5.99 g/m*3 23.7 C 0 km/h
Sensor: Nr:Datum:Temp:Abs-Feuchte:Windchill:Wind:
Aussen-T/F 326 25-08-2010 17:04:02 23.4 C 6.73 g/m*3 23.4 C 0 km/h
327 25-08-2010 17:16:01 23.3 C 6.48 g/m*3 23.3 C 0 km/h
328 25-08-2010 17:28:01 23.1 C 6.41 g/m*3 23.1 C 0 km/h
329 25-08-2010 17:40:01 23.2 C 6.86 g/m*3 23.2 C 0 km/h
330 25-08-2010 17:52:01 23 C 6.78 g/m*3 23 C 0 km/h
331 25-08-2010 18:04:02 22.2 C 6.87 g/m*3 22.2 C 0 km/h
332 25-08-2010 18:16:02 22 C 6.79 g/m*3 22 C 0 km/h
333 25-08-2010 18:28:02 22 C 6.79 g/m*3 22 C 0 km/h
334 25-08-2010 18:40:01 21.8 C 7.48 g/m*3 21.8 C 0 km/h
335 25-08-2010 18:52:01 21.5 C 7.54 g/m*3 21.5 C 0 km/h
336 25-08-2010 19:04:01 20.8 C 7.97 g/m*3 20.8 C 0 km/h
337 25-08-2010 19:16:02 20.1 C 8 g/m*3 20.1 C 0 km/h
338 25-08-2010 19:28:02 20.2 C 7.87 g/m*3 20.2 C 0 km/h
339 25-08-2010 19:40:01 20 C 7.95 g/m*3 20 C 0 km/h
340 25-08-2010 19:52:02 20 C 7.78 g/m*3 20 C 0 km/h
341 25-08-2010 20:04:01 19.7 C 8.15 g/m*3 19.7 C 0 km/h
342 25-08-2010 20:16:02 19.4 C 8.18 g/m*3 19.4 C 0 km/h
343 25-08-2010 20:28:02 19 C 8.15 g/m*3 19 C 0 km/h
344 25-08-2010 20:40:01 18.8 C 8.21 g/m*3 18.8 C 0 km/h
345 25-08-2010 20:52:02 18.3 C 8.44 g/m*3 18.3 C 0 km/h
346 25-08-2010 21:04:02 18.1 C 8.19 g/m*3 18.1 C 0 km/h
347 25-08-2010 21:16:02 18.1 C 8.34 g/m*3 18.1 C 0 km/h
348 25-08-2010 21:28:02 18.1 C 8.34 g/m*3 18.1 C 0 km/h
349 25-08-2010 21:40:02 18.2 C 8.39 g/m*3 18.2 C 0 km/h
350 25-08-2010 21:52:02 18.1 C 8.5 g/m*3 18.1 C 0 km/h
Sensor: Nr:Datum:Temp:Abs-Feuchte:Windchill:Wind:
Aussen-T/F 351 25-08-2010 22:04:01 17.9 C 8.55 g/m*3 17.9 C 0 km/h
352 25-08-2010 22:17:04 17.7 C 8.45 g/m*3 17.7 C 0 km/h
353 25-08-2010 22:29:04 17.5 C 8.35 g/m*3 17.5 C 0 km/h
354 25-08-2010 22:41:04 17.4 C 8.6 g/m*3 17.4 C 0 km/h
355 25-08-2010 22:53:04 17.3 C 8.54 g/m*3 17.3 C 0 km/h
356 25-08-2010 23:05:04 17.2 C 8.64 g/m*3 17.2 C 0 km/h
357 25-08-2010 23:17:04 17.4 C 8.74 g/m*3 17.4 C 0 km/h
358 25-08-2010 23:29:04 17.4 C 8.74 g/m*3 17.4 C 0 km/h
359 25-08-2010 23:41:04 17.3 C 8.99 g/m*3 17.3 C 0 km/h
360 25-08-2010 23:53:04 17.2 C 8.93 g/m*3 17.2 C 0 km/h
361 26-08-2010 00:05:04 17.1 C 9.03 g/m*3 17.1 C 0 km/h
362 26-08-2010 00:17:04 17.2 C 9.08 g/m*3 17.2 C 0 km/h
363 26-08-2010 00:29:04 17.3 C 9.13 g/m*3 17.3 C 0 km/h
364 26-08-2010 00:41:04 17.4 C 9.04 g/m*3 17.4 C 0 km/h
365 26-08-2010 00:53:04 17.4 C 9.04 g/m*3 17.4 C 0 km/h
366 26-08-2010 01:05:05 17.5 C 9.24 g/m*3 17.5 C 0 km/h
367 26-08-2010 01:17:05 17.5 C 9.09 g/m*3 17.5 C 0 km/h
368 26-08-2010 01:29:05 17.5 C 9.09 g/m*3 17.5 C 0 km/h
369 26-08-2010 01:41:05 17.5 C 9.09 g/m*3 17.5 C 0 km/h
370 26-08-2010 01:53:05 17.4 C 9.04 g/m*3 17.4 C 0 km/h
371 26-08-2010 02:05:05 16.9 C 9.78 g/m*3 16.9 C 0 km/h
372 26-08-2010 02:17:05 17.1 C 10.19 g/m*3 17.1 C 0 km/h
373 26-08-2010 02:29:05 16.7 C 10.09 g/m*3 16.7 C 0 km/h
374 26-08-2010 02:41:05 17 C 9.84 g/m*3 17 C 0 km/h
375 26-08-2010 02:53:05 16.7 C 9.95 g/m*3 16.7 C 0 km/h
Sensor: Nr:Datum:Temp:Abs-Feuchte:Windchill:Wind:
Aussen-T/F 376 26-08-2010 03:05:05 16.8 C 10.29 g/m*3 16.8 C 0 km/h
377 26-08-2010 03:17:05 16.8 C 10.29 g/m*3 16.8 C 0 km/h
378 26-08-2010 03:29:05 16.9 C 9.92 g/m*3 16.9 C 0 km/h
379 26-08-2010 03:41:05 16.9 C 9.92 g/m*3 16.9 C 0 km/h
380 26-08-2010 03:53:05 16.9 C 9.78 g/m*3 16.9 C 0 km/h
381 26-08-2010 04:05:06 16.9 C 9.78 g/m*3 16.9 C 0 km/h
382 26-08-2010 04:17:06 17 C 9.69 g/m*3 17 C 0 km/h
383 26-08-2010 04:29:06 17 C 9.84 g/m*3 17 C 0 km/h
384 26-08-2010 04:41:06 16.9 C 9.92 g/m*3 16.9 C 0 km/h
385 26-08-2010 04:53:06 16.9 C 10.07 g/m*3 16.9 C 0 km/h
386 26-08-2010 05:05:06 17.3 C 10.31 g/m*3 17.3 C 0 km/h
387 26-08-2010 05:17:06 18.1 C 10.35 g/m*3 18.1 C 0 km/h
388 26-08-2010 05:29:06 18.5 C 10.28 g/m*3 18.5 C 0 km/h
389 26-08-2010 05:41:06 18.8 C 10.31 g/m*3 18.8 C 0 km/h
390 26-08-2010 05:53:06 18.7 C 10.25 g/m*3 18.7 C 0 km/h
391 26-08-2010 06:05:03 18.2 C 10.1 g/m*3 18.2 C 0 km/h
392 26-08-2010 06:17:03 18.1 C 10.35 g/m*3 18.1 C 0 km/h
393 26-08-2010 06:29:03 17.9 C 10.54 g/m*3 17.9 C 0 km/h
394 26-08-2010 06:41:03 18.1 C 10.82 g/m*3 18.1 C 0 km/h
395 26-08-2010 06:53:02 18.6 C 10.82 g/m*3 18.6 C 0 km/h
396 26-08-2010 07:05:02 18.9 C 10.69 g/m*3 18.9 C 0 km/h
397 26-08-2010 07:17:02 19 C 10.59 g/m*3 19 C 0 km/h
398 26-08-2010 07:29:02 19.2 C 10.55 g/m*3 19.2 C 0 km/h
399 26-08-2010 07:41:02 19.4 C 10.68 g/m*3 19.4 C 0 km/h
400 26-08-2010 07:53:02 19.8 C 10.93 g/m*3 19.8 C 0 km/h
Sensor: Nr:Datum:Temp:Abs-Feuchte:Windchill:Wind:
Aussen-T/F 401 26-08-2010 08:05:01 20 C 10.71 g/m*3 20 C 0 km/h
402 26-08-2010 08:17:02 20.1 C 10.95 g/m*3 20.1 C 0 km/h
403 26-08-2010 08:29:02 20.2 C 11.02 g/m*3 20.2 C 0 km/h
404 26-08-2010 08:41:01 20.1 C 11.3 g/m*3 20.1 C 0 km/h
405 26-08-2010 08:53:01 20.6 C 11.63 g/m*3 20.6 C 0 km/h
406 26-08-2010 09:05:02 20.8 C 11.41 g/m*3 20.8 C 0 km/h
407 26-08-2010 09:17:02 21.1 C 11.42 g/m*3 21.1 C 0 km/h
408 26-08-2010 09:29:02 21.5 C 11.31 g/m*3 21.5 C 0 km/h
409 26-08-2010 09:41:02 22 C 11.26 g/m*3 22 C 0 km/h
410 26-08-2010 09:53:01 22.2 C 11.19 g/m*3 22.2 C 0 km/h
411 26-08-2010 10:05:02 22.6 C 11.25 g/m*3 22.6 C 0 km/h
412 26-08-2010 10:17:02 22.6 C 11.25 g/m*3 22.6 C 0 km/h
413 26-08-2010 10:29:02 22.9 C 11.24 g/m*3 22.9 C 0 km/h
414 26-08-2010 10:41:01 22.7 C 11.11 g/m*3 22.7 C 0 km/h
415 26-08-2010 10:53:02 23 C 11.1 g/m*3 23 C 0 km/h
416 26-08-2010 11:05:01 23.2 C 11.23 g/m*3 23.2 C 0 km/h
417 26-08-2010 11:17:02 23.9 C 11.25 g/m*3 23.9 C 0 km/h
418 26-08-2010 11:29:03 23.5 C 11.21 g/m*3 23.5 C 0 km/h
419 26-08-2010 11:41:01 24.1 C 11.16 g/m*3 24.1 C 0 km/h
420 26-08-2010 11:53:02 24.1 C 10.94 g/m*3 24.1 C 0 km/h
421 26-08-2010 12:05:02 24.4 C 11.13 g/m*3 24.4 C 0 km/h
422 26-08-2010 12:17:02 23.8 C 10.97 g/m*3 23.8 C 0 km/h
423 26-08-2010 12:29:02 23.4 C 11.14 g/m*3 23.4 C 0 km/h
424 26-08-2010 12:41:03 23.2 C 11.23 g/m*3 23.2 C 0 km/h
425 26-08-2010 12:53:02 22.9 C 11.24 g/m*3 22.9 C 0 km/h
Sensor: Nr:Datum:Temp:Abs-Feuchte:Windchill:Wind:
Aussen-T/F 426 26-08-2010 13:05:02 22.7 C 11.31 g/m*3 22.7 C 0 km/h
427 26-08-2010 13:17:01 22.7 C 11.31 g/m*3 22.7 C 0 km/h
428 26-08-2010 13:29:01 22.9 C 11.24 g/m*3 22.9 C 0 km/h
429 26-08-2010 13:41:02 23.3 C 11.08 g/m*3 23.3 C 0 km/h
430 26-08-2010 13:53:02 23.2 C 11.02 g/m*3 23.2 C 0 km/h
431 26-08-2010 14:05:02 23.5 C 11.21 g/m*3 23.5 C 0 km/h
432 26-08-2010 14:17:02 23.9 C 11.25 g/m*3 23.9 C 0 km/h
433 26-08-2010 14:29:02 23.9 C 11.03 g/m*3 23.9 C 0 km/h
434 26-08-2010 14:41:02 23.8 C 11.19 g/m*3 23.8 C 0 km/h
435 26-08-2010 14:53:02 23.9 C 11.25 g/m*3 23.9 C 0 km/h
436 26-08-2010 15:05:02 23.9 C 11.47 g/m*3 23.9 C 0 km/h
437 26-08-2010 15:17:02 23.8 C 11.19 g/m*3 23.8 C 0 km/h
438 26-08-2010 15:29:02 23.7 C 11.34 g/m*3 23.7 C 0 km/h
439 26-08-2010 15:41:02 23.5 C 11.42 g/m*3 23.5 C 0 km/h
440 26-08-2010 15:53:02 23.5 C 11.21 g/m*3 23.5 C 0 km/h
441 26-08-2010 16:05:02 23.9 C 11.47 g/m*3 23.9 C 0 km/h
442 26-08-2010 16:17:02 23.8 C 11.4 g/m*3 23.8 C 0 km/h
443 26-08-2010 16:29:02 23.7 C 11.34 g/m*3 23.7 C 0 km/h
444 26-08-2010 16:41:02 24.2 C 11.22 g/m*3 24.2 C 0 km/h
445 26-08-2010 16:53:02 24.1 C 10.94 g/m*3 24.1 C 0 km/h
446 26-08-2010 17:05:02 23.9 C 11.25 g/m*3 23.9 C 0 km/h
447 26-08-2010 17:17:02 23.7 C 11.34 g/m*3 23.7 C 0 km/h
448 26-08-2010 17:29:02 23.6 C 11.27 g/m*3 23.6 C 0 km/h
449 26-08-2010 17:41:02 23.5 C 11.21 g/m*3 23.5 C 0 km/h
450 26-08-2010 17:53:02 23.4 C 11.35 g/m*3 23.4 C 0 km/h
Sensor: Nr:Datum:Temp:Abs-Feuchte:Windchill:Wind:
Aussen-T/F 451 26-08-2010 18:05:02 23.4 C 11.35 g/m*3 23.4 C 0 km/h
452 26-08-2010 18:17:02 23.3 C 11.5 g/m*3 23.3 C 0 km/h
453 26-08-2010 18:29:03 23.2 C 11.85 g/m*3 23.2 C 0 km/h
454 26-08-2010 18:41:01 23 C 11.72 g/m*3 23 C 0 km/h
455 26-08-2010 18:53:02 23 C 11.92 g/m*3 23 C 0 km/h
456 26-08-2010 19:05:01 22.6 C 12.25 g/m*3 22.6 C 0 km/h
457 26-08-2010 19:17:02 22.6 C 12.25 g/m*3 22.6 C 0 km/h
458 26-08-2010 19:29:02 21.6 C 13.28 g/m*3 21.6 C 0 km/h
459 26-08-2010 19:41:02 20.7 C 14.04 g/m*3 20.7 C 0 km/h
460 26-08-2010 19:53:02 20.8 C 14.67 g/m*3 20.8 C 0 km/h
461 26-08-2010 20:05:02 21 C 14.65 g/m*3 21 C 0 km/h
462 26-08-2010 20:17:02 20.9 C 14.57 g/m*3 20.9 C 0 km/h
463 26-08-2010 20:29:02 21 C 14.47 g/m*3 21 C 0 km/h
464 26-08-2010 20:41:02 20.9 C 14.39 g/m*3 20.9 C 0 km/h
465 26-08-2010 20:53:01 20.9 C 14.39 g/m*3 20.9 C 0 km/h
466 26-08-2010 21:05:02 20.7 C 14.04 g/m*3 20.7 C 0 km/h
467 26-08-2010 21:17:01 20.7 C 14.04 g/m*3 20.7 C 0 km/h
468 26-08-2010 21:29:01 20.4 C 13.98 g/m*3 20.4 C 0 km/h
469 26-08-2010 21:41:02 20.2 C 13.99 g/m*3 20.2 C 0 km/h
470 26-08-2010 21:53:02 20.1 C 14.08 g/m*3 20.1 C 0 km/h
471 26-08-2010 22:06:04 20 C 14.34 g/m*3 20 C 0 km/h
472 26-08-2010 22:18:04 19.8 C 14.52 g/m*3 19.8 C 0 km/h
473 26-08-2010 22:30:04 19.7 C 14.6 g/m*3 19.7 C 0 km/h
474 26-08-2010 22:42:04 19.7 C 14.77 g/m*3 19.7 C 0 km/h
475 26-08-2010 22:54:04 19.6 C 14.86 g/m*3 19.6 C 0 km/h
Sensor: Nr:Datum:Temp:Abs-Feuchte:Windchill:Wind:
Aussen-T/F 476 26-08-2010 23:06:04 19.5 C 14.77 g/m*3 19.5 C 0 km/h
477 26-08-2010 23:18:04 19.5 C 14.94 g/m*3 19.5 C 0 km/h
478 26-08-2010 23:30:04 19.5 C 14.94 g/m*3 19.5 C 0 km/h
479 26-08-2010 23:42:05 19.4 C 15.02 g/m*3 19.4 C 0 km/h
480 26-08-2010 23:54:05 19.3 C 15.09 g/m*3 19.3 C 0 km/h
481 27-08-2010 00:06:05 19.2 C 15.01 g/m*3 19.2 C 0 km/h
482 27-08-2010 00:18:05 19 C 14.83 g/m*3 19 C 0 km/h
483 27-08-2010 00:30:05 19 C 14.83 g/m*3 19 C 0 km/h
484 27-08-2010 00:42:05 18.9 C 14.9 g/m*3 18.9 C 0 km/h
485 27-08-2010 00:54:05 18.8 C 14.98 g/m*3 18.8 C 0 km/h
486 27-08-2010 01:06:05 18.7 C 14.89 g/m*3 18.7 C 0 km/h
487 27-08-2010 01:18:05 18.7 C 14.89 g/m*3 18.7 C 0 km/h
488 27-08-2010 01:30:05 18.8 C 14.98 g/m*3 18.8 C 0 km/h
489 27-08-2010 01:42:05 18.8 C 14.98 g/m*3 18.8 C 0 km/h
490 27-08-2010 01:54:05 18.8 C 15.14 g/m*3 18.8 C 0 km/h
491 27-08-2010 02:06:05 18.8 C 15.14 g/m*3 18.8 C 0 km/h
492 27-08-2010 02:18:05 18.7 C 15.05 g/m*3 18.7 C 0 km/h
493 27-08-2010 02:30:05 18.5 C 14.87 g/m*3 18.5 C 0 km/h
494 27-08-2010 02:42:05 18.6 C 14.96 g/m*3 18.6 C 0 km/h
495 27-08-2010 02:54:05 18.5 C 14.87 g/m*3 18.5 C 0 km/h
496 27-08-2010 03:06:05 18.4 C 14.78 g/m*3 18.4 C 0 km/h
497 27-08-2010 03:18:05 18.4 C 14.78 g/m*3 18.4 C 0 km/h
498 27-08-2010 03:30:05 18.4 C 14.78 g/m*3 18.4 C 0 km/h
499 27-08-2010 03:42:05 18.4 C 14.78 g/m*3 18.4 C 0 km/h
500 27-08-2010 03:54:05 18.3 C 14.7 g/m*3 18.3 C 0 km/h
Sensor: Nr:Datum:Temp:Abs-Feuchte:Windchill:Wind:
Aussen-T/F 501 27-08-2010 04:06:05 18.3 C 14.7 g/m*3 18.3 C 0 km/h
502 27-08-2010 04:18:06 18.3 C 14.7 g/m*3 18.3 C 0 km/h
503 27-08-2010 04:30:06 18.4 C 14.78 g/m*3 18.4 C 0 km/h
504 27-08-2010 04:42:06 18.4 C 14.78 g/m*3 18.4 C 0 km/h
505 27-08-2010 04:54:06 18.3 C 14.7 g/m*3 18.3 C 0 km/h
506 27-08-2010 05:06:06 18.3 C 14.85 g/m*3 18.3 C 0 km/h
507 27-08-2010 05:18:06 18.3 C 14.7 g/m*3 18.3 C 0 km/h
508 27-08-2010 05:30:06 18.4 C 14.78 g/m*3 18.4 C 0 km/h
509 27-08-2010 05:42:06 18.4 C 14.94 g/m*3 18.4 C 0 km/h
510 27-08-2010 05:54:06 18.6 C 15.12 g/m*3 18.6 C 0 km/h
511 27-08-2010 06:06:06 18.7 C 15.21 g/m*3 18.7 C 0 km/h
512 27-08-2010 06:18:06 18.8 C 15.3 g/m*3 18.8 C 0 km/h
513 27-08-2010 06:30:06 18.9 C 15.39 g/m*3 18.9 C 0 km/h
514 27-08-2010 06:42:06 18.9 C 15.39 g/m*3 18.9 C 0 km/h
515 27-08-2010 06:54:06 18.8 C 15.3 g/m*3 18.8 C 0 km/h
516 27-08-2010 07:06:06 18.8 C 15.14 g/m*3 18.8 C 0 km/h
517 27-08-2010 07:18:07 18.7 C 15.05 g/m*3 18.7 C 0 km/h
518 27-08-2010 07:30:07 18.7 C 15.05 g/m*3 18.7 C 0 km/h
519 27-08-2010 07:42:07 18.6 C 14.96 g/m*3 18.6 C 0 km/h
520 27-08-2010 07:54:01 18.6 C 14.96 g/m*3 18.6 C 0 km/h
521 27-08-2010 08:06:02 18.6 C 14.96 g/m*3 18.6 C 0 km/h
522 27-08-2010 08:18:01 18.6 C 14.96 g/m*3 18.6 C 0 km/h
523 27-08-2010 08:30:01 18.6 C 14.96 g/m*3 18.6 C 0 km/h
524 27-08-2010 08:42:01 18.5 C 14.87 g/m*3 18.5 C 0 km/h
525 27-08-2010 08:54:02 18.6 C 14.96 g/m*3 18.6 C 0 km/h
Sensor: Nr:Datum:Temp:Abs-Feuchte:Windchill:Wind:
Aussen-T/F 526 27-08-2010 09:06:01 18.6 C 14.96 g/m*3 18.6 C 0 km/h
527 27-08-2010 09:18:02 18.8 C 15.14 g/m*3 18.8 C 0 km/h
528 27-08-2010 09:30:02 19.5 C 15.27 g/m*3 19.5 C 0 km/h
529 27-08-2010 09:42:01 19.7 C 15.11 g/m*3 19.7 C 0 km/h
530 27-08-2010 09:54:02 19.7 C 14.77 g/m*3 19.7 C 0 km/h
531 27-08-2010 10:06:02 19.7 C 14.6 g/m*3 19.7 C 0 km/h
532 27-08-2010 10:18:02 19.8 C 14.52 g/m*3 19.8 C 0 km/h
533 27-08-2010 10:30:02 19.4 C 14.18 g/m*3 19.4 C 0 km/h
534 27-08-2010 10:42:03 19 C 14.18 g/m*3 19 C 0 km/h
535 27-08-2010 10:54:02 18.7 C 14.25 g/m*3 18.7 C 0 km/h
536 27-08-2010 11:06:02 18.5 C 14.4 g/m*3 18.5 C 0 km/h
537 27-08-2010 11:18:01 18.3 C 13.92 g/m*3 18.3 C 0 km/h
538 27-08-2010 11:30:01 18.1 C 13.44 g/m*3 18.1 C 0 km/h
539 27-08-2010 11:42:02 17.9 C 13.13 g/m*3 17.9 C 0 km/h
540 27-08-2010 11:54:02 18 C 13.06 g/m*3 18 C 0 km/h
541 27-08-2010 12:06:02 18.7 C 13.77 g/m*3 18.7 C 0 km/h
542 27-08-2010 12:18:02 19.5 C 13.93 g/m*3 19.5 C 0 km/h
543 27-08-2010 12:30:02 20.4 C 13.62 g/m*3 20.4 C 0 km/h
544 27-08-2010 12:42:02 20.5 C 12.99 g/m*3 20.5 C 0 km/h
545 27-08-2010 12:54:02 21.4 C 13.12 g/m*3 21.4 C 0 km/h
546 27-08-2010 13:06:02 21.9 C 12.93 g/m*3 21.9 C 0 km/h
547 27-08-2010 13:18:02 22.4 C 13.11 g/m*3 22.4 C 0 km/h
548 27-08-2010 13:30:02 22.8 C 12.6 g/m*3 22.8 C 0 km/h
549 27-08-2010 13:42:02 23.4 C 12.41 g/m*3 23.4 C 0 km/h
550 27-08-2010 13:54:02 24.1 C 11.82 g/m*3 24.1 C 0 km/h
Sensor: Nr:Datum:Temp:Abs-Feuchte:Windchill:Wind:
Aussen-T/F 551 27-08-2010 14:06:02 24.2 C 11.88 g/m*3 24.2 C 0 km/h
552 27-08-2010 14:18:03 23.6 C 11.7 g/m*3 23.6 C 0 km/h
553 27-08-2010 14:30:03 22.5 C 12.78 g/m*3 22.5 C 0 km/h
554 27-08-2010 14:42:02 17 C 11 g/m*3 17 C 0 km/h
555 27-08-2010 14:54:03 16.5 C 11.94 g/m*3 16.5 C 0 km/h
556 27-08-2010 15:06:02 16.7 C 12.65 g/m*3 16.7 C 0 km/h
557 27-08-2010 15:18:02 18.3 C 13.76 g/m*3 18.3 C 0 km/h
558 27-08-2010 15:30:02 19 C 13.85 g/m*3 19 C 0 km/h
559 27-08-2010 15:42:02 19.8 C 13.66 g/m*3 19.8 C 0 km/h
560 27-08-2010 15:54:02 20.8 C 13.4 g/m*3 20.8 C 0 km/h
561 27-08-2010 16:06:01 21.8 C 12.47 g/m*3 21.8 C 0 km/h
562 27-08-2010 16:18:02 21.7 C 12.59 g/m*3 21.7 C 0 km/h
563 27-08-2010 16:30:02 21.3 C 12.68 g/m*3 21.3 C 0 km/h
564 27-08-2010 16:42:02 21.7 C 13.35 g/m*3 21.7 C 0 km/h
565 27-08-2010 16:54:02 23 C 13.36 g/m*3 23 C 0 km/h
566 27-08-2010 17:06:01 22.8 C 11.99 g/m*3 22.8 C 0 km/h
567 27-08-2010 17:18:01 22.9 C 12.47 g/m*3 22.9 C 0 km/h
568 27-08-2010 17:30:01 21.5 C 11.5 g/m*3 21.5 C 0 km/h
569 27-08-2010 17:42:02 20.2 C 11.37 g/m*3 20.2 C 0 km/h
570 27-08-2010 17:54:02 19.1 C 11.15 g/m*3 19.1 C 0 km/h
571 27-08-2010 18:06:02 17.3 C 12.08 g/m*3 17.3 C 0 km/h
572 27-08-2010 18:18:02 16.6 C 12.15 g/m*3 16.6 C 0 km/h
573 27-08-2010 18:30:02 16.4 C 12.14 g/m*3 16.4 C 0 km/h
574 27-08-2010 18:42:02 17 C 12.3 g/m*3 17 C 0 km/h
575 27-08-2010 18:54:02 16.7 C 11.37 g/m*3 16.7 C 0 km/h
Sensor: Nr:Datum:Temp:Abs-Feuchte:Windchill:Wind:
Aussen-T/F 576 27-08-2010 19:06:02 16.3 C 11.38 g/m*3 16.3 C 0 km/h
577 27-08-2010 19:18:02 16 C 11.31 g/m*3 16 C 0 km/h
578 27-08-2010 19:30:02 15.5 C 10.84 g/m*3 15.5 C 0 km/h
579 27-08-2010 19:42:02 15.3 C 10.71 g/m*3 15.3 C 0 km/h
580 27-08-2010 19:54:02 15.1 C 10.45 g/m*3 15.1 C 0 km/h
581 27-08-2010 20:06:02 15.1 C 10.58 g/m*3 15.1 C 0 km/h
582 27-08-2010 20:18:02 15.3 C 10.71 g/m*3 15.3 C 0 km/h
583 27-08-2010 20:30:02 15.3 C 10.45 g/m*3 15.3 C 0 km/h
584 27-08-2010 20:42:02 15.2 C 10.25 g/m*3 15.2 C 0 km/h
585 27-08-2010 20:54:02 14.7 C 10.2 g/m*3 14.7 C 0 km/h
586 27-08-2010 21:06:02 14.5 C 10.32 g/m*3 14.5 C 0 km/h
587 27-08-2010 21:18:03 14.5 C 10.2 g/m*3 14.5 C 0 km/h
588 27-08-2010 21:30:03 14.6 C 10.14 g/m*3 14.6 C 0 km/h
589 27-08-2010 21:42:02 14.6 C 10.14 g/m*3 14.6 C 0 km/h
590 27-08-2010 21:54:03 14.7 C 10.07 g/m*3 14.7 C 0 km/h
591 27-08-2010 22:06:02 14.8 C 10.01 g/m*3 14.8 C 0 km/h
592 27-08-2010 22:18:02 14.8 C 10.01 g/m*3 14.8 C 0 km/h
593 27-08-2010 22:30:02 14.8 C 10.01 g/m*3 14.8 C 0 km/h
594 27-08-2010 22:43:28 14.8 C 10.01 g/m*3 14.8 C 0 km/h
595 27-08-2010 22:55:28 14.5 C 10.07 g/m*3 14.5 C 0 km/h
596 27-08-2010 23:07:28 13.8 C 9.65 g/m*3 13.8 C 0 km/h
597 27-08-2010 23:19:28 13.9 C 9.59 g/m*3 13.9 C 0 km/h
598 27-08-2010 23:31:28 13.8 C 9.29 g/m*3 13.8 C 0 km/h
599 27-08-2010 23:43:28 14.1 C 9.1 g/m*3 14.1 C 0 km/h
600 27-08-2010 23:55:28 14.2 C 9.04 g/m*3 14.2 C 0 km/h
Sensor: Nr:Datum:Temp:Abs-Feuchte:Windchill:Wind:
Aussen-T/F 601 28-08-2010 00:07:28 14.1 C 9.1 g/m*3 14.1 C 0 km/h
602 28-08-2010 00:19:28 13.9 C 9.11 g/m*3 13.9 C 0 km/h
603 28-08-2010 00:31:28 14 C 9.05 g/m*3 14 C 0 km/h
604 28-08-2010 00:43:28 13.7 C 9.35 g/m*3 13.7 C 0 km/h
605 28-08-2010 00:55:29 13.2 C 9.42 g/m*3 13.2 C 0 km/h
606 28-08-2010 01:07:29 13.2 C 9.64 g/m*3 13.2 C 0 km/h
607 28-08-2010 01:19:29 13.1 C 9.81 g/m*3 13.1 C 0 km/h
608 28-08-2010 01:31:29 13 C 9.87 g/m*3 13 C 0 km/h
609 28-08-2010 01:43:29 13.1 C 10.04 g/m*3 13.1 C 0 km/h
610 28-08-2010 01:55:29 13.1 C 10.04 g/m*3 13.1 C 0 km/h
611 28-08-2010 02:07:29 13.2 C 9.99 g/m*3 13.2 C 0 km/h
612 28-08-2010 02:19:29 13.2 C 9.99 g/m*3 13.2 C 0 km/h
613 28-08-2010 02:31:29 13.1 C 9.81 g/m*3 13.1 C 0 km/h
614 28-08-2010 02:43:29 13.1 C 9.7 g/m*3 13.1 C 0 km/h
615 28-08-2010 02:55:29 13.1 C 9.59 g/m*3 13.1 C 0 km/h
616 28-08-2010 03:07:29 13.1 C 9.59 g/m*3 13.1 C 0 km/h
617 28-08-2010 03:19:29 13.1 C 9.59 g/m*3 13.1 C 0 km/h
618 28-08-2010 03:31:29 13.1 C 9.47 g/m*3 13.1 C 0 km/h
619 28-08-2010 03:43:29 13.1 C 9.59 g/m*3 13.1 C 0 km/h
620 28-08-2010 03:55:29 13.1 C 9.59 g/m*3 13.1 C 0 km/h
621 28-08-2010 04:07:29 12.9 C 9.47 g/m*3 12.9 C 0 km/h
622 28-08-2010 04:19:30 12.9 C 9.47 g/m*3 12.9 C 0 km/h
623 28-08-2010 04:31:30 12.5 C 9.24 g/m*3 12.5 C 0 km/h
624 28-08-2010 04:43:30 12.3 C 9.23 g/m*3 12.3 C 0 km/h
625 28-08-2010 04:55:30 12.1 C 9.12 g/m*3 12.1 C 0 km/h
Sensor: Nr:Datum:Temp:Abs-Feuchte:Windchill:Wind:
Aussen-T/F 626 28-08-2010 05:07:30 12.2 C 9.28 g/m*3 12.2 C 0 km/h
627 28-08-2010 05:19:30 12.3 C 9.34 g/m*3 12.3 C 0 km/h
628 28-08-2010 05:31:30 12.1 C 9.01 g/m*3 12.1 C 0 km/h
629 28-08-2010 05:43:30 11.9 C 9 g/m*3 11.9 C 0 km/h
630 28-08-2010 05:55:30 12.1 C 9.12 g/m*3 12.1 C 0 km/h
631 28-08-2010 06:07:30 11.7 C 8.89 g/m*3 11.7 C 0 km/h
632 28-08-2010 06:19:30 11.6 C 8.83 g/m*3 11.6 C 0 km/h
633 28-08-2010 06:31:30 11.7 C 8.79 g/m*3 11.7 C 0 km/h
634 28-08-2010 06:43:30 11.5 C 8.68 g/m*3 11.5 C 0 km/h
635 28-08-2010 06:55:02 11.4 C 8.62 g/m*3 11.4 C 0 km/h
636 28-08-2010 07:07:02 11.3 C 8.67 g/m*3 11.3 C 0 km/h
637 28-08-2010 07:19:02 11.3 C 8.77 g/m*3 11.3 C 0 km/h
638 28-08-2010 07:31:01 11.6 C 8.94 g/m*3 11.6 C 0 km/h
639 28-08-2010 07:43:01 12 C 8.95 g/m*3 12 C 0 km/h
640 28-08-2010 07:55:02 12.4 C 9.07 g/m*3 12.4 C 0 km/h
641 28-08-2010 08:07:01 12.6 C 9.07 g/m*3 12.6 C 0 km/h
642 28-08-2010 08:19:02 12.8 C 8.96 g/m*3 12.8 C 0 km/h
643 28-08-2010 08:31:01 13 C 8.85 g/m*3 13 C 0 km/h
644 28-08-2010 08:43:01 13.4 C 8.95 g/m*3 13.4 C 0 km/h
645 28-08-2010 08:55:02 13.6 C 8.83 g/m*3 13.6 C 0 km/h
646 28-08-2010 09:07:02 14.3 C 8.97 g/m*3 14.3 C 0 km/h
647 28-08-2010 09:19:01 14.2 C 8.55 g/m*3 14.2 C 0 km/h
648 28-08-2010 09:31:02 14.1 C 8.62 g/m*3 14.1 C 0 km/h
649 28-08-2010 09:43:02 14.1 C 8.37 g/m*3 14.1 C 0 km/h
650 28-08-2010 09:55:02 14.4 C 8.41 g/m*3 14.4 C 0 km/h
Sensor: Nr:Datum:Temp:Abs-Feuchte:Windchill:Wind:
Aussen-T/F 651 28-08-2010 10:07:02 14.6 C 8.38 g/m*3 14.6 C 0 km/h
652 28-08-2010 10:19:02 14.6 C 8.38 g/m*3 14.6 C 0 km/h
653 28-08-2010 10:31:02 15.1 C 8.39 g/m*3 15.1 C 0 km/h
654 28-08-2010 10:43:02 15.6 C 8.51 g/m*3 15.6 C 0 km/h
655 28-08-2010 10:55:02 15.8 C 8.08 g/m*3 15.8 C 0 km/h
656 28-08-2010 11:07:03 15.8 C 8.21 g/m*3 15.8 C 0 km/h
657 28-08-2010 11:19:02 16.4 C 7.96 g/m*3 16.4 C 0 km/h
658 28-08-2010 11:31:03 16.9 C 7.77 g/m*3 16.9 C 0 km/h
659 28-08-2010 11:43:03 16.7 C 7.25 g/m*3 16.7 C 0 km/h
660 28-08-2010 11:55:02 16.4 C 7.82 g/m*3 16.4 C 0 km/h
661 28-08-2010 12:07:02 17 C 7.67 g/m*3 17 C 0 km/h
662 28-08-2010 12:19:02 18 C 7.22 g/m*3 18 C 0 km/h
663 28-08-2010 12:31:02 13.7 C 8.05 g/m*3 13.7 C 0 km/h
664 28-08-2010 12:43:02 13.7 C 9.35 g/m*3 13.7 C 0 km/h
665 28-08-2010 12:55:02 14.7 C 10.58 g/m*3 14.7 C 0 km/h
666 28-08-2010 13:07:02 15.7 C 10.84 g/m*3 15.7 C 0 km/h
667 28-08-2010 13:19:03 15.8 C 10.23 g/m*3 15.8 C 0 km/h
668 28-08-2010 13:31:02 15.5 C 10.31 g/m*3 15.5 C 0 km/h
669 28-08-2010 13:43:02 17.2 C 11.57 g/m*3 17.2 C 0 km/h
670 28-08-2010 13:55:03 17 C 10.13 g/m*3 17 C 0 km/h
671 28-08-2010 14:07:02 15.8 C 8.88 g/m*3 15.8 C 0 km/h
672 28-08-2010 14:19:03 16.8 C 8.01 g/m*3 16.8 C 0 km/h
673 28-08-2010 14:31:02 15.9 C 6.91 g/m*3 15.9 C 0 km/h
674 28-08-2010 14:43:02 14.9 C 7.01 g/m*3 14.9 C 0 km/h
675 28-08-2010 14:55:02 14.6 C 7.63 g/m*3 14.6 C 0 km/h
Sensor: Nr:Datum:Temp:Abs-Feuchte:Windchill:Wind:
Aussen-T/F 676 28-08-2010 15:07:02 14.7 C 7.68 g/m*3 14.7 C 0 km/h
677 28-08-2010 15:19:02 15.8 C 7.94 g/m*3 15.8 C 0 km/h
678 28-08-2010 15:31:03 17.6 C 7.65 g/m*3 17.6 C 0 km/h
679 28-08-2010 15:43:03 17.9 C 6.72 g/m*3 17.9 C 0 km/h
680 28-08-2010 15:55:02 17.6 C 7.05 g/m*3 17.6 C 0 km/h
681 28-08-2010 16:07:01 17 C 6.8 g/m*3 17 C 0 km/h
682 28-08-2010 16:19:02 14.9 C 7.65 g/m*3 14.9 C 0 km/h
683 28-08-2010 16:31:02 13.9 C 8.27 g/m*3 13.9 C 0 km/h
684 28-08-2010 16:43:02 14.5 C 8.95 g/m*3 14.5 C 0 km/h
685 28-08-2010 16:55:01 15.2 C 8.44 g/m*3 15.2 C 0 km/h
686 28-08-2010 17:07:02 15.9 C 9.21 g/m*3 15.9 C 0 km/h
687 28-08-2010 17:19:01 16 C 8.72 g/m*3 16 C 0 km/h
688 28-08-2010 17:31:02 15.7 C 8.3 g/m*3 15.7 C 0 km/h
689 28-08-2010 17:43:02 15.2 C 8.05 g/m*3 15.2 C 0 km/h
690 28-08-2010 17:55:01 15.2 C 9.09 g/m*3 15.2 C 0 km/h
691 28-08-2010 18:07:02 16.2 C 8.27 g/m*3 16.2 C 0 km/h
692 28-08-2010 18:19:01 17 C 6.95 g/m*3 17 C 0 km/h
693 28-08-2010 18:31:02 18.1 C 7.26 g/m*3 18.1 C 0 km/h
694 28-08-2010 18:43:02 18.3 C 7.04 g/m*3 18.3 C 0 km/h
695 28-08-2010 18:55:01 18.2 C 7.46 g/m*3 18.2 C 0 km/h
696 28-08-2010 19:07:02 16.8 C 7.86 g/m*3 16.8 C 0 km/h
697 28-08-2010 19:19:02 16.1 C 7.95 g/m*3 16.1 C 0 km/h
698 28-08-2010 19:31:02 15 C 8.59 g/m*3 15 C 0 km/h
699 28-08-2010 19:43:02 14.2 C 8.79 g/m*3 14.2 C 0 km/h
700 28-08-2010 19:55:01 14.2 C 8.3 g/m*3 14.2 C 0 km/h
Sensor: Nr:Datum:Temp:Abs-Feuchte:Windchill:Wind:
Aussen-T/F 701 28-08-2010 20:07:02 13.4 C 8.6 g/m*3 13.4 C 0 km/h
702 28-08-2010 20:19:02 13 C 8.85 g/m*3 13 C 0 km/h
703 28-08-2010 20:31:01 13.1 C 9.13 g/m*3 13.1 C 0 km/h
704 28-08-2010 20:43:01 13.1 C 9.24 g/m*3 13.1 C 0 km/h
705 28-08-2010 20:55:02 12.9 C 9.35 g/m*3 12.9 C 0 km/h
706 28-08-2010 21:07:01 12.8 C 9.3 g/m*3 12.8 C 0 km/h
707 28-08-2010 21:19:02 12.7 C 9.24 g/m*3 12.7 C 0 km/h
708 28-08-2010 21:31:01 12.4 C 9.07 g/m*3 12.4 C 0 km/h
709 28-08-2010 21:43:01 12.2 C 8.96 g/m*3 12.2 C 0 km/h
710 28-08-2010 21:55:02 12.2 C 9.06 g/m*3 12.2 C 0 km/h
711 28-08-2010 22:08:02 12.3 C 9.12 g/m*3 12.3 C 0 km/h
712 28-08-2010 22:20:02 12.3 C 9.01 g/m*3 12.3 C 0 km/h
713 28-08-2010 22:32:03 12.2 C 8.85 g/m*3 12.2 C 0 km/h
714 28-08-2010 22:44:03 12.1 C 8.79 g/m*3 12.1 C 0 km/h
715 28-08-2010 22:56:03 12.3 C 9.01 g/m*3 12.3 C 0 km/h
716 28-08-2010 23:08:03 12.6 C 8.96 g/m*3 12.6 C 0 km/h
717 28-08-2010 23:20:03 12.7 C 8.79 g/m*3 12.7 C 0 km/h
718 28-08-2010 23:32:03 12.4 C 8.74 g/m*3 12.4 C 0 km/h
719 28-08-2010 23:44:03 12.1 C 8.58 g/m*3 12.1 C 0 km/h
720 28-08-2010 23:56:03 12 C 8.53 g/m*3 12 C 0 km/h
721 29-08-2010 00:08:03 11.8 C 8.42 g/m*3 11.8 C 0 km/h
722 29-08-2010 00:20:03 11.8 C 8.42 g/m*3 11.8 C 0 km/h
723 29-08-2010 00:32:03 11.9 C 8.58 g/m*3 11.9 C 0 km/h
724 29-08-2010 00:44:03 12 C 8.53 g/m*3 12 C 0 km/h
725 29-08-2010 00:56:03 12 C 8.42 g/m*3 12 C 0 km/h
Sensor: Nr:Datum:Temp:Abs-Feuchte:Windchill:Wind:
Aussen-T/F 726 29-08-2010 01:08:03 11.7 C 8.47 g/m*3 11.7 C 0 km/h
727 29-08-2010 01:20:03 11.5 C 8.37 g/m*3 11.5 C 0 km/h
728 29-08-2010 01:32:03 11.5 C 8.47 g/m*3 11.5 C 0 km/h
729 29-08-2010 01:44:03 11.4 C 8.42 g/m*3 11.4 C 0 km/h
730 29-08-2010 01:56:03 11.4 C 8.52 g/m*3 11.4 C 0 km/h
731 29-08-2010 02:08:03 11.7 C 8.58 g/m*3 11.7 C 0 km/h
732 29-08-2010 02:20:03 11.7 C 8.47 g/m*3 11.7 C 0 km/h
733 29-08-2010 02:32:03 11.7 C 8.58 g/m*3 11.7 C 0 km/h
734 29-08-2010 02:44:04 11.8 C 8.53 g/m*3 11.8 C 0 km/h
735 29-08-2010 02:56:04 11.8 C 8.53 g/m*3 11.8 C 0 km/h
736 29-08-2010 03:08:04 11.8 C 8.42 g/m*3 11.8 C 0 km/h
737 29-08-2010 03:20:04 11.8 C 8.53 g/m*3 11.8 C 0 km/h
738 29-08-2010 03:32:04 11.8 C 8.53 g/m*3 11.8 C 0 km/h
739 29-08-2010 03:44:04 11.7 C 8.47 g/m*3 11.7 C 0 km/h
740 29-08-2010 03:56:04 11.7 C 8.47 g/m*3 11.7 C 0 km/h
741 29-08-2010 04:08:04 11.6 C 8.42 g/m*3 11.6 C 0 km/h
742 29-08-2010 04:20:04 11.4 C 8.31 g/m*3 11.4 C 0 km/h
743 29-08-2010 04:32:04 11.4 C 8.42 g/m*3 11.4 C 0 km/h
744 29-08-2010 04:44:04 11.4 C 8.42 g/m*3 11.4 C 0 km/h
745 29-08-2010 04:56:04 11.7 C 8.37 g/m*3 11.7 C 0 km/h
746 29-08-2010 05:08:04 11.8 C 8.31 g/m*3 11.8 C 0 km/h
747 29-08-2010 05:20:04 11.7 C 8.26 g/m*3 11.7 C 0 km/h
748 29-08-2010 05:32:04 11.7 C 8.26 g/m*3 11.7 C 0 km/h
749 29-08-2010 05:44:04 11.7 C 8.37 g/m*3 11.7 C 0 km/h
750 29-08-2010 05:56:04 11.8 C 8.42 g/m*3 11.8 C 0 km/h
Sensor: Nr:Datum:Temp:Abs-Feuchte:Windchill:Wind:
Aussen-T/F 751 29-08-2010 06:08:04 12.2 C 8.31 g/m*3 12.2 C 0 km/h
752 29-08-2010 06:20:04 12.1 C 8.26 g/m*3 12.1 C 0 km/h
753 29-08-2010 06:32:04 12.2 C 8.2 g/m*3 12.2 C 0 km/h
754 29-08-2010 06:44:04 12 C 8.31 g/m*3 12 C 0 km/h
755 29-08-2010 06:56:04 12 C 8.42 g/m*3 12 C 0 km/h
756 29-08-2010 07:08:02 12.1 C 8.36 g/m*3 12.1 C 0 km/h
757 29-08-2010 07:20:02 12.2 C 8.31 g/m*3 12.2 C 0 km/h
758 29-08-2010 07:32:02 12.2 C 8.31 g/m*3 12.2 C 0 km/h
759 29-08-2010 07:44:02 12.2 C 8.31 g/m*3 12.2 C 0 km/h
760 29-08-2010 07:56:02 12.3 C 8.36 g/m*3 12.3 C 0 km/h
761 29-08-2010 08:08:02 12.1 C 8.36 g/m*3 12.1 C 0 km/h
762 29-08-2010 08:20:01 12.2 C 8.42 g/m*3 12.2 C 0 km/h
763 29-08-2010 08:32:02 12.5 C 8.36 g/m*3 12.5 C 0 km/h
764 29-08-2010 08:44:02 12.6 C 8.3 g/m*3 12.6 C 0 km/h
765 29-08-2010 08:56:01 12.8 C 8.29 g/m*3 12.8 C 0 km/h
766 29-08-2010 09:08:02 13.5 C 8.3 g/m*3 13.5 C 0 km/h
767 29-08-2010 09:20:02 13.8 C 8.1 g/m*3 13.8 C 0 km/h
768 29-08-2010 09:32:01 14 C 8.08 g/m*3 14 C 0 km/h
769 29-08-2010 09:44:01 14.3 C 8.23 g/m*3 14.3 C 0 km/h
770 29-08-2010 09:56:03 14.4 C 8.16 g/m*3 14.4 C 0 km/h
771 29-08-2010 10:08:03 14.9 C 8.28 g/m*3 14.9 C 0 km/h
772 29-08-2010 10:20:03 15.3 C 7.97 g/m*3 15.3 C 0 km/h
773 29-08-2010 10:32:02 15.3 C 7.97 g/m*3 15.3 C 0 km/h
774 29-08-2010 10:44:02 15.7 C 8.03 g/m*3 15.7 C 0 km/h
775 29-08-2010 10:56:01 15.8 C 7.94 g/m*3 15.8 C 0 km/h
Sensor: Nr:Datum:Temp:Abs-Feuchte:Windchill:Wind:
Aussen-T/F 776 29-08-2010 11:08:02 16.3 C 8.05 g/m*3 16.3 C 0 km/h
777 29-08-2010 11:20:01 16.4 C 7.96 g/m*3 16.4 C 0 km/h
778 29-08-2010 11:32:01 16.6 C 7.91 g/m*3 16.6 C 0 km/h
779 29-08-2010 11:44:01 16 C 7.77 g/m*3 16 C 0 km/h
780 29-08-2010 11:56:01 16 C 7.9 g/m*3 16 C 0 km/h
781 29-08-2010 12:08:01 15.9 C 7.85 g/m*3 15.9 C 0 km/h
782 29-08-2010 12:20:02 14 C 9.17 g/m*3 14 C 0 km/h
783 29-08-2010 12:32:01 14.6 C 9.76 g/m*3 14.6 C 0 km/h
784 29-08-2010 12:44:01 15.1 C 9.16 g/m*3 15.1 C 0 km/h
785 29-08-2010 12:56:03 16 C 9.13 g/m*3 16 C 0 km/h
786 29-08-2010 13:08:02 16.9 C 8.92 g/m*3 16.9 C 0 km/h
787 29-08-2010 13:20:02 16.9 C 8.63 g/m*3 16.9 C 0 km/h
788 29-08-2010 13:32:02 16.4 C 8.37 g/m*3 16.4 C 0 km/h
789 29-08-2010 13:44:02 15.3 C 8.62 g/m*3 15.3 C 0 km/h
790 29-08-2010 13:56:02 14.7 C 8.94 g/m*3 14.7 C 0 km/h
791 29-08-2010 14:08:01 15.2 C 8.83 g/m*3 15.2 C 0 km/h
792 29-08-2010 14:20:02 16.4 C 8.51 g/m*3 16.4 C 0 km/h
793 29-08-2010 14:32:02 17 C 7.96 g/m*3 17 C 0 km/h
794 29-08-2010 14:44:02 17.1 C 8.3 g/m*3 17.1 C 0 km/h
795 29-08-2010 14:56:01 16.6 C 8.33 g/m*3 16.6 C 0 km/h
796 29-08-2010 15:08:01 15.7 C 8.3 g/m*3 15.7 C 0 km/h
797 29-08-2010 15:20:01 15.5 C 8.2 g/m*3 15.5 C 0 km/h
798 29-08-2010 15:32:02 14.2 C 8.91 g/m*3 14.2 C 0 km/h
799 29-08-2010 15:44:02 14.7 C 9.69 g/m*3 14.7 C 0 km/h
800 29-08-2010 15:56:02 15.3 C 9.4 g/m*3 15.3 C 0 km/h
Sensor: Nr:Datum:Temp:Abs-Feuchte:Windchill:Wind:
Aussen-T/F 801 29-08-2010 16:08:02 15.1 C 9.03 g/m*3 15.1 C 0 km/h
802 29-08-2010 16:20:02 15.5 C 8.99 g/m*3 15.5 C 0 km/h
803 29-08-2010 16:32:02 15.9 C 8.53 g/m*3 15.9 C 0 km/h
804 29-08-2010 16:44:03 16.2 C 8.14 g/m*3 16.2 C 0 km/h
805 29-08-2010 16:56:02 16.1 C 7.81 g/m*3 16.1 C 0 km/h
806 29-08-2010 17:08:02 15.9 C 7.85 g/m*3 15.9 C 0 km/h
807 29-08-2010 17:20:02 15.6 C 7.98 g/m*3 15.6 C 0 km/h
808 29-08-2010 17:32:02 15.2 C 8.18 g/m*3 15.2 C 0 km/h
809 29-08-2010 17:44:02 14.1 C 8.74 g/m*3 14.1 C 0 km/h
810 29-08-2010 17:56:02 14 C 8.68 g/m*3 14 C 0 km/h
811 29-08-2010 18:08:02 13.8 C 8.94 g/m*3 13.8 C 0 km/h
812 29-08-2010 18:20:01 13.4 C 9.3 g/m*3 13.4 C 0 km/h
813 29-08-2010 18:32:01 13.1 C 9.59 g/m*3 13.1 C 0 km/h
814 29-08-2010 18:44:01 12.7 C 9.46 g/m*3 12.7 C 0 km/h
815 29-08-2010 18:56:02 12.3 C 9.23 g/m*3 12.3 C 0 km/h
816 29-08-2010 19:08:02 12.2 C 9.28 g/m*3 12.2 C 0 km/h
817 29-08-2010 19:20:01 12.2 C 9.39 g/m*3 12.2 C 0 km/h
818 29-08-2010 19:32:02 12 C 9.38 g/m*3 12 C 0 km/h
819 29-08-2010 19:44:02 11.8 C 9.26 g/m*3 11.8 C 0 km/h
820 29-08-2010 19:56:02 11.8 C 9.16 g/m*3 11.8 C 0 km/h
821 29-08-2010 20:08:02 11.8 C 8.95 g/m*3 11.8 C 0 km/h
822 29-08-2010 20:20:03 11.8 C 8.95 g/m*3 11.8 C 0 km/h
823 29-08-2010 20:32:02 11.7 C 8.89 g/m*3 11.7 C 0 km/h
824 29-08-2010 20:44:02 11.7 C 8.99 g/m*3 11.7 C 0 km/h
825 29-08-2010 20:56:01 11.9 C 9 g/m*3 11.9 C 0 km/h
Sensor: Nr:Datum:Temp:Abs-Feuchte:Windchill:Wind:
Aussen-T/F 826 29-08-2010 21:08:01 12 C 8.95 g/m*3 12 C 0 km/h
827 29-08-2010 21:20:02 12.2 C 8.96 g/m*3 12.2 C 0 km/h
828 29-08-2010 21:32:01 12.3 C 9.01 g/m*3 12.3 C 0 km/h
829 29-08-2010 21:44:01 12 C 8.95 g/m*3 12 C 0 km/h
830 29-08-2010 21:56:02 9.7 C 7.74 g/m*3 9.7 C 0 km/h
831 29-08-2010 22:09:03 9.3 C 7.82 g/m*3 9.3 C 0 km/h
832 29-08-2010 22:21:03 9.2 C 7.95 g/m*3 9.2 C 0 km/h
833 29-08-2010 22:33:03 9.2 C 8.04 g/m*3 9.2 C 0 km/h
834 29-08-2010 22:45:03 9.2 C 8.13 g/m*3 9.2 C 0 km/h
835 29-08-2010 22:57:03 9.1 C 8.16 g/m*3 9.1 C 0 km/h
836 29-08-2010 23:09:03 9 C 8.11 g/m*3 9 C 0 km/h
837 29-08-2010 23:21:03 9 C 8.11 g/m*3 9 C 0 km/h
838 29-08-2010 23:33:03 9 C 8.11 g/m*3 9 C 0 km/h
839 29-08-2010 23:45:03 9.3 C 8.27 g/m*3 9.3 C 0 km/h
840 29-08-2010 23:57:03 9.3 C 8.18 g/m*3 9.3 C 0 km/h
841 30-08-2010 00:09:03 9.1 C 7.99 g/m*3 9.1 C 0 km/h
842 30-08-2010 00:21:03 9.1 C 7.99 g/m*3 9.1 C 0 km/h
843 30-08-2010 00:33:03 9.1 C 7.99 g/m*3 9.1 C 0 km/h
844 30-08-2010 00:45:03 9.2 C 7.95 g/m*3 9.2 C 0 km/h
845 30-08-2010 00:57:03 9.5 C 8.01 g/m*3 9.5 C 0 km/h
846 30-08-2010 01:09:03 9.7 C 7.93 g/m*3 9.7 C 0 km/h
847 30-08-2010 01:21:03 9.8 C 7.89 g/m*3 9.8 C 0 km/h
848 30-08-2010 01:33:03 10 C 7.8 g/m*3 10 C 0 km/h
849 30-08-2010 01:45:04 10 C 7.8 g/m*3 10 C 0 km/h
850 30-08-2010 01:57:04 10.2 C 7.8 g/m*3 10.2 C 0 km/h
Sensor: Nr:Datum:Temp:Abs-Feuchte:Windchill:Wind:
Aussen-T/F 851 30-08-2010 02:09:04 10.1 C 7.75 g/m*3 10.1 C 0 km/h
852 30-08-2010 02:21:04 10.2 C 7.8 g/m*3 10.2 C 0 km/h
853 30-08-2010 02:33:04 10.5 C 7.86 g/m*3 10.5 C 0 km/h
854 30-08-2010 02:45:04 10.8 C 7.81 g/m*3 10.8 C 0 km/h
855 30-08-2010 02:57:04 11 C 7.61 g/m*3 11 C 0 km/h
856 30-08-2010 03:09:04 11.1 C 7.45 g/m*3 11.1 C 0 km/h
857 30-08-2010 03:21:04 11.2 C 7.5 g/m*3 11.2 C 0 km/h
858 30-08-2010 03:33:04 11 C 7.61 g/m*3 11 C 0 km/h
859 30-08-2010 03:45:04 10.5 C 7.76 g/m*3 10.5 C 0 km/h
860 30-08-2010 03:57:04 10.3 C 7.95 g/m*3 10.3 C 0 km/h
861 30-08-2010 04:09:04 10.3 C 8.04 g/m*3 10.3 C 0 km/h
862 30-08-2010 04:21:04 10.3 C 8.04 g/m*3 10.3 C 0 km/h
863 30-08-2010 04:33:04 10.3 C 8.04 g/m*3 10.3 C 0 km/h
864 30-08-2010 04:45:04 10.2 C 7.99 g/m*3 10.2 C 0 km/h
865 30-08-2010 04:57:04 10.2 C 7.8 g/m*3 10.2 C 0 km/h
866 30-08-2010 05:09:04 9.8 C 7.7 g/m*3 9.8 C 0 km/h
867 30-08-2010 05:21:04 9.6 C 7.79 g/m*3 9.6 C 0 km/h
868 30-08-2010 05:33:04 9.3 C 7.91 g/m*3 9.3 C 0 km/h
869 30-08-2010 05:45:05 9.6 C 8.24 g/m*3 9.6 C 0 km/h
870 30-08-2010 05:57:05 9.8 C 8.44 g/m*3 9.8 C 0 km/h
871 30-08-2010 06:09:05 9.9 C 8.5 g/m*3 9.9 C 0 km/h
872 30-08-2010 06:21:05 10 C 8.46 g/m*3 10 C 0 km/h
873 30-08-2010 06:33:05 10.1 C 8.51 g/m*3 10.1 C 0 km/h
874 30-08-2010 06:45:05 10.1 C 8.42 g/m*3 10.1 C 0 km/h
875 30-08-2010 06:57:05 10.2 C 8.47 g/m*3 10.2 C 0 km/h
Sensor: Nr:Datum:Temp:Abs-Feuchte:Windchill:Wind:
Aussen-T/F 876 30-08-2010 07:09:05 10.1 C 8.42 g/m*3 10.1 C 0 km/h
877 30-08-2010 07:21:05 9.9 C 8.4 g/m*3 9.9 C 0 km/h
878 30-08-2010 07:33:05 9.8 C 8.35 g/m*3 9.8 C 0 km/h
879 30-08-2010 07:45:05 9.9 C 8.4 g/m*3 9.9 C 0 km/h
880 30-08-2010 07:57:05 10.1 C 8.42 g/m*3 10.1 C 0 km/h
881 30-08-2010 08:09:05 10.1 C 8.42 g/m*3 10.1 C 0 km/h
882 30-08-2010 08:21:02 10.7 C 8.74 g/m*3 10.7 C 0 km/h
883 30-08-2010 08:33:02 11 C 8.71 g/m*3 11 C 0 km/h
884 30-08-2010 08:45:01 11.2 C 8.72 g/m*3 11.2 C 0 km/h
885 30-08-2010 08:57:01 11.1 C 8.56 g/m*3 11.1 C 0 km/h
886 30-08-2010 09:09:01 11.2 C 8.62 g/m*3 11.2 C 0 km/h
887 30-08-2010 09:21:01 10.8 C 8.4 g/m*3 10.8 C 0 km/h
888 30-08-2010 09:33:01 10.8 C 8.6 g/m*3 10.8 C 0 km/h
889 30-08-2010 09:45:01 11 C 8.71 g/m*3 11 C 0 km/h
890 30-08-2010 09:57:01 11.1 C 8.86 g/m*3 11.1 C 0 km/h
891 30-08-2010 10:09:01 11 C 8.61 g/m*3 11 C 0 km/h
892 30-08-2010 10:21:02 11.5 C 8.88 g/m*3 11.5 C 0 km/h
893 30-08-2010 10:33:01 11.9 C 8.9 g/m*3 11.9 C 0 km/h
894 30-08-2010 10:45:02 12.4 C 8.96 g/m*3 12.4 C 0 km/h
895 30-08-2010 10:57:02 12.5 C 8.8 g/m*3 12.5 C 0 km/h
896 30-08-2010 11:09:03 12.6 C 8.96 g/m*3 12.6 C 0 km/h
897 30-08-2010 11:21:02 12.7 C 8.13 g/m*3 12.7 C 0 km/h
898 30-08-2010 11:33:02 13.1 C 8.1 g/m*3 13.1 C 0 km/h
899 30-08-2010 11:45:02 13.1 C 8.1 g/m*3 13.1 C 0 km/h
900 30-08-2010 11:57:02 13.5 C 8.3 g/m*3 13.5 C 0 km/h
Sensor: Nr:Datum:Temp:Abs-Feuchte:Windchill:Wind:
Aussen-T/F 901 30-08-2010 12:09:01 13.8 C 8.22 g/m*3 13.8 C 0 km/h
902 30-08-2010 12:21:02 13.4 C 7.9 g/m*3 13.4 C 0 km/h
903 30-08-2010 12:33:01 13.8 C 8.22 g/m*3 13.8 C 0 km/h
904 30-08-2010 12:45:02 14.5 C 6.96 g/m*3 14.5 C 0 km/h
905 30-08-2010 12:57:02 14.6 C 6.76 g/m*3 14.6 C 0 km/h
906 30-08-2010 13:09:01 15.5 C 6.74 g/m*3 15.5 C 0 km/h
907 30-08-2010 13:21:01 16 C 6.81 g/m*3 16 C 0 km/h
908 30-08-2010 13:33:01 16.3 C 6.52 g/m*3 16.3 C 0 km/h
909 30-08-2010 13:45:02 16.2 C 6.76 g/m*3 16.2 C 0 km/h
910 30-08-2010 13:57:02 16.2 C 7.03 g/m*3 16.2 C 0 km/h
911 30-08-2010 14:09:01 15.7 C 7.36 g/m*3 15.7 C 0 km/h
912 30-08-2010 14:21:02 15.6 C 7.85 g/m*3 15.6 C 0 km/h
913 30-08-2010 14:33:02 16.6 C 7.91 g/m*3 16.6 C 0 km/h
914 30-08-2010 14:45:02 16.7 C 7.67 g/m*3 16.7 C 0 km/h
915 30-08-2010 14:57:02 16.8 C 7.86 g/m*3 16.8 C 0 km/h
916 30-08-2010 15:09:03 17.3 C 8.25 g/m*3 17.3 C 0 km/h
917 30-08-2010 15:21:02 17.7 C 7.85 g/m*3 17.7 C 0 km/h
918 30-08-2010 15:33:02 17.3 C 7.66 g/m*3 17.3 C 0 km/h
919 30-08-2010 15:45:01 17.7 C 7.54 g/m*3 17.7 C 0 km/h
920 30-08-2010 15:57:01 17.4 C 7.71 g/m*3 17.4 C 0 km/h
921 30-08-2010 16:09:02 16.9 C 7.77 g/m*3 16.9 C 0 km/h
922 30-08-2010 16:21:01 15.8 C 8.88 g/m*3 15.8 C 0 km/h
923 30-08-2010 16:33:02 14.8 C 9.37 g/m*3 14.8 C 0 km/h
924 30-08-2010 16:45:02 15.5 C 9.78 g/m*3 15.5 C 0 km/h
925 30-08-2010 16:57:02 16.3 C 9.85 g/m*3 16.3 C 0 km/h
Sensor: Nr:Datum:Temp:Abs-Feuchte:Windchill:Wind:
Aussen-T/F 926 30-08-2010 17:09:02 15.8 C 9.42 g/m*3 15.8 C 0 km/h
927 30-08-2010 17:21:01 15 C 9.49 g/m*3 15 C 0 km/h
928 30-08-2010 17:33:02 14.8 C 9.5 g/m*3 14.8 C 0 km/h
929 30-08-2010 17:45:01 14.7 C 8.81 g/m*3 14.7 C 0 km/h
930 30-08-2010 17:57:01 14.9 C 8.92 g/m*3 14.9 C 0 km/h
931 30-08-2010 18:09:02 14.7 C 8.69 g/m*3 14.7 C 0 km/h
932 30-08-2010 18:21:01 14.6 C 8.76 g/m*3 14.6 C 0 km/h
933 30-08-2010 18:33:02 14.3 C 8.6 g/m*3 14.3 C 0 km/h
934 30-08-2010 18:45:01 14.1 C 8.74 g/m*3 14.1 C 0 km/h
935 30-08-2010 18:57:01 13.9 C 8.99 g/m*3 13.9 C 0 km/h
936 30-08-2010 19:09:02 13.9 C 8.99 g/m*3 13.9 C 0 km/h
937 30-08-2010 19:21:02 13.9 C 9.23 g/m*3 13.9 C 0 km/h
938 30-08-2010 19:33:01 14.1 C 9.22 g/m*3 14.1 C 0 km/h
939 30-08-2010 19:45:02 14.2 C 8.91 g/m*3 14.2 C 0 km/h
940 30-08-2010 19:57:02 14.1 C 8.5 g/m*3 14.1 C 0 km/h
941 30-08-2010 20:09:01 13.9 C 8.51 g/m*3 13.9 C 0 km/h
942 30-08-2010 20:21:02 13.9 C 8.51 g/m*3 13.9 C 0 km/h
943 30-08-2010 20:33:01 14 C 8.56 g/m*3 14 C 0 km/h
944 30-08-2010 20:45:02 13.8 C 8.94 g/m*3 13.8 C 0 km/h
945 30-08-2010 20:57:02 13.2 C 9.07 g/m*3 13.2 C 0 km/h
946 30-08-2010 21:09:02 13.1 C 9.36 g/m*3 13.1 C 0 km/h
947 30-08-2010 21:21:01 12.9 C 9.58 g/m*3 12.9 C 0 km/h
948 30-08-2010 21:33:01 12.7 C 9.68 g/m*3 12.7 C 0 km/h
949 30-08-2010 21:45:02 12.4 C 9.51 g/m*3 12.4 C 0 km/h
950 30-08-2010 21:57:02 12.5 C 9.68 g/m*3 12.5 C 0 km/h
Sensor: Nr:Datum:Temp:Abs-Feuchte:Windchill:Wind:
Aussen-T/F 951 30-08-2010 22:09:02 12.8 C 9.97 g/m*3 12.8 C 0 km/h
952 30-08-2010 22:21:02 12.8 C 9.97 g/m*3 12.8 C 0 km/h
953 30-08-2010 22:33:02 12.7 C 9.91 g/m*3 12.7 C 0 km/h
954 30-08-2010 22:45:02 12.7 C 9.91 g/m*3 12.7 C 0 km/h
955 30-08-2010 22:57:02 12.6 C 9.85 g/m*3 12.6 C 0 km/h
956 30-08-2010 23:10:03 12.4 C 9.72 g/m*3 12.4 C 0 km/h
957 30-08-2010 23:22:03 12.4 C 9.72 g/m*3 12.4 C 0 km/h
958 30-08-2010 23:34:03 12.4 C 9.83 g/m*3 12.4 C 0 km/h
959 30-08-2010 23:46:03 12.2 C 9.6 g/m*3 12.2 C 0 km/h
960 30-08-2010 23:58:03 12.1 C 9.54 g/m*3 12.1 C 0 km/h
961 31-08-2010 00:10:03 12 C 9.48 g/m*3 12 C 0 km/h
962 31-08-2010 00:22:03 12.1 C 9.54 g/m*3 12.1 C 0 km/h
963 31-08-2010 00:34:03 12.2 C 9.6 g/m*3 12.2 C 0 km/h
964 31-08-2010 00:46:03 12.4 C 9.72 g/m*3 12.4 C 0 km/h
965 31-08-2010 00:58:03 12.4 C 9.72 g/m*3 12.4 C 0 km/h
966 31-08-2010 01:10:03 12.5 C 9.68 g/m*3 12.5 C 0 km/h
967 31-08-2010 01:22:03 12.6 C 9.62 g/m*3 12.6 C 0 km/h
968 31-08-2010 01:34:03 12.5 C 9.46 g/m*3 12.5 C 0 km/h
969 31-08-2010 01:46:03 12.4 C 9.4 g/m*3 12.4 C 0 km/h
970 31-08-2010 01:58:03 12.1 C 9.12 g/m*3 12.1 C 0 km/h
971 31-08-2010 02:10:03 12.2 C 9.28 g/m*3 12.2 C 0 km/h
972 31-08-2010 02:22:03 12.4 C 9.4 g/m*3 12.4 C 0 km/h
973 31-08-2010 02:34:03 12.4 C 9.29 g/m*3 12.4 C 0 km/h
974 31-08-2010 02:46:03 12.4 C 9.29 g/m*3 12.4 C 0 km/h
975 31-08-2010 02:58:04 12.4 C 9.29 g/m*3 12.4 C 0 km/h
Sensor: Nr:Datum:Temp:Abs-Feuchte:Windchill:Wind:
Aussen-T/F 976 31-08-2010 03:10:04 12.3 C 9.12 g/m*3 12.3 C 0 km/h
977 31-08-2010 03:22:04 12.3 C 9.12 g/m*3 12.3 C 0 km/h
978 31-08-2010 03:34:04 12 C 8.95 g/m*3 12 C 0 km/h
979 31-08-2010 03:46:04 11.9 C 9.11 g/m*3 11.9 C 0 km/h
980 31-08-2010 03:58:04 12 C 9.06 g/m*3 12 C 0 km/h
981 31-08-2010 04:10:04 11.5 C 8.88 g/m*3 11.5 C 0 km/h
982 31-08-2010 04:22:04 11.3 C 8.87 g/m*3 11.3 C 0 km/h
983 31-08-2010 04:34:04 11.4 C 9.03 g/m*3 11.4 C 0 km/h
984 31-08-2010 04:46:04 11.6 C 9.15 g/m*3 11.6 C 0 km/h
985 31-08-2010 04:58:04 11.8 C 9.37 g/m*3 11.8 C 0 km/h
986 31-08-2010 05:10:04 11.8 C 9.26 g/m*3 11.8 C 0 km/h
987 31-08-2010 05:22:04 11.5 C 9.09 g/m*3 11.5 C 0 km/h
988 31-08-2010 05:34:04 11.2 C 8.92 g/m*3 11.2 C 0 km/h
989 31-08-2010 05:46:04 11.1 C 8.86 g/m*3 11.1 C 0 km/h
990 31-08-2010 05:58:04 11.3 C 9.08 g/m*3 11.3 C 0 km/h
991 31-08-2010 06:10:04 11.4 C 9.14 g/m*3 11.4 C 0 km/h
992 31-08-2010 06:22:04 11.5 C 9.19 g/m*3 11.5 C 0 km/h
993 31-08-2010 06:34:04 11.7 C 9.31 g/m*3 11.7 C 0 km/h
994 31-08-2010 06:46:02 11.9 C 9.32 g/m*3 11.9 C 0 km/h
995 31-08-2010 06:58:02 12 C 9.17 g/m*3 12 C 0 km/h
996 31-08-2010 07:10:02 12.1 C 9.12 g/m*3 12.1 C 0 km/h
997 31-08-2010 07:22:03 12.1 C 9.12 g/m*3 12.1 C 0 km/h
998 31-08-2010 07:34:02 12.2 C 9.06 g/m*3 12.2 C 0 km/h
999 31-08-2010 07:46:02 12.2 C 9.06 g/m*3 12.2 C 0 km/h
1000 31-08-2010 07:58:02 12.4 C 9.07 g/m*3 12.4 C 0 km/h
Sensor: Nr:Datum:Temp:Abs-Feuchte:Windchill:Wind:
Aussen-T/F 1001 31-08-2010 08:10:02 12.5 C 9.02 g/m*3 12.5 C 0 km/h
1002 31-08-2010 08:22:02 12.5 C 9.02 g/m*3 12.5 C 0 km/h
1003 31-08-2010 08:34:02 12.6 C 9.07 g/m*3 12.6 C 0 km/h
1004 31-08-2010 08:46:02 12.7 C 9.13 g/m*3 12.7 C 0 km/h
1005 31-08-2010 08:58:02 12.9 C 9.13 g/m*3 12.9 C 0 km/h
1006 31-08-2010 09:10:02 13.2 C 9.07 g/m*3 13.2 C 0 km/h
1007 31-08-2010 09:22:02 13.4 C 8.95 g/m*3 13.4 C 0 km/h
1008 31-08-2010 09:34:02 13.6 C 8.94 g/m*3 13.6 C 0 km/h
1009 31-08-2010 09:46:02 13.7 C 8.76 g/m*3 13.7 C 0 km/h
1010 31-08-2010 09:58:02 14 C 8.56 g/m*3 14 C 0 km/h
1011 31-08-2010 10:10:02 14.1 C 8.5 g/m*3 14.1 C 0 km/h
1012 31-08-2010 10:22:03 14 C 8.2 g/m*3 14 C 0 km/h
1013 31-08-2010 10:34:02 14 C 8.32 g/m*3 14 C 0 km/h
1014 31-08-2010 10:46:03 14.2 C 8.3 g/m*3 14.2 C 0 km/h
1015 31-08-2010 10:58:03 14.4 C 8.41 g/m*3 14.4 C 0 km/h
1016 31-08-2010 11:10:02 14.8 C 8.23 g/m*3 14.8 C 0 km/h
1017 31-08-2010 11:22:02 15.1 C 8.13 g/m*3 15.1 C 0 km/h
1018 31-08-2010 11:34:02 15.6 C 8.11 g/m*3 15.6 C 0 km/h
1019 31-08-2010 11:46:02 16.1 C 8.09 g/m*3 16.1 C 0 km/h
1020 31-08-2010 11:58:02 16.4 C 7.82 g/m*3 16.4 C 0 km/h
1021 31-08-2010 12:10:02 16.8 C 7.86 g/m*3 16.8 C 0 km/h
1022 31-08-2010 12:22:02 16.3 C 7.91 g/m*3 16.3 C 0 km/h
1023 31-08-2010 12:34:01 16.9 C 8.2 g/m*3 16.9 C 0 km/h
1024 31-08-2010 12:46:02 16.7 C 7.82 g/m*3 16.7 C 0 km/h
1025 31-08-2010 12:58:03 17.7 C 7.85 g/m*3 17.7 C 0 km/h
Sensor: Nr:Datum:Temp:Abs-Feuchte:Windchill:Wind:
Aussen-T/F 1026 31-08-2010 13:10:01 17.3 C 7.37 g/m*3 17.3 C 0 km/h
1027 31-08-2010 13:22:01 17.5 C 6.86 g/m*3 17.5 C 0 km/h
1028 31-08-2010 13:34:02 18.2 C 6.84 g/m*3 18.2 C 0 km/h
1029 31-08-2010 13:46:02 18.3 C 7.04 g/m*3 18.3 C 0 km/h
1030 31-08-2010 13:58:02 18.5 C 6.8 g/m*3 18.5 C 0 km/h
1031 31-08-2010 14:10:02 19.2 C 6.76 g/m*3 19.2 C 0 km/h
1032 31-08-2010 14:22:02 19.9 C 6.7 g/m*3 19.9 C 0 km/h
1033 31-08-2010 14:34:02 20.3 C 6.51 g/m*3 20.3 C 0 km/h
1034 31-08-2010 14:46:02 20.8 C 6.34 g/m*3 20.8 C 0 km/h
1035 31-08-2010 14:58:02 20.6 C 5.91 g/m*3 20.6 C 0 km/h
1036 31-08-2010 15:10:02 20.4 C 6.19 g/m*3 20.4 C 0 km/h
1037 31-08-2010 15:22:02 20.1 C 6.26 g/m*3 20.1 C 0 km/h
1038 31-08-2010 15:34:02 21.4 C 5.62 g/m*3 21.4 C 0 km/h
1039 31-08-2010 15:46:02 22 C 5.43 g/m*3 22 C 0 km/h
1040 31-08-2010 15:58:02 22.1 C 5.66 g/m*3 22.1 C 0 km/h
1041 31-08-2010 16:10:02 21.4 C 5.81 g/m*3 21.4 C 0 km/h
1042 31-08-2010 16:22:02 21.1 C 5.9 g/m*3 21.1 C 0 km/h
1043 31-08-2010 16:34:02 22.6 C 5.42 g/m*3 22.6 C 0 km/h
1044 31-08-2010 16:46:02 21.3 C 5.59 g/m*3 21.3 C 0 km/h
1045 31-08-2010 16:58:02 20.9 C 5.46 g/m*3 20.9 C 0 km/h
1046 31-08-2010 17:10:02 22.8 C 5.08 g/m*3 22.8 C 0 km/h
1047 31-08-2010 17:22:03 20.9 C 5.83 g/m*3 20.9 C 0 km/h
1048 31-08-2010 17:34:02 21.8 C 5.56 g/m*3 21.8 C 0 km/h
1049 31-08-2010 17:46:02 21.6 C 5.69 g/m*3 21.6 C 0 km/h
1050 31-08-2010 17:58:02 22 C 5.63 g/m*3 22 C 0 km/h
Sensor: Nr:Datum:Temp:Abs-Feuchte:Windchill:Wind:
Aussen-T/F 1051 31-08-2010 18:10:02 22.7 C 5.66 g/m*3 22.7 C 0 km/h
1052 31-08-2010 18:22:02 22.3 C 5.33 g/m*3 22.3 C 0 km/h
1053 31-08-2010 18:34:02 22.1 C 5.47 g/m*3 22.1 C 0 km/h
1054 31-08-2010 18:46:02 22.1 C 5.86 g/m*3 22.1 C 0 km/h
1055 31-08-2010 18:58:02 22.1 C 6.05 g/m*3 22.1 C 0 km/h
1056 31-08-2010 19:10:01 21.7 C 6.1 g/m*3 21.7 C 0 km/h
1057 31-08-2010 19:22:02 20.5 C 5.69 g/m*3 20.5 C 0 km/h
1058 31-08-2010 19:34:02 20.4 C 6.55 g/m*3 20.4 C 0 km/h
1059 31-08-2010 19:46:02 20 C 6.91 g/m*3 20 C 0 km/h
1060 31-08-2010 19:58:03 19 C 7.33 g/m*3 19 C 0 km/h
1061 31-08-2010 20:10:01 17.9 C 7.18 g/m*3 17.9 C 0 km/h
1062 31-08-2010 20:22:01 16.9 C 7.19 g/m*3 16.9 C 0 km/h
1063 31-08-2010 20:34:02 16.2 C 7.17 g/m*3 16.2 C 0 km/h
1064 31-08-2010 20:46:02 15.7 C 7.09 g/m*3 15.7 C 0 km/h
1065 31-08-2010 20:58:02 15.2 C 7.14 g/m*3 15.2 C 0 km/h
1066 31-08-2010 21:10:02 14.9 C 7.39 g/m*3 14.9 C 0 km/h
1067 31-08-2010 21:22:02 14.7 C 7.43 g/m*3 14.7 C 0 km/h
1068 31-08-2010 21:34:02 14.5 C 7.59 g/m*3 14.5 C 0 km/h
1069 31-08-2010 21:47:09 14.2 C 7.69 g/m*3 14.2 C 0 km/h
1070 31-08-2010 21:59:09 13.9 C 7.91 g/m*3 13.9 C 0 km/h
1071 31-08-2010 22:11:09 13.8 C 8.22 g/m*3 13.8 C 0 km/h
1072 31-08-2010 22:23:09 13.5 C 8.07 g/m*3 13.5 C 0 km/h
1073 31-08-2010 22:35:09 13.2 C 8.04 g/m*3 13.2 C 0 km/h
1074 31-08-2010 22:47:09 13 C 8.05 g/m*3 13 C 0 km/h
1075 31-08-2010 22:59:09 12.7 C 8.13 g/m*3 12.7 C 0 km/h
Sensor: Nr:Datum:Temp:Abs-Feuchte:Windchill:Wind:
Aussen-T/F 1076 31-08-2010 23:11:09 12.5 C 8.14 g/m*3 12.5 C 0 km/h
1077 31-08-2010 23:23:09 12.4 C 8.19 g/m*3 12.4 C 0 km/h
1078 31-08-2010 23:35:09 12.4 C 8.09 g/m*3 12.4 C 0 km/h
1079 31-08-2010 23:47:09 12.2 C 7.99 g/m*3 12.2 C 0 km/h
1080 31-08-2010 23:59:09 12.1 C 8.04 g/m*3 12.1 C 0 km/h
1081 01-09-2010 00:11:09 12 C 8.1 g/m*3 12 C 0 km/h
1082 01-09-2010 00:23:09 11.8 C 8.1 g/m*3 11.8 C 0 km/h
1083 01-09-2010 00:35:09 11.6 C 8.11 g/m*3 11.6 C 0 km/h
1084 01-09-2010 00:47:10 11.3 C 8.06 g/m*3 11.3 C 0 km/h
1085 01-09-2010 00:59:10 11.2 C 8.01 g/m*3 11.2 C 0 km/h
1086 01-09-2010 01:11:10 11.2 C 8.11 g/m*3 11.2 C 0 km/h
1087 01-09-2010 01:23:10 11.1 C 8.06 g/m*3 11.1 C 0 km/h
1088 01-09-2010 01:35:10 11 C 8.11 g/m*3 11 C 0 km/h
1089 01-09-2010 01:47:10 10.9 C 8.16 g/m*3 10.9 C 0 km/h
1090 01-09-2010 01:59:10 10.7 C 8.05 g/m*3 10.7 C 0 km/h
1091 01-09-2010 02:11:10 10.6 C 8 g/m*3 10.6 C 0 km/h
1092 01-09-2010 02:23:10 10.5 C 7.95 g/m*3 10.5 C 0 km/h
1093 01-09-2010 02:35:10 10.4 C 8 g/m*3 10.4 C 0 km/h
1094 01-09-2010 02:47:10 10.2 C 7.9 g/m*3 10.2 C 0 km/h
1095 01-09-2010 02:59:10 10.1 C 7.94 g/m*3 10.1 C 0 km/h
1096 01-09-2010 03:11:10 10 C 7.89 g/m*3 10 C 0 km/h
1097 01-09-2010 03:23:10 9.9 C 8.03 g/m*3 9.9 C 0 km/h
1098 01-09-2010 03:35:10 9.8 C 8.07 g/m*3 9.8 C 0 km/h
1099 01-09-2010 03:47:10 9.6 C 7.97 g/m*3 9.6 C 0 km/h
1100 01-09-2010 03:59:10 9.4 C 7.87 g/m*3 9.4 C 0 km/h
Sensor: Nr:Datum:Temp:Abs-Feuchte:Windchill:Wind:
Aussen-T/F 1101 01-09-2010 04:11:10 9.3 C 7.91 g/m*3 9.3 C 0 km/h
1102 01-09-2010 04:23:10 9.2 C 7.86 g/m*3 9.2 C 0 km/h
1103 01-09-2010 04:35:10 9.1 C 7.81 g/m*3 9.1 C 0 km/h
1104 01-09-2010 04:47:10 9.1 C 7.9 g/m*3 9.1 C 0 km/h
1105 01-09-2010 04:59:11 9 C 7.85 g/m*3 9 C 0 km/h
1106 01-09-2010 05:11:11 8.9 C 7.88 g/m*3 8.9 C 0 km/h
1107 01-09-2010 05:23:11 8.9 C 7.97 g/m*3 8.9 C 0 km/h
1108 01-09-2010 05:35:11 8.9 C 7.97 g/m*3 8.9 C 0 km/h
1109 01-09-2010 05:47:11 8.9 C 7.97 g/m*3 8.9 C 0 km/h
1110 01-09-2010 05:59:11 9 C 7.93 g/m*3 9 C 0 km/h
1111 01-09-2010 06:11:11 9 C 8.02 g/m*3 9 C 0 km/h
1112 01-09-2010 06:23:11 8.9 C 8.06 g/m*3 8.9 C 0 km/h
1113 01-09-2010 06:35:11 8.9 C 8.06 g/m*3 8.9 C 0 km/h
1114 01-09-2010 06:47:11 9 C 8.02 g/m*3 9 C 0 km/h
1115 01-09-2010 06:59:11 8.9 C 8.06 g/m*3 8.9 C 0 km/h
1116 01-09-2010 07:11:03 9.1 C 8.07 g/m*3 9.1 C 0 km/h
1117 01-09-2010 07:23:03 9.1 C 7.99 g/m*3 9.1 C 0 km/h
1118 01-09-2010 07:35:02 9 C 7.93 g/m*3 9 C 0 km/h
1119 01-09-2010 07:47:01 8.9 C 7.97 g/m*3 8.9 C 0 km/h
1120 01-09-2010 07:59:01 9 C 7.93 g/m*3 9 C 0 km/h
1121 01-09-2010 08:11:02 9 C 7.93 g/m*3 9 C 0 km/h
1122 01-09-2010 08:23:02 9.1 C 7.99 g/m*3 9.1 C 0 km/h
1123 01-09-2010 08:35:01 9.2 C 8.04 g/m*3 9.2 C 0 km/h
1124 01-09-2010 08:47:02 9.3 C 8.09 g/m*3 9.3 C 0 km/h
1125 01-09-2010 08:59:02 9.7 C 8.2 g/m*3 9.7 C 0 km/h
Sensor: Nr:Datum:Temp:Abs-Feuchte:Windchill:Wind:
Aussen-T/F 1126 01-09-2010 09:11:02 9.8 C 8.16 g/m*3 9.8 C 0 km/h
1127 01-09-2010 09:23:02 10 C 8.08 g/m*3 10 C 0 km/h
1128 01-09-2010 09:35:02 10.2 C 8.09 g/m*3 10.2 C 0 km/h
1129 01-09-2010 09:47:02 10.5 C 8.15 g/m*3 10.5 C 0 km/h
1130 01-09-2010 09:59:02 10.6 C 8.2 g/m*3 10.6 C 0 km/h
1131 01-09-2010 10:11:02 11.2 C 8.41 g/m*3 11.2 C 0 km/h
1132 01-09-2010 10:23:01 11.7 C 8.58 g/m*3 11.7 C 0 km/h
1133 01-09-2010 10:35:02 12.2 C 8.52 g/m*3 12.2 C 0 km/h
1134 01-09-2010 10:47:01 12.4 C 8.52 g/m*3 12.4 C 0 km/h
1135 01-09-2010 10:59:01 13 C 8.73 g/m*3 13 C 0 km/h
1136 01-09-2010 11:11:02 13.4 C 8.72 g/m*3 13.4 C 0 km/h
1137 01-09-2010 11:23:02 13.7 C 8.64 g/m*3 13.7 C 0 km/h
1138 01-09-2010 11:35:02 14.1 C 8.74 g/m*3 14.1 C 0 km/h
1139 01-09-2010 11:47:02 14.7 C 8.94 g/m*3 14.7 C 0 km/h
1140 01-09-2010 11:59:02 15.4 C 8.8 g/m*3 15.4 C 0 km/h
1141 01-09-2010 12:11:02 16 C 8.72 g/m*3 16 C 0 km/h
1142 01-09-2010 12:23:02 16.9 C 8.63 g/m*3 16.9 C 0 km/h
1143 01-09-2010 12:35:01 17.2 C 8.2 g/m*3 17.2 C 0 km/h
1144 01-09-2010 12:47:02 17.8 C 8.5 g/m*3 17.8 C 0 km/h
1145 01-09-2010 12:59:02 18.3 C 8.6 g/m*3 18.3 C 0 km/h
1146 01-09-2010 13:11:01 18.7 C 8.33 g/m*3 18.7 C 0 km/h
1147 01-09-2010 13:23:01 19.2 C 8.08 g/m*3 19.2 C 0 km/h
1148 01-09-2010 13:35:02 19.7 C 7.81 g/m*3 19.7 C 0 km/h
1149 01-09-2010 13:47:02 19.9 C 7.9 g/m*3 19.9 C 0 km/h
1150 01-09-2010 13:59:02 20.1 C 7.65 g/m*3 20.1 C 0 km/h
Sensor: Nr:Datum:Temp:Abs-Feuchte:Windchill:Wind:
Aussen-T/F 1151 01-09-2010 14:11:02 20.9 C 7.47 g/m*3 20.9 C 0 km/h
1152 01-09-2010 14:23:02 20.1 C 6.95 g/m*3 20.1 C 0 km/h
1153 01-09-2010 14:35:02 21 C 7.33 g/m*3 21 C 0 km/h
1154 01-09-2010 14:47:02 21.7 C 6.87 g/m*3 21.7 C 0 km/h
1155 01-09-2010 14:59:02 22.2 C 6.48 g/m*3 22.2 C 0 km/h
1156 01-09-2010 15:11:03 22.6 C 6.43 g/m*3 22.6 C 0 km/h
1157 01-09-2010 15:23:02 23.2 C 6.03 g/m*3 23.2 C 0 km/h
1158 01-09-2010 15:35:02 23.5 C 5.71 g/m*3 23.5 C 0 km/h
1159 01-09-2010 15:47:01 24.1 C 5.91 g/m*3 24.1 C 0 km/h
1160 01-09-2010 15:59:01 24.6 C 5.85 g/m*3 24.6 C 0 km/h
1161 01-09-2010 16:11:02 23.5 C 5.5 g/m*3 23.5 C 0 km/h
1162 01-09-2010 16:23:01 24 C 5.87 g/m*3 24 C 0 km/h
1163 01-09-2010 16:35:01 23.8 C 6.02 g/m*3 23.8 C 0 km/h
1164 01-09-2010 16:47:01 23.8 C 6.45 g/m*3 23.8 C 0 km/h
1165 01-09-2010 16:59:01 23.9 C 6.27 g/m*3 23.9 C 0 km/h
1166 01-09-2010 17:11:02 23.1 C 6.2 g/m*3 23.1 C 0 km/h
1167 01-09-2010 17:23:01 22.7 C 6.47 g/m*3 22.7 C 0 km/h
1168 01-09-2010 17:35:01 22.1 C 6.05 g/m*3 22.1 C 0 km/h
1169 01-09-2010 17:47:01 21.3 C 6.52 g/m*3 21.3 C 0 km/h
1170 01-09-2010 17:59:01 21 C 6.59 g/m*3 21 C 0 km/h
1171 01-09-2010 18:11:01 20.7 C 7.02 g/m*3 20.7 C 0 km/h
1172 01-09-2010 18:23:02 20.3 C 6.86 g/m*3 20.3 C 0 km/h
1173 01-09-2010 18:35:01 21.6 C 7.02 g/m*3 21.6 C 0 km/h
1174 01-09-2010 18:47:02 22.1 C 6.83 g/m*3 22.1 C 0 km/h
1175 01-09-2010 18:59:02 20.8 C 7.06 g/m*3 20.8 C 0 km/h
Sensor: Nr:Datum:Temp:Abs-Feuchte:Windchill:Wind:
Aussen-T/F 1176 01-09-2010 19:11:01 20.7 C 7.38 g/m*3 20.7 C 0 km/h
1177 01-09-2010 19:23:02 20.3 C 7.56 g/m*3 20.3 C 0 km/h
1178 01-09-2010 19:35:01 19.6 C 7.77 g/m*3 19.6 C 0 km/h
1179 01-09-2010 19:47:02 19.1 C 8.03 g/m*3 19.1 C 0 km/h
1180 01-09-2010 19:59:02 18.4 C 8.49 g/m*3 18.4 C 0 km/h
1181 01-09-2010 20:11:02 18 C 8.45 g/m*3 18 C 0 km/h
1182 01-09-2010 20:23:02 17.6 C 8.7 g/m*3 17.6 C 0 km/h
1183 01-09-2010 20:35:03 17.3 C 8.84 g/m*3 17.3 C 0 km/h
1184 01-09-2010 20:47:02 17.1 C 8.73 g/m*3 17.1 C 0 km/h
1185 01-09-2010 20:59:02 16.8 C 8.86 g/m*3 16.8 C 0 km/h
1186 01-09-2010 21:11:01 16.6 C 8.9 g/m*3 16.6 C 0 km/h
1187 01-09-2010 21:23:02 16.5 C 8.85 g/m*3 16.5 C 0 km/h
1188 01-09-2010 21:35:02 16.3 C 8.88 g/m*3 16.3 C 0 km/h
1189 01-09-2010 21:47:02 16 C 8.72 g/m*3 16 C 0 km/h
1190 01-09-2010 21:59:02 15.8 C 8.88 g/m*3 15.8 C 0 km/h
1191 01-09-2010 22:12:03 15.8 C 8.88 g/m*3 15.8 C 0 km/h
1192 01-09-2010 22:24:03 15.6 C 8.78 g/m*3 15.6 C 0 km/h
1193 01-09-2010 22:36:03 15.5 C 8.86 g/m*3 15.5 C 0 km/h
1194 01-09-2010 22:48:03 15.3 C 8.75 g/m*3 15.3 C 0 km/h
1195 01-09-2010 23:00:03 15 C 8.59 g/m*3 15 C 0 km/h
1196 01-09-2010 23:12:03 14.6 C 8.38 g/m*3 14.6 C 0 km/h
1197 01-09-2010 23:24:03 14.1 C 8.13 g/m*3 14.1 C 0 km/h
1198 01-09-2010 23:36:03 13.6 C 8.12 g/m*3 13.6 C 0 km/h
1199 01-09-2010 23:48:03 13.5 C 8.19 g/m*3 13.5 C 0 km/h
1200 02-09-2010 00:00:04 13.3 C 8.2 g/m*3 13.3 C 0 km/h
Sensor: Nr:Datum:Temp:Abs-Feuchte:Windchill:Wind:
Aussen-T/F 1201 02-09-2010 00:12:04 13.1 C 8.1 g/m*3 13.1 C 0 km/h
1202 02-09-2010 00:24:04 13 C 8.17 g/m*3 13 C 0 km/h
1203 02-09-2010 00:36:04 12.9 C 8.34 g/m*3 12.9 C 0 km/h
1204 02-09-2010 00:48:04 12.8 C 8.29 g/m*3 12.8 C 0 km/h
1205 02-09-2010 01:00:04 12.6 C 8.3 g/m*3 12.6 C 0 km/h
1206 02-09-2010 01:12:04 12.5 C 8.36 g/m*3 12.5 C 0 km/h
1207 02-09-2010 01:24:04 12.3 C 8.36 g/m*3 12.3 C 0 km/h
1208 02-09-2010 01:36:04 12.1 C 8.26 g/m*3 12.1 C 0 km/h
1209 02-09-2010 01:48:04 12.1 C 8.58 g/m*3 12.1 C 0 km/h
1210 02-09-2010 02:00:04 11.9 C 8.58 g/m*3 11.9 C 0 km/h
1211 02-09-2010 02:12:04 11.7 C 8.58 g/m*3 11.7 C 0 km/h
1212 02-09-2010 02:24:04 11.6 C 8.63 g/m*3 11.6 C 0 km/h
1213 02-09-2010 02:36:04 11.5 C 8.57 g/m*3 11.5 C 0 km/h
1214 02-09-2010 02:48:04 11.3 C 8.47 g/m*3 11.3 C 0 km/h
1215 02-09-2010 03:00:04 11.2 C 8.41 g/m*3 11.2 C 0 km/h
1216 02-09-2010 03:12:04 11.1 C 8.36 g/m*3 11.1 C 0 km/h
1217 02-09-2010 03:24:04 11 C 8.31 g/m*3 11 C 0 km/h
1218 02-09-2010 03:36:04 10.9 C 8.26 g/m*3 10.9 C 0 km/h
1219 02-09-2010 03:48:04 10.8 C 8.2 g/m*3 10.8 C 0 km/h
1220 02-09-2010 04:00:04 10.7 C 8.25 g/m*3 10.7 C 0 km/h
1221 02-09-2010 04:12:05 10.5 C 8.24 g/m*3 10.5 C 0 km/h
1222 02-09-2010 04:24:05 10.4 C 8.29 g/m*3 10.4 C 0 km/h
1223 02-09-2010 04:36:05 10.3 C 8.33 g/m*3 10.3 C 0 km/h
1224 02-09-2010 04:48:05 10.3 C 8.33 g/m*3 10.3 C 0 km/h
1225 02-09-2010 05:00:05 10.3 C 8.43 g/m*3 10.3 C 0 km/h
Sensor: Nr:Datum:Temp:Abs-Feuchte:Windchill:Wind:
Aussen-T/F 1226 02-09-2010 05:12:05 10.3 C 8.43 g/m*3 10.3 C 0 km/h
1227 02-09-2010 05:24:05 10.3 C 8.52 g/m*3 10.3 C 0 km/h
1228 02-09-2010 05:36:05 10.3 C 8.52 g/m*3 10.3 C 0 km/h
1229 02-09-2010 05:48:05 10.4 C 8.58 g/m*3 10.4 C 0 km/h
1230 02-09-2010 06:00:05 10.3 C 8.52 g/m*3 10.3 C 0 km/h
1231 02-09-2010 06:12:05 10.3 C 8.52 g/m*3 10.3 C 0 km/h
1232 02-09-2010 06:24:05 10.3 C 8.62 g/m*3 10.3 C 0 km/h
1233 02-09-2010 06:36:03 10.4 C 8.67 g/m*3 10.4 C 0 km/h
1234 02-09-2010 06:48:01 10.4 C 8.67 g/m*3 10.4 C 0 km/h
1235 02-09-2010 07:00:01 10.4 C 8.67 g/m*3 10.4 C 0 km/h
1236 02-09-2010 07:12:02 10.5 C 8.73 g/m*3 10.5 C 0 km/h
1237 02-09-2010 07:24:01 10.7 C 8.84 g/m*3 10.7 C 0 km/h
1238 02-09-2010 07:36:01 10.9 C 8.95 g/m*3 10.9 C 0 km/h
1239 02-09-2010 07:48:01 10.9 C 8.85 g/m*3 10.9 C 0 km/h
1240 02-09-2010 08:00:01 11 C 8.81 g/m*3 11 C 0 km/h
1241 02-09-2010 08:12:02 11.3 C 8.98 g/m*3 11.3 C 0 km/h
1242 02-09-2010 08:24:02 11.3 C 8.98 g/m*3 11.3 C 0 km/h
1243 02-09-2010 08:36:01 11.4 C 8.93 g/m*3 11.4 C 0 km/h
1244 02-09-2010 08:48:02 11.7 C 9.1 g/m*3 11.7 C 0 km/h
1245 02-09-2010 09:00:03 11.7 C 8.99 g/m*3 11.7 C 0 km/h
1246 02-09-2010 09:12:02 12 C 8.95 g/m*3 12 C 0 km/h
1247 02-09-2010 09:24:02 12.5 C 9.13 g/m*3 12.5 C 0 km/h
1248 02-09-2010 09:36:02 12.8 C 9.07 g/m*3 12.8 C 0 km/h
1249 02-09-2010 09:48:01 13 C 8.73 g/m*3 13 C 0 km/h
1250 02-09-2010 10:00:01 13.5 C 8.77 g/m*3 13.5 C 0 km/h
Sensor: Nr:Datum:Temp:Abs-Feuchte:Windchill:Wind:
Aussen-T/F 1251 02-09-2010 10:12:02 13.9 C 8.75 g/m*3 13.9 C 0 km/h
1252 02-09-2010 10:24:01 14.1 C 8.62 g/m*3 14.1 C 0 km/h
1253 02-09-2010 10:36:01 14.3 C 8.6 g/m*3 14.3 C 0 km/h
1254 02-09-2010 10:48:02 14.3 C 8.48 g/m*3 14.3 C 0 km/h
1255 02-09-2010 11:00:02 14.4 C 8.65 g/m*3 14.4 C 0 km/h
1256 02-09-2010 11:12:02 14.8 C 9.12 g/m*3 14.8 C 0 km/h
1257 02-09-2010 11:24:01 15.3 C 9.14 g/m*3 15.3 C 0 km/h
1258 02-09-2010 11:36:02 16 C 8.99 g/m*3 16 C 0 km/h
1259 02-09-2010 11:48:01 16.8 C 9.15 g/m*3 16.8 C 0 km/h
1260 02-09-2010 12:00:01 17.5 C 9.24 g/m*3 17.5 C 0 km/h
1261 02-09-2010 12:12:02 18.1 C 9.12 g/m*3 18.1 C 0 km/h
1262 02-09-2010 12:24:02 18.5 C 8.86 g/m*3 18.5 C 0 km/h
1263 02-09-2010 12:36:01 19.2 C 8.41 g/m*3 19.2 C 0 km/h
1264 02-09-2010 12:48:02 20 C 7.95 g/m*3 20 C 0 km/h
1265 02-09-2010 13:00:02 20.2 C 7.34 g/m*3 20.2 C 0 km/h
1266 02-09-2010 13:12:01 20.1 C 7.3 g/m*3 20.1 C 0 km/h
1267 02-09-2010 13:24:01 21 C 7.51 g/m*3 21 C 0 km/h
1268 02-09-2010 13:36:02 21.6 C 7.21 g/m*3 21.6 C 0 km/h
1269 02-09-2010 13:48:02 21.3 C 7.46 g/m*3 21.3 C 0 km/h
1270 02-09-2010 14:00:02 21.7 C 7.63 g/m*3 21.7 C 0 km/h
1271 02-09-2010 14:12:01 22 C 7.38 g/m*3 22 C 0 km/h
1272 02-09-2010 14:24:02 21.7 C 7.06 g/m*3 21.7 C 0 km/h
1273 02-09-2010 14:36:02 22.9 C 6.95 g/m*3 22.9 C 0 km/h
1274 02-09-2010 14:48:02 22.7 C 7.07 g/m*3 22.7 C 0 km/h
1275 02-09-2010 15:00:02 22.6 C 7.03 g/m*3 22.6 C 0 km/h
Sensor: Nr:Datum:Temp:Abs-Feuchte:Windchill:Wind:
Aussen-T/F 1276 02-09-2010 15:12:02 21.8 C 6.72 g/m*3 21.8 C 0 km/h
1277 02-09-2010 15:24:02 20.3 C 6.68 g/m*3 20.3 C 0 km/h
1278 02-09-2010 15:36:02 20.9 C 7.1 g/m*3 20.9 C 0 km/h
1279 02-09-2010 15:48:02 21.5 C 6.98 g/m*3 21.5 C 0 km/h
1280 02-09-2010 16:00:02 20.9 C 6.74 g/m*3 20.9 C 0 km/h
1281 02-09-2010 16:12:02 20.2 C 6.82 g/m*3 20.2 C 0 km/h
1282 02-09-2010 16:24:02 20.3 C 7.03 g/m*3 20.3 C 0 km/h
1283 02-09-2010 16:36:02 20.8 C 7.24 g/m*3 20.8 C 0 km/h
1284 02-09-2010 16:48:02 20.8 C 6.7 g/m*3 20.8 C 0 km/h
1285 02-09-2010 17:00:02 20 C 6.91 g/m*3 20 C 0 km/h
1286 02-09-2010 17:12:02 19.3 C 7.13 g/m*3 19.3 C 0 km/h
1287 02-09-2010 17:24:02 19.6 C 7.26 g/m*3 19.6 C 0 km/h
1288 02-09-2010 17:36:02 19.6 C 7.26 g/m*3 19.6 C 0 km/h
1289 02-09-2010 17:48:02 19.2 C 7.09 g/m*3 19.2 C 0 km/h
1290 02-09-2010 18:00:02 18.9 C 7.13 g/m*3 18.9 C 0 km/h
1291 02-09-2010 18:12:01 18.7 C 7.36 g/m*3 18.7 C 0 km/h
1292 02-09-2010 18:24:02 18.7 C 7.52 g/m*3 18.7 C 0 km/h
1293 02-09-2010 18:36:02 18.6 C 7.48 g/m*3 18.6 C 0 km/h
1294 02-09-2010 18:48:01 18.4 C 7.55 g/m*3 18.4 C 0 km/h
1295 02-09-2010 19:00:01 18.5 C 8.07 g/m*3 18.5 C 0 km/h
1296 02-09-2010 19:12:02 18.3 C 8.6 g/m*3 18.3 C 0 km/h
1297 02-09-2010 19:24:01 17.8 C 8.95 g/m*3 17.8 C 0 km/h
1298 02-09-2010 19:36:02 17.2 C 9.23 g/m*3 17.2 C 0 km/h
1299 02-09-2010 19:48:02 16.4 C 9.63 g/m*3 16.4 C 0 km/h
1300 02-09-2010 20:00:02 15.8 C 9.96 g/m*3 15.8 C 0 km/h
Sensor: Nr:Datum:Temp:Abs-Feuchte:Windchill:Wind:
Aussen-T/F 1301 02-09-2010 20:12:02 15.5 C 9.91 g/m*3 15.5 C 0 km/h
1302 02-09-2010 20:24:02 15 C 9.87 g/m*3 15 C 0 km/h
1303 02-09-2010 20:36:02 14.7 C 10.07 g/m*3 14.7 C 0 km/h
1304 02-09-2010 20:48:01 14.7 C 10.2 g/m*3 14.7 C 0 km/h
1305 02-09-2010 21:00:01 14.5 C 10.07 g/m*3 14.5 C 0 km/h
1306 02-09-2010 21:12:02 14.4 C 9.89 g/m*3 14.4 C 0 km/h
1307 02-09-2010 21:24:01 14.5 C 9.95 g/m*3 14.5 C 0 km/h
1308 02-09-2010 21:36:02 14.4 C 9.77 g/m*3 14.4 C 0 km/h
1309 02-09-2010 21:49:02 14.3 C 9.58 g/m*3 14.3 C 0 km/h
1310 02-09-2010 22:01:02 14.4 C 9.52 g/m*3 14.4 C 0 km/h
1311 02-09-2010 22:13:02 14 C 9.29 g/m*3 14 C 0 km/h
1312 02-09-2010 22:25:02 13.7 C 9.24 g/m*3 13.7 C 0 km/h
1313 02-09-2010 22:37:02 13.6 C 9.3 g/m*3 13.6 C 0 km/h
1314 02-09-2010 22:49:03 13.5 C 9.36 g/m*3 13.5 C 0 km/h
1315 02-09-2010 23:01:03 13 C 9.07 g/m*3 13 C 0 km/h
1316 02-09-2010 23:13:03 13.2 C 9.3 g/m*3 13.2 C 0 km/h
1317 02-09-2010 23:25:03 13.1 C 9.24 g/m*3 13.1 C 0 km/h
1318 02-09-2010 23:37:03 12.9 C 9.24 g/m*3 12.9 C 0 km/h
1319 02-09-2010 23:49:03 12.7 C 9.13 g/m*3 12.7 C 0 km/h
1320 03-09-2010 00:01:03 12.7 C 9.13 g/m*3 12.7 C 0 km/h
1321 03-09-2010 00:13:03 12.5 C 9.13 g/m*3 12.5 C 0 km/h
1322 03-09-2010 00:25:03 12.4 C 9.07 g/m*3 12.4 C 0 km/h
1323 03-09-2010 00:37:03 12.3 C 9.12 g/m*3 12.3 C 0 km/h
1324 03-09-2010 00:49:03 12.2 C 9.06 g/m*3 12.2 C 0 km/h
1325 03-09-2010 01:01:03 12.1 C 9.01 g/m*3 12.1 C 0 km/h
Sensor: Nr:Datum:Temp:Abs-Feuchte:Windchill:Wind:
Aussen-T/F 1326 03-09-2010 01:13:03 11.9 C 8.9 g/m*3 11.9 C 0 km/h
1327 03-09-2010 01:25:03 11.9 C 9 g/m*3 11.9 C 0 km/h
1328 03-09-2010 01:37:03 11.7 C 8.89 g/m*3 11.7 C 0 km/h
1329 03-09-2010 01:49:03 11.5 C 8.78 g/m*3 11.5 C 0 km/h
1330 03-09-2010 02:01:03 11.5 C 8.88 g/m*3 11.5 C 0 km/h
1331 03-09-2010 02:13:03 11.4 C 8.83 g/m*3 11.4 C 0 km/h
1332 03-09-2010 02:25:03 11.1 C 8.66 g/m*3 11.1 C 0 km/h
1333 03-09-2010 02:37:03 11.1 C 8.66 g/m*3 11.1 C 0 km/h
1334 03-09-2010 02:49:03 11.1 C 8.76 g/m*3 11.1 C 0 km/h
1335 03-09-2010 03:01:04 11 C 8.71 g/m*3 11 C 0 km/h
1336 03-09-2010 03:13:04 10.8 C 8.7 g/m*3 10.8 C 0 km/h
1337 03-09-2010 03:25:04 10.7 C 8.64 g/m*3 10.7 C 0 km/h
1338 03-09-2010 03:37:04 10.6 C 8.59 g/m*3 10.6 C 0 km/h
1339 03-09-2010 03:49:04 10.5 C 8.53 g/m*3 10.5 C 0 km/h
1340 03-09-2010 04:01:04 10.4 C 8.58 g/m*3 10.4 C 0 km/h
1341 03-09-2010 04:13:04 10.4 C 8.58 g/m*3 10.4 C 0 km/h
1342 03-09-2010 04:25:04 10.4 C 8.67 g/m*3 10.4 C 0 km/h
1343 03-09-2010 04:37:04 10.3 C 8.62 g/m*3 10.3 C 0 km/h
1344 03-09-2010 04:49:04 10.2 C 8.56 g/m*3 10.2 C 0 km/h
1345 03-09-2010 05:01:04 10.2 C 8.56 g/m*3 10.2 C 0 km/h
1346 03-09-2010 05:13:04 10.3 C 8.62 g/m*3 10.3 C 0 km/h
1347 03-09-2010 05:25:04 10.4 C 8.77 g/m*3 10.4 C 0 km/h
1348 03-09-2010 05:37:04 10.4 C 8.77 g/m*3 10.4 C 0 km/h
1349 03-09-2010 05:49:04 10.7 C 9.04 g/m*3 10.7 C 0 km/h
1350 03-09-2010 06:01:04 10.9 C 9.15 g/m*3 10.9 C 0 km/h
Sensor: Nr:Datum:Temp:Abs-Feuchte:Windchill:Wind:
Aussen-T/F 1351 03-09-2010 06:13:04 11 C 9.21 g/m*3 11 C 0 km/h
1352 03-09-2010 06:25:04 11.1 C 9.27 g/m*3 11.1 C 0 km/h
1353 03-09-2010 06:37:04 11.1 C 9.27 g/m*3 11.1 C 0 km/h
1354 03-09-2010 06:49:04 11.3 C 9.28 g/m*3 11.3 C 0 km/h
1355 03-09-2010 07:01:02 11.4 C 9.34 g/m*3 11.4 C 0 km/h
1356 03-09-2010 07:13:02 11.2 C 9.22 g/m*3 11.2 C 0 km/h
1357 03-09-2010 07:25:02 11.2 C 9.22 g/m*3 11.2 C 0 km/h
1358 03-09-2010 07:37:03 11.5 C 9.4 g/m*3 11.5 C 0 km/h
1359 03-09-2010 07:49:02 11.5 C 9.4 g/m*3 11.5 C 0 km/h
1360 03-09-2010 08:01:03 11.6 C 9.46 g/m*3 11.6 C 0 km/h
1361 03-09-2010 08:13:03 11.7 C 9.41 g/m*3 11.7 C 0 km/h
1362 03-09-2010 08:25:02 11.7 C 9.41 g/m*3 11.7 C 0 km/h
1363 03-09-2010 08:37:03 11.6 C 9.25 g/m*3 11.6 C 0 km/h
1364 03-09-2010 08:49:02 11.6 C 9.15 g/m*3 11.6 C 0 km/h
1365 03-09-2010 09:01:02 12 C 9.27 g/m*3 12 C 0 km/h
1366 03-09-2010 09:13:02 12.1 C 9.22 g/m*3 12.1 C 0 km/h
1367 03-09-2010 09:25:02 12.3 C 9.23 g/m*3 12.3 C 0 km/h
1368 03-09-2010 09:37:02 12.7 C 9.35 g/m*3 12.7 C 0 km/h
1369 03-09-2010 09:49:02 13.1 C 9.36 g/m*3 13.1 C 0 km/h
1370 03-09-2010 10:01:02 12.9 C 9.13 g/m*3 12.9 C 0 km/h
1371 03-09-2010 10:13:02 12.8 C 9.18 g/m*3 12.8 C 0 km/h
1372 03-09-2010 10:25:02 13.5 C 9.36 g/m*3 13.5 C 0 km/h
1373 03-09-2010 10:37:03 14 C 9.05 g/m*3 14 C 0 km/h
1374 03-09-2010 10:49:02 14.7 C 9.32 g/m*3 14.7 C 0 km/h
1375 03-09-2010 11:01:02 15.3 C 9.14 g/m*3 15.3 C 0 km/h
Sensor: Nr:Datum:Temp:Abs-Feuchte:Windchill:Wind:
Aussen-T/F 1376 03-09-2010 11:13:02 15.4 C 8.93 g/m*3 15.4 C 0 km/h
1377 03-09-2010 11:25:02 15.8 C 9.02 g/m*3 15.8 C 0 km/h
1378 03-09-2010 11:37:02 16.4 C 8.93 g/m*3 16.4 C 0 km/h
1379 03-09-2010 11:49:02 16.6 C 8.62 g/m*3 16.6 C 0 km/h
1380 03-09-2010 12:01:02 17.4 C 8.45 g/m*3 17.4 C 0 km/h
1381 03-09-2010 12:13:02 17.7 C 8.6 g/m*3 17.7 C 0 km/h
1382 03-09-2010 12:25:02 17.8 C 8.35 g/m*3 17.8 C 0 km/h
1383 03-09-2010 12:37:02 18.1 C 8.34 g/m*3 18.1 C 0 km/h
1384 03-09-2010 12:49:01 18.3 C 8.6 g/m*3 18.3 C 0 km/h
1385 03-09-2010 13:01:01 18.8 C 8.37 g/m*3 18.8 C 0 km/h
1386 03-09-2010 13:13:01 19.4 C 8.18 g/m*3 19.4 C 0 km/h
1387 03-09-2010 13:25:01 20.1 C 8.17 g/m*3 20.1 C 0 km/h
1388 03-09-2010 13:37:01 19.9 C 7.9 g/m*3 19.9 C 0 km/h
1389 03-09-2010 13:49:01 20.2 C 8.22 g/m*3 20.2 C 0 km/h
1390 03-09-2010 14:01:01 20 C 7.6 g/m*3 20 C 0 km/h
1391 03-09-2010 14:13:01 20.5 C 7.65 g/m*3 20.5 C 0 km/h
1392 03-09-2010 14:25:01 19.7 C 7.64 g/m*3 19.7 C 0 km/h
1393 03-09-2010 14:37:01 20.4 C 7.96 g/m*3 20.4 C 0 km/h
1394 03-09-2010 14:49:01 21.4 C 7.31 g/m*3 21.4 C 0 km/h
1395 03-09-2010 15:01:02 21.8 C 7.1 g/m*3 21.8 C 0 km/h
1396 03-09-2010 15:13:02 22.7 C 7.27 g/m*3 22.7 C 0 km/h
1397 03-09-2010 15:25:01 23.3 C 6.9 g/m*3 23.3 C 0 km/h
1398 03-09-2010 15:37:01 22.7 C 6.87 g/m*3 22.7 C 0 km/h
1399 03-09-2010 15:49:01 23.4 C 6.94 g/m*3 23.4 C 0 km/h
1400 03-09-2010 16:01:01 24.8 C 6.83 g/m*3 24.8 C 0 km/h
Sensor: Nr:Datum:Temp:Abs-Feuchte:Windchill:Wind:
Aussen-T/F 1401 03-09-2010 16:13:01 25.5 C 6.63 g/m*3 25.5 C 0 km/h
1402 03-09-2010 16:25:02 25.7 C 6.46 g/m*3 25.7 C 0 km/h
1403 03-09-2010 16:37:01 25.7 C 6.46 g/m*3 25.7 C 0 km/h
1404 03-09-2010 16:49:02 23.9 C 6.49 g/m*3 23.9 C 0 km/h
1405 03-09-2010 17:01:01 25.3 C 6.32 g/m*3 25.3 C 0 km/h
1406 03-09-2010 17:13:01 24.8 C 6.6 g/m*3 24.8 C 0 km/h
1407 03-09-2010 17:25:01 23.9 C 6.49 g/m*3 23.9 C 0 km/h
1408 03-09-2010 17:37:01 23.4 C 6.52 g/m*3 23.4 C 0 km/h
1409 03-09-2010 17:49:02 23.2 C 6.65 g/m*3 23.2 C 0 km/h
1410 03-09-2010 18:01:02 23 C 7.6 g/m*3 23 C 0 km/h
1411 03-09-2010 18:13:02 23.1 C 8.06 g/m*3 23.1 C 0 km/h
1412 03-09-2010 18:25:02 23.2 C 8.11 g/m*3 23.2 C 0 km/h
1413 03-09-2010 18:37:02 22.5 C 7.99 g/m*3 22.5 C 0 km/h
1414 03-09-2010 18:49:01 21.7 C 8.77 g/m*3 21.7 C 0 km/h
1415 03-09-2010 19:01:02 21.2 C 8.9 g/m*3 21.2 C 0 km/h
1416 03-09-2010 19:13:02 20.6 C 8.95 g/m*3 20.6 C 0 km/h
1417 03-09-2010 19:25:01 20.6 C 8.77 g/m*3 20.6 C 0 km/h
1418 03-09-2010 19:37:02 20.7 C 8.82 g/m*3 20.7 C 0 km/h
1419 03-09-2010 19:49:02 20.4 C 8.85 g/m*3 20.4 C 0 km/h
1420 03-09-2010 20:01:02 19.7 C 8.66 g/m*3 19.7 C 0 km/h
1421 03-09-2010 20:13:02 19.2 C 8.08 g/m*3 19.2 C 0 km/h
1422 03-09-2010 20:25:01 18.3 C 8.6 g/m*3 18.3 C 0 km/h
1423 03-09-2010 20:37:02 18.1 C 7.88 g/m*3 18.1 C 0 km/h
1424 03-09-2010 20:49:02 17.8 C 8.04 g/m*3 17.8 C 0 km/h
1425 03-09-2010 21:01:02 17 C 8.39 g/m*3 17 C 0 km/h
Sensor: Nr:Datum:Temp:Abs-Feuchte:Windchill:Wind:
Aussen-T/F 1426 03-09-2010 21:13:02 16.5 C 8.57 g/m*3 16.5 C 0 km/h
1427 03-09-2010 21:25:02 16.2 C 8.55 g/m*3 16.2 C 0 km/h
1428 03-09-2010 21:37:02 16.1 C 8.64 g/m*3 16.1 C 0 km/h
1429 03-09-2010 21:49:01 15.8 C 8.62 g/m*3 15.8 C 0 km/h
1430 03-09-2010 22:01:01 15.6 C 8.78 g/m*3 15.6 C 0 km/h
1431 03-09-2010 22:13:01 15.3 C 8.75 g/m*3 15.3 C 0 km/h
1432 03-09-2010 22:25:02 15.2 C 8.7 g/m*3 15.2 C 0 km/h
1433 03-09-2010 22:37:01 15.2 C 8.96 g/m*3 15.2 C 0 km/h
1434 03-09-2010 22:50:03 15.5 C 9.12 g/m*3 15.5 C 0 km/h
1435 03-09-2010 23:02:03 15.5 C 9.25 g/m*3 15.5 C 0 km/h
1436 03-09-2010 23:14:03 15.4 C 9.2 g/m*3 15.4 C 0 km/h
1437 03-09-2010 23:26:03 15.4 C 9.2 g/m*3 15.4 C 0 km/h
1438 03-09-2010 23:38:03 15.2 C 9.22 g/m*3 15.2 C 0 km/h
1439 03-09-2010 23:50:03 15.2 C 9.22 g/m*3 15.2 C 0 km/h
1440 04-09-2010 00:02:03 15.2 C 9.22 g/m*3 15.2 C 0 km/h
1441 04-09-2010 00:14:03 15.1 C 9.29 g/m*3 15.1 C 0 km/h
1442 04-09-2010 00:26:03 15.1 C 9.29 g/m*3 15.1 C 0 km/h
1443 04-09-2010 00:38:03 15.1 C 9.29 g/m*3 15.1 C 0 km/h
1444 04-09-2010 00:50:03 15 C 9.36 g/m*3 15 C 0 km/h
1445 04-09-2010 01:02:03 15 C 9.36 g/m*3 15 C 0 km/h
1446 04-09-2010 01:14:03 15 C 9.36 g/m*3 15 C 0 km/h
1447 04-09-2010 01:26:04 14.7 C 9.44 g/m*3 14.7 C 0 km/h
1448 04-09-2010 01:38:04 14.7 C 9.44 g/m*3 14.7 C 0 km/h
1449 04-09-2010 01:50:04 14.7 C 9.44 g/m*3 14.7 C 0 km/h
1450 04-09-2010 02:02:04 14.5 C 9.45 g/m*3 14.5 C 0 km/h
Sensor: Nr:Datum:Temp:Abs-Feuchte:Windchill:Wind:
Aussen-T/F 1451 04-09-2010 02:14:04 14.4 C 9.39 g/m*3 14.4 C 0 km/h
1452 04-09-2010 02:26:04 14.2 C 9.4 g/m*3 14.2 C 0 km/h
1453 04-09-2010 02:38:04 14.2 C 9.4 g/m*3 14.2 C 0 km/h
1454 04-09-2010 02:50:04 14.1 C 9.34 g/m*3 14.1 C 0 km/h
1455 04-09-2010 03:02:04 14 C 9.29 g/m*3 14 C 0 km/h
1456 04-09-2010 03:14:04 13.7 C 9.35 g/m*3 13.7 C 0 km/h
1457 04-09-2010 03:26:04 13.7 C 9.35 g/m*3 13.7 C 0 km/h
1458 04-09-2010 03:38:04 13.6 C 9.53 g/m*3 13.6 C 0 km/h
1459 04-09-2010 03:50:04 13.6 C 9.53 g/m*3 13.6 C 0 km/h
1460 04-09-2010 04:02:04 13.4 C 9.42 g/m*3 13.4 C 0 km/h
1461 04-09-2010 04:14:04 13.3 C 9.47 g/m*3 13.3 C 0 km/h
1462 04-09-2010 04:26:04 13.1 C 9.36 g/m*3 13.1 C 0 km/h
1463 04-09-2010 04:38:04 13.2 C 9.64 g/m*3 13.2 C 0 km/h
1464 04-09-2010 04:50:04 13 C 9.53 g/m*3 13 C 0 km/h
1465 04-09-2010 05:02:04 13.1 C 9.59 g/m*3 13.1 C 0 km/h
1466 04-09-2010 05:14:04 13.2 C 9.64 g/m*3 13.2 C 0 km/h
1467 04-09-2010 05:26:04 13.2 C 9.64 g/m*3 13.2 C 0 km/h
1468 04-09-2010 05:38:05 13.1 C 9.59 g/m*3 13.1 C 0 km/h
1469 04-09-2010 05:50:05 12.9 C 9.47 g/m*3 12.9 C 0 km/h
1470 04-09-2010 06:02:05 12.9 C 9.47 g/m*3 12.9 C 0 km/h
1471 04-09-2010 06:14:05 12.7 C 9.35 g/m*3 12.7 C 0 km/h
1472 04-09-2010 06:26:05 12.5 C 9.24 g/m*3 12.5 C 0 km/h
1473 04-09-2010 06:38:05 12.4 C 9.29 g/m*3 12.4 C 0 km/h
1474 04-09-2010 06:50:05 12.2 C 9.17 g/m*3 12.2 C 0 km/h
1475 04-09-2010 07:02:05 12 C 9.17 g/m*3 12 C 0 km/h
Sensor: Nr:Datum:Temp:Abs-Feuchte:Windchill:Wind:
Aussen-T/F 1476 04-09-2010 07:14:05 12 C 9.17 g/m*3 12 C 0 km/h
1477 04-09-2010 07:26:05 12 C 9.17 g/m*3 12 C 0 km/h
1478 04-09-2010 07:38:05 12.2 C 9.39 g/m*3 12.2 C 0 km/h
1479 04-09-2010 07:50:02 12.2 C 9.39 g/m*3 12.2 C 0 km/h
1480 04-09-2010 08:02:02 12.5 C 9.68 g/m*3 12.5 C 0 km/h
1481 04-09-2010 08:14:02 12.7 C 9.8 g/m*3 12.7 C 0 km/h
1482 04-09-2010 08:26:03 12.7 C 9.68 g/m*3 12.7 C 0 km/h
1483 04-09-2010 08:38:02 12.9 C 9.81 g/m*3 12.9 C 0 km/h
1484 04-09-2010 08:50:02 13.2 C 9.87 g/m*3 13.2 C 0 km/h
1485 04-09-2010 09:02:02 13.7 C 10.07 g/m*3 13.7 C 0 km/h
1486 04-09-2010 09:14:02 14.3 C 10.2 g/m*3 14.3 C 0 km/h
1487 04-09-2010 09:26:02 14.6 C 10.01 g/m*3 14.6 C 0 km/h
1488 04-09-2010 09:38:02 14.7 C 9.82 g/m*3 14.7 C 0 km/h
1489 04-09-2010 09:50:02 14.9 C 9.69 g/m*3 14.9 C 0 km/h
1490 04-09-2010 10:02:02 15.2 C 9.61 g/m*3 15.2 C 0 km/h
1491 04-09-2010 10:14:02 15.6 C 9.58 g/m*3 15.6 C 0 km/h
1492 04-09-2010 10:26:02 15.9 C 9.62 g/m*3 15.9 C 0 km/h
1493 04-09-2010 10:38:02 17 C 9.41 g/m*3 17 C 0 km/h
1494 04-09-2010 10:50:02 17.8 C 9.11 g/m*3 17.8 C 0 km/h
1495 04-09-2010 11:02:02 17.8 C 9.11 g/m*3 17.8 C 0 km/h
1496 04-09-2010 11:14:02 18.1 C 8.96 g/m*3 18.1 C 0 km/h
1497 04-09-2010 11:26:03 18.9 C 8.75 g/m*3 18.9 C 0 km/h
1498 04-09-2010 11:38:02 19.6 C 8.61 g/m*3 19.6 C 0 km/h
1499 04-09-2010 11:50:02 20 C 8.3 g/m*3 20 C 0 km/h
1500 04-09-2010 12:02:02 18.3 C 8.13 g/m*3 18.3 C 0 km/h
Sensor: Nr:Datum:Temp:Abs-Feuchte:Windchill:Wind:
Aussen-T/F 1501 04-09-2010 12:14:02 19.7 C 8.49 g/m*3 19.7 C 0 km/h
1502 04-09-2010 12:26:02 19 C 7.33 g/m*3 19 C 0 km/h
1503 04-09-2010 12:38:02 18.5 C 7.59 g/m*3 18.5 C 0 km/h
1504 04-09-2010 12:50:02 18.8 C 7.89 g/m*3 18.8 C 0 km/h
1505 04-09-2010 13:02:02 19.2 C 7.42 g/m*3 19.2 C 0 km/h
1506 04-09-2010 13:14:02 19.9 C 7.9 g/m*3 19.9 C 0 km/h
1507 04-09-2010 13:26:02 19.9 C 7.56 g/m*3 19.9 C 0 km/h
1508 04-09-2010 13:38:01 18.8 C 7.73 g/m*3 18.8 C 0 km/h
1509 04-09-2010 13:50:02 20.1 C 7.47 g/m*3 20.1 C 0 km/h
1510 04-09-2010 14:02:01 21.5 C 6.98 g/m*3 21.5 C 0 km/h
1511 04-09-2010 14:14:01 22 C 6.79 g/m*3 22 C 0 km/h
1512 04-09-2010 14:26:02 22.2 C 6.68 g/m*3 22.2 C 0 km/h
1513 04-09-2010 14:38:02 22.1 C 6.83 g/m*3 22.1 C 0 km/h
1514 04-09-2010 14:50:02 23.2 C 6.24 g/m*3 23.2 C 0 km/h
1515 04-09-2010 15:02:02 23.4 C 6.1 g/m*3 23.4 C 0 km/h
1516 04-09-2010 15:14:02 24.3 C 6.64 g/m*3 24.3 C 0 km/h
1517 04-09-2010 15:26:02 24.1 C 5.91 g/m*3 24.1 C 0 km/h
1518 04-09-2010 15:38:02 21.8 C 6.14 g/m*3 21.8 C 0 km/h
1519 04-09-2010 15:50:01 20.8 C 6.52 g/m*3 20.8 C 0 km/h
1520 04-09-2010 16:02:02 22.8 C 5.69 g/m*3 22.8 C 0 km/h
1521 04-09-2010 16:14:02 24.7 C 5.21 g/m*3 24.7 C 0 km/h
1522 04-09-2010 16:26:01 22.2 C 5.5 g/m*3 22.2 C 0 km/h
1523 04-09-2010 16:38:01 21.3 C 5.59 g/m*3 21.3 C 0 km/h
1524 04-09-2010 16:50:01 21.1 C 5.53 g/m*3 21.1 C 0 km/h
1525 04-09-2010 17:02:02 22.4 C 5.76 g/m*3 22.4 C 0 km/h
Sensor: Nr:Datum:Temp:Abs-Feuchte:Windchill:Wind:
Aussen-T/F 1526 04-09-2010 17:14:02 23.3 C 5.23 g/m*3 23.3 C 0 km/h
1527 04-09-2010 17:26:01 23.5 C 5.08 g/m*3 23.5 C 0 km/h
1528 04-09-2010 17:38:01 22.9 C 4.09 g/m*3 22.9 C 0 km/h
1529 04-09-2010 17:50:01 23.5 C 4.23 g/m*3 23.5 C 0 km/h
1530 04-09-2010 18:02:01 22.9 C 4.29 g/m*3 22.9 C 0 km/h
1531 04-09-2010 18:14:01 23.2 C 4.57 g/m*3 23.2 C 0 km/h
1532 04-09-2010 18:26:02 23.1 C 4.13 g/m*3 23.1 C 0 km/h
1533 04-09-2010 18:38:01 22.9 C 4.29 g/m*3 22.9 C 0 km/h
1534 04-09-2010 18:50:02 21.6 C 4.55 g/m*3 21.6 C 0 km/h
1535 04-09-2010 19:02:01 21.2 C 5.19 g/m*3 21.2 C 0 km/h
1536 04-09-2010 19:14:01 20.7 C 5.04 g/m*3 20.7 C 0 km/h
1537 04-09-2010 19:26:02 19.4 C 5.34 g/m*3 19.4 C 0 km/h
1538 04-09-2010 19:38:01 19 C 5.7 g/m*3 19 C 0 km/h
1539 04-09-2010 19:50:03 18.4 C 6.29 g/m*3 18.4 C 0 km/h
1540 04-09-2010 20:02:02 17.5 C 6.41 g/m*3 17.5 C 0 km/h
1541 04-09-2010 20:14:02 16.6 C 6.36 g/m*3 16.6 C 0 km/h
1542 04-09-2010 20:26:03 15.9 C 6.5 g/m*3 15.9 C 0 km/h
1543 04-09-2010 20:38:02 15.5 C 6.61 g/m*3 15.5 C 0 km/h
1544 04-09-2010 20:50:02 15.2 C 6.75 g/m*3 15.2 C 0 km/h
1545 04-09-2010 21:02:02 15.2 C 6.88 g/m*3 15.2 C 0 km/h
1546 04-09-2010 21:14:02 14.8 C 6.84 g/m*3 14.8 C 0 km/h
1547 04-09-2010 21:26:02 14.8 C 6.97 g/m*3 14.8 C 0 km/h
1548 04-09-2010 21:38:01 15 C 6.92 g/m*3 15 C 0 km/h
1549 04-09-2010 21:50:02 14.8 C 7.09 g/m*3 14.8 C 0 km/h
1550 04-09-2010 22:02:02 14.8 C 7.22 g/m*3 14.8 C 0 km/h
Sensor: Nr:Datum:Temp:Abs-Feuchte:Windchill:Wind:
Aussen-T/F 1551 04-09-2010 22:14:03 14.4 C 7.17 g/m*3 14.4 C 0 km/h
1552 04-09-2010 22:26:01 14.1 C 7.28 g/m*3 14.1 C 0 km/h
1553 04-09-2010 22:38:02 14 C 7.36 g/m*3 14 C 0 km/h
1554 04-09-2010 22:50:02 13.5 C 7.25 g/m*3 13.5 C 0 km/h
1555 04-09-2010 23:03:03 13.5 C 7.49 g/m*3 13.5 C 0 km/h
1556 04-09-2010 23:15:03 13.2 C 7.46 g/m*3 13.2 C 0 km/h
1557 04-09-2010 23:27:03 13.1 C 7.53 g/m*3 13.1 C 0 km/h
1558 04-09-2010 23:39:03 13 C 7.71 g/m*3 13 C 0 km/h
1559 04-09-2010 23:51:03 12.8 C 7.73 g/m*3 12.8 C 0 km/h
1560 05-09-2010 00:03:03 12.7 C 7.68 g/m*3 12.7 C 0 km/h
1561 05-09-2010 00:15:03 12.3 C 7.49 g/m*3 12.3 C 0 km/h
1562 05-09-2010 00:27:03 12.1 C 7.61 g/m*3 12.1 C 0 km/h
1563 05-09-2010 00:39:03 11.9 C 7.63 g/m*3 11.9 C 0 km/h
1564 05-09-2010 00:51:03 11.8 C 7.68 g/m*3 11.8 C 0 km/h
1565 05-09-2010 01:03:03 11.6 C 7.59 g/m*3 11.6 C 0 km/h
1566 05-09-2010 01:15:03 11.4 C 7.49 g/m*3 11.4 C 0 km/h
1567 05-09-2010 01:27:03 11.2 C 7.6 g/m*3 11.2 C 0 km/h
1568 05-09-2010 01:39:03 11 C 7.51 g/m*3 11 C 0 km/h
1569 05-09-2010 01:51:03 10.9 C 7.46 g/m*3 10.9 C 0 km/h
1570 05-09-2010 02:03:03 10.8 C 7.61 g/m*3 10.8 C 0 km/h
1571 05-09-2010 02:15:03 10.6 C 7.52 g/m*3 10.6 C 0 km/h
1572 05-09-2010 02:27:04 10.4 C 7.52 g/m*3 10.4 C 0 km/h
1573 05-09-2010 02:39:04 10.3 C 7.47 g/m*3 10.3 C 0 km/h
1574 05-09-2010 02:51:04 10.1 C 7.47 g/m*3 10.1 C 0 km/h
1575 05-09-2010 03:03:04 10 C 7.33 g/m*3 10 C 0 km/h
Sensor: Nr:Datum:Temp:Abs-Feuchte:Windchill:Wind:
Aussen-T/F 1576 05-09-2010 03:15:04 9.8 C 7.42 g/m*3 9.8 C 0 km/h
1577 05-09-2010 03:27:04 9.7 C 7.47 g/m*3 9.7 C 0 km/h
1578 05-09-2010 03:39:04 9.6 C 7.42 g/m*3 9.6 C 0 km/h
1579 05-09-2010 03:51:04 9.5 C 7.37 g/m*3 9.5 C 0 km/h
1580 05-09-2010 04:03:04 9.2 C 7.23 g/m*3 9.2 C 0 km/h
1581 05-09-2010 04:15:04 9.2 C 7.23 g/m*3 9.2 C 0 km/h
1582 05-09-2010 04:27:04 9.2 C 7.32 g/m*3 9.2 C 0 km/h
1583 05-09-2010 04:39:04 9.1 C 7.28 g/m*3 9.1 C 0 km/h
1584 05-09-2010 04:51:04 8.9 C 7.27 g/m*3 8.9 C 0 km/h
1585 05-09-2010 05:03:04 8.9 C 7.27 g/m*3 8.9 C 0 km/h
1586 05-09-2010 05:15:04 8.8 C 7.31 g/m*3 8.8 C 0 km/h
1587 05-09-2010 05:27:04 8.5 C 7.17 g/m*3 8.5 C 0 km/h
1588 05-09-2010 05:39:04 8.5 C 7.26 g/m*3 8.5 C 0 km/h
1589 05-09-2010 05:51:04 8.5 C 7.34 g/m*3 8.5 C 0 km/h
1590 05-09-2010 06:03:04 8.3 C 7.33 g/m*3 8.3 C 0 km/h
1591 05-09-2010 06:15:04 8.1 C 7.24 g/m*3 8.1 C 0 km/h
1592 05-09-2010 06:27:04 8.1 C 7.24 g/m*3 8.1 C 0 km/h
1593 05-09-2010 06:39:04 8 C 7.19 g/m*3 8 C 0 km/h
1594 05-09-2010 06:51:05 7.9 C 7.23 g/m*3 7.9 C 0 km/h
1595 05-09-2010 07:03:05 7.9 C 7.23 g/m*3 7.9 C 0 km/h
1596 05-09-2010 07:15:05 8.2 C 7.37 g/m*3 8.2 C 0 km/h
1597 05-09-2010 07:27:05 8.5 C 7.6 g/m*3 8.5 C 0 km/h
1598 05-09-2010 07:39:02 8.6 C 7.65 g/m*3 8.6 C 0 km/h
1599 05-09-2010 07:51:02 8.8 C 7.75 g/m*3 8.8 C 0 km/h
1600 05-09-2010 08:03:02 9.2 C 7.86 g/m*3 9.2 C 0 km/h
Sensor: Nr:Datum:Temp:Abs-Feuchte:Windchill:Wind:
Aussen-T/F 1601 05-09-2010 08:15:01 9.5 C 7.92 g/m*3 9.5 C 0 km/h
1602 05-09-2010 08:27:01 9.9 C 8.03 g/m*3 9.9 C 0 km/h
1603 05-09-2010 08:39:02 10 C 7.8 g/m*3 10 C 0 km/h
1604 05-09-2010 08:51:01 10.5 C 7.95 g/m*3 10.5 C 0 km/h
1605 05-09-2010 09:03:01 10.7 C 7.96 g/m*3 10.7 C 0 km/h
1606 05-09-2010 09:15:01 11.1 C 7.86 g/m*3 11.1 C 0 km/h
1607 05-09-2010 09:27:01 11.2 C 7.8 g/m*3 11.2 C 0 km/h
1608 05-09-2010 09:39:01 11.3 C 7.85 g/m*3 11.3 C 0 km/h
1609 05-09-2010 09:51:01 11.2 C 7.91 g/m*3 11.2 C 0 km/h
1610 05-09-2010 10:03:02 11.2 C 8.01 g/m*3 11.2 C 0 km/h
1611 05-09-2010 10:15:01 11.8 C 8.42 g/m*3 11.8 C 0 km/h
1612 05-09-2010 10:27:01 12.3 C 8.47 g/m*3 12.3 C 0 km/h
1613 05-09-2010 10:39:01 12.9 C 8.68 g/m*3 12.9 C 0 km/h
1614 05-09-2010 10:51:02 13.6 C 8.59 g/m*3 13.6 C 0 km/h
1615 05-09-2010 11:03:02 14.3 C 8.48 g/m*3 14.3 C 0 km/h
1616 05-09-2010 11:15:01 15.1 C 8.51 g/m*3 15.1 C 0 km/h
1617 05-09-2010 11:27:01 15.4 C 8.41 g/m*3 15.4 C 0 km/h
1618 05-09-2010 11:39:02 15.9 C 8.13 g/m*3 15.9 C 0 km/h
1619 05-09-2010 11:51:02 16.4 C 7.12 g/m*3 16.4 C 0 km/h
1620 05-09-2010 12:03:02 17.2 C 7.18 g/m*3 17.2 C 0 km/h
1621 05-09-2010 12:15:02 17.6 C 6.6 g/m*3 17.6 C 0 km/h
1622 05-09-2010 12:27:02 18.2 C 6.53 g/m*3 18.2 C 0 km/h
1623 05-09-2010 12:39:02 18.5 C 6.33 g/m*3 18.5 C 0 km/h
1624 05-09-2010 12:51:01 18.6 C 5.89 g/m*3 18.6 C 0 km/h
1625 05-09-2010 13:03:02 19.3 C 6.47 g/m*3 19.3 C 0 km/h
Sensor: Nr:Datum:Temp:Abs-Feuchte:Windchill:Wind:
Aussen-T/F 1626 05-09-2010 13:15:02 19.4 C 6.01 g/m*3 19.4 C 0 km/h
1627 05-09-2010 13:27:02 20 C 5.88 g/m*3 20 C 0 km/h
1628 05-09-2010 13:39:01 20.6 C 5.55 g/m*3 20.6 C 0 km/h
1629 05-09-2010 13:51:01 21.4 C 5.62 g/m*3 21.4 C 0 km/h
1630 05-09-2010 14:03:01 22.3 C 5.53 g/m*3 22.3 C 0 km/h
1631 05-09-2010 14:15:02 22.9 C 5.31 g/m*3 22.9 C 0 km/h
1632 05-09-2010 14:27:02 23.3 C 5.02 g/m*3 23.3 C 0 km/h
1633 05-09-2010 14:39:01 24.2 C 5.06 g/m*3 24.2 C 0 km/h
1634 05-09-2010 14:51:03 24.8 C 5.01 g/m*3 24.8 C 0 km/h
1635 05-09-2010 15:03:02 24.8 C 5.46 g/m*3 24.8 C 0 km/h
1636 05-09-2010 15:15:02 23.7 C 4.92 g/m*3 23.7 C 0 km/h
1637 05-09-2010 15:27:02 24 C 4.79 g/m*3 24 C 0 km/h
1638 05-09-2010 15:39:02 24.4 C 4.45 g/m*3 24.4 C 0 km/h
1639 05-09-2010 15:51:02 23.9 C 4.54 g/m*3 23.9 C 0 km/h
1640 05-09-2010 16:03:01 24.1 C 4.38 g/m*3 24.1 C 0 km/h
1641 05-09-2010 16:15:02 24.4 C 4.67 g/m*3 24.4 C 0 km/h
1642 05-09-2010 16:27:02 25 C 4.83 g/m*3 25 C 0 km/h
1643 05-09-2010 16:39:02 25 C 4.83 g/m*3 25 C 0 km/h
1644 05-09-2010 16:51:01 23.5 C 4.65 g/m*3 23.5 C 0 km/h
1645 05-09-2010 17:03:02 24.7 C 4.75 g/m*3 24.7 C 0 km/h
1646 05-09-2010 17:15:01 24.7 C 5.21 g/m*3 24.7 C 0 km/h
1647 05-09-2010 17:27:01 24 C 5.44 g/m*3 24 C 0 km/h
1648 05-09-2010 17:39:02 24.6 C 5.18 g/m*3 24.6 C 0 km/h
1649 05-09-2010 17:51:01 25 C 4.6 g/m*3 25 C 0 km/h
1650 05-09-2010 18:03:02 25.7 C 5.51 g/m*3 25.7 C 0 km/h
Sensor: Nr:Datum:Temp:Abs-Feuchte:Windchill:Wind:
Aussen-T/F 1651 05-09-2010 18:15:01 26 C 4.87 g/m*3 26 C 0 km/h
1652 05-09-2010 18:27:01 25.4 C 4.71 g/m*3 25.4 C 0 km/h
1653 05-09-2010 18:39:02 24.1 C 5.03 g/m*3 24.1 C 0 km/h
1654 05-09-2010 18:51:01 23 C 6.17 g/m*3 23 C 0 km/h
1655 05-09-2010 19:03:02 21.9 C 6.37 g/m*3 21.9 C 0 km/h
1656 05-09-2010 19:15:02 20.1 C 6.26 g/m*3 20.1 C 0 km/h
1657 05-09-2010 19:27:02 19.2 C 6.43 g/m*3 19.2 C 0 km/h
1658 05-09-2010 19:39:02 18.2 C 6.37 g/m*3 18.2 C 0 km/h
1659 05-09-2010 19:51:02 17.5 C 6.41 g/m*3 17.5 C 0 km/h
1660 05-09-2010 20:03:01 17 C 6.37 g/m*3 17 C 0 km/h
1661 05-09-2010 20:15:02 16.6 C 6.36 g/m*3 16.6 C 0 km/h
1662 05-09-2010 20:27:03 16.6 C 6.36 g/m*3 16.6 C 0 km/h
1663 05-09-2010 20:39:01 16.2 C 6.34 g/m*3 16.2 C 0 km/h
1664 05-09-2010 20:51:02 15.8 C 6.46 g/m*3 15.8 C 0 km/h
1665 05-09-2010 21:03:01 15.3 C 6.66 g/m*3 15.3 C 0 km/h
1666 05-09-2010 21:15:01 15.1 C 6.71 g/m*3 15.1 C 0 km/h
1667 05-09-2010 21:27:01 14.9 C 6.75 g/m*3 14.9 C 0 km/h
1668 05-09-2010 21:39:02 14.7 C 6.92 g/m*3 14.7 C 0 km/h
1669 05-09-2010 21:51:02 14.5 C 6.96 g/m*3 14.5 C 0 km/h
1670 05-09-2010 22:03:02 14.4 C 7.05 g/m*3 14.4 C 0 km/h
1671 05-09-2010 22:15:02 14.2 C 7.08 g/m*3 14.2 C 0 km/h
1672 05-09-2010 22:27:02 14 C 7.12 g/m*3 14 C 0 km/h
1673 05-09-2010 22:40:03 14 C 7.12 g/m*3 14 C 0 km/h
1674 05-09-2010 22:52:03 14 C 7.12 g/m*3 14 C 0 km/h
1675 05-09-2010 23:04:03 14 C 7 g/m*3 14 C 0 km/h
Sensor: Nr:Datum:Temp:Abs-Feuchte:Windchill:Wind:
Aussen-T/F 1676 05-09-2010 23:16:03 14.1 C 6.92 g/m*3 14.1 C 0 km/h
1677 05-09-2010 23:28:03 14.1 C 6.92 g/m*3 14.1 C 0 km/h
1678 05-09-2010 23:40:03 13.7 C 6.87 g/m*3 13.7 C 0 km/h
1679 05-09-2010 23:52:03 13.8 C 6.91 g/m*3 13.8 C 0 km/h
1680 06-09-2010 00:04:03 13.6 C 7.06 g/m*3 13.6 C 0 km/h
1681 06-09-2010 00:16:03 13.4 C 7.09 g/m*3 13.4 C 0 km/h
1682 06-09-2010 00:28:03 13.2 C 7.12 g/m*3 13.2 C 0 km/h
1683 06-09-2010 00:40:03 13.1 C 7.07 g/m*3 13.1 C 0 km/h
1684 06-09-2010 00:52:03 12.8 C 7.06 g/m*3 12.8 C 0 km/h
1685 06-09-2010 01:04:03 12.7 C 7.12 g/m*3 12.7 C 0 km/h
1686 06-09-2010 01:16:03 12.5 C 7.15 g/m*3 12.5 C 0 km/h
1687 06-09-2010 01:28:03 12.3 C 7.06 g/m*3 12.3 C 0 km/h
1688 06-09-2010 01:40:03 12.2 C 7.12 g/m*3 12.2 C 0 km/h
1689 06-09-2010 01:52:03 12.1 C 7.08 g/m*3 12.1 C 0 km/h
1690 06-09-2010 02:04:03 12 C 7.14 g/m*3 12 C 0 km/h
1691 06-09-2010 02:16:04 11.8 C 7.26 g/m*3 11.8 C 0 km/h
1692 06-09-2010 02:28:04 11.6 C 7.17 g/m*3 11.6 C 0 km/h
1693 06-09-2010 02:40:04 11.5 C 7.23 g/m*3 11.5 C 0 km/h
1694 06-09-2010 02:52:04 11.2 C 7.2 g/m*3 11.2 C 0 km/h
1695 06-09-2010 03:04:04 11.2 C 7.2 g/m*3 11.2 C 0 km/h
1696 06-09-2010 03:16:04 11.2 C 7.2 g/m*3 11.2 C 0 km/h
1697 06-09-2010 03:28:04 11.1 C 7.15 g/m*3 11.1 C 0 km/h
1698 06-09-2010 03:40:04 11 C 7.11 g/m*3 11 C 0 km/h
1699 06-09-2010 03:52:04 11 C 7.11 g/m*3 11 C 0 km/h
1700 06-09-2010 04:04:04 11 C 7.11 g/m*3 11 C 0 km/h
Sensor: Nr:Datum:Temp:Abs-Feuchte:Windchill:Wind:
Aussen-T/F 1701 06-09-2010 04:16:04 10.8 C 7.12 g/m*3 10.8 C 0 km/h
1702 06-09-2010 04:28:04 10.7 C 7.07 g/m*3 10.7 C 0 km/h
1703 06-09-2010 04:40:04 10.6 C 7.12 g/m*3 10.6 C 0 km/h
1704 06-09-2010 04:52:04 10.4 C 7.04 g/m*3 10.4 C 0 km/h
1705 06-09-2010 05:04:04 10.3 C 7.09 g/m*3 10.3 C 0 km/h
1706 06-09-2010 05:16:04 10.4 C 7.13 g/m*3 10.4 C 0 km/h
1707 06-09-2010 05:28:04 10.2 C 6.95 g/m*3 10.2 C 0 km/h
1708 06-09-2010 05:40:04 10.2 C 6.95 g/m*3 10.2 C 0 km/h
1709 06-09-2010 05:52:04 10.1 C 7 g/m*3 10.1 C 0 km/h
1710 06-09-2010 06:04:04 9.8 C 6.96 g/m*3 9.8 C 0 km/h
1711 06-09-2010 06:16:04 9.7 C 7.01 g/m*3 9.7 C 0 km/h
1712 06-09-2010 06:28:04 9.5 C 7.01 g/m*3 9.5 C 0 km/h
1713 06-09-2010 06:40:05 9.5 C 7.01 g/m*3 9.5 C 0 km/h
1714 06-09-2010 06:52:05 9.3 C 7.01 g/m*3 9.3 C 0 km/h
1715 06-09-2010 07:04:05 9.2 C 6.97 g/m*3 9.2 C 0 km/h
1716 06-09-2010 07:16:03 9.3 C 7.1 g/m*3 9.3 C 0 km/h
1717 06-09-2010 07:28:03 9.3 C 7.1 g/m*3 9.3 C 0 km/h
1718 06-09-2010 07:40:03 9.3 C 7.1 g/m*3 9.3 C 0 km/h
1719 06-09-2010 07:52:01 9.3 C 7.1 g/m*3 9.3 C 0 km/h
1720 06-09-2010 08:04:02 9.4 C 7.15 g/m*3 9.4 C 0 km/h
1721 06-09-2010 08:16:01 9.6 C 7.24 g/m*3 9.6 C 0 km/h
1722 06-09-2010 08:28:01 9.6 C 7.24 g/m*3 9.6 C 0 km/h
1723 06-09-2010 08:40:02 9.8 C 7.24 g/m*3 9.8 C 0 km/h
1724 06-09-2010 08:52:02 10 C 7.24 g/m*3 10 C 0 km/h
1725 06-09-2010 09:04:02 10.2 C 7.33 g/m*3 10.2 C 0 km/h
Sensor: Nr:Datum:Temp:Abs-Feuchte:Windchill:Wind:
Aussen-T/F 1726 06-09-2010 09:16:01 10.5 C 7.47 g/m*3 10.5 C 0 km/h
1727 06-09-2010 09:28:01 10.8 C 7.51 g/m*3 10.8 C 0 km/h
1728 06-09-2010 09:40:02 11.3 C 7.55 g/m*3 11.3 C 0 km/h
1729 06-09-2010 09:52:02 11.9 C 7.73 g/m*3 11.9 C 0 km/h
1730 06-09-2010 10:04:02 12.5 C 7.59 g/m*3 12.5 C 0 km/h
1731 06-09-2010 10:16:02 13.1 C 7.53 g/m*3 13.1 C 0 km/h
1732 06-09-2010 10:28:02 13.5 C 7.37 g/m*3 13.5 C 0 km/h
1733 06-09-2010 10:40:02 13.9 C 7.67 g/m*3 13.9 C 0 km/h
1734 06-09-2010 10:52:02 14.4 C 7.42 g/m*3 14.4 C 0 km/h
1735 06-09-2010 11:04:02 15.2 C 7.4 g/m*3 15.2 C 0 km/h
1736 06-09-2010 11:16:02 15.8 C 7.27 g/m*3 15.8 C 0 km/h
1737 06-09-2010 11:28:02 16.2 C 7.45 g/m*3 16.2 C 0 km/h
1738 06-09-2010 11:40:01 16.9 C 6.76 g/m*3 16.9 C 0 km/h
1739 06-09-2010 11:52:02 17.5 C 6.71 g/m*3 17.5 C 0 km/h
1740 06-09-2010 12:04:01 18.1 C 5.87 g/m*3 18.1 C 0 km/h
1741 06-09-2010 12:16:02 18.5 C 5.7 g/m*3 18.5 C 0 km/h
1742 06-09-2010 12:28:02 18.7 C 5.6 g/m*3 18.7 C 0 km/h
1743 06-09-2010 12:40:02 18.9 C 5.35 g/m*3 18.9 C 0 km/h
1744 06-09-2010 12:52:02 19 C 5.38 g/m*3 19 C 0 km/h
1745 06-09-2010 13:04:03 19.3 C 5.31 g/m*3 19.3 C 0 km/h
1746 06-09-2010 13:16:02 19.7 C 5.6 g/m*3 19.7 C 0 km/h
1747 06-09-2010 13:28:02 20.1 C 5.56 g/m*3 20.1 C 0 km/h
1748 06-09-2010 13:40:02 20.8 C 5.43 g/m*3 20.8 C 0 km/h
1749 06-09-2010 13:52:01 21.3 C 5.03 g/m*3 21.3 C 0 km/h
1750 06-09-2010 14:04:02 21.6 C 4.74 g/m*3 21.6 C 0 km/h
Sensor: Nr:Datum:Temp:Abs-Feuchte:Windchill:Wind:
Aussen-T/F 1751 06-09-2010 14:16:01 21.9 C 4.82 g/m*3 21.9 C 0 km/h
1752 06-09-2010 14:28:01 22.3 C 4.54 g/m*3 22.3 C 0 km/h
1753 06-09-2010 14:40:02 22.7 C 4.24 g/m*3 22.7 C 0 km/h
1754 06-09-2010 14:52:01 23.2 C 4.16 g/m*3 23.2 C 0 km/h
1755 06-09-2010 15:04:02 23.6 C 4.25 g/m*3 23.6 C 0 km/h
1756 06-09-2010 15:16:02 23.9 C 4.33 g/m*3 23.9 C 0 km/h
1757 06-09-2010 15:28:02 24.1 C 4.38 g/m*3 24.1 C 0 km/h
1758 06-09-2010 15:40:01 24.3 C 4.43 g/m*3 24.3 C 0 km/h
1759 06-09-2010 15:52:01 24.1 C 4.38 g/m*3 24.1 C 0 km/h
1760 06-09-2010 16:04:01 24 C 4.35 g/m*3 24 C 0 km/h
1761 06-09-2010 16:16:02 23.8 C 4.3 g/m*3 23.8 C 0 km/h
1762 06-09-2010 16:28:02 23.7 C 4.28 g/m*3 23.7 C 0 km/h
1763 06-09-2010 16:40:01 23.9 C 4.33 g/m*3 23.9 C 0 km/h
1764 06-09-2010 16:52:02 24 C 4.35 g/m*3 24 C 0 km/h
1765 06-09-2010 17:04:01 24.5 C 4.48 g/m*3 24.5 C 0 km/h
1766 06-09-2010 17:16:01 24.7 C 4.53 g/m*3 24.7 C 0 km/h
1767 06-09-2010 17:28:01 25.4 C 4.71 g/m*3 25.4 C 0 km/h
1768 06-09-2010 17:40:01 24.2 C 4.4 g/m*3 24.2 C 0 km/h
1769 06-09-2010 17:52:02 23.3 C 4.18 g/m*3 23.3 C 0 km/h
1770 06-09-2010 18:04:02 22.6 C 4.82 g/m*3 22.6 C 0 km/h
1771 06-09-2010 18:16:02 21.5 C 4.9 g/m*3 21.5 C 0 km/h
1772 06-09-2010 18:28:02 21.1 C 5.53 g/m*3 21.1 C 0 km/h
1773 06-09-2010 18:40:02 21.2 C 5.37 g/m*3 21.2 C 0 km/h
1774 06-09-2010 18:52:01 20.8 C 5.98 g/m*3 20.8 C 0 km/h
1775 06-09-2010 19:04:02 20 C 6.05 g/m*3 20 C 0 km/h
Sensor: Nr:Datum:Temp:Abs-Feuchte:Windchill:Wind:
Aussen-T/F 1776 06-09-2010 19:16:01 19.1 C 5.9 g/m*3 19.1 C 0 km/h
1777 06-09-2010 19:28:01 18.7 C 5.76 g/m*3 18.7 C 0 km/h
1778 06-09-2010 19:40:02 18.1 C 5.87 g/m*3 18.1 C 0 km/h
1779 06-09-2010 19:52:01 17.7 C 5.73 g/m*3 17.7 C 0 km/h
1780 06-09-2010 20:04:02 17.6 C 5.55 g/m*3 17.6 C 0 km/h
1781 06-09-2010 20:16:01 17.3 C 5.6 g/m*3 17.3 C 0 km/h
1782 06-09-2010 20:28:01 17.1 C 5.68 g/m*3 17.1 C 0 km/h
1783 06-09-2010 20:40:02 16.9 C 5.61 g/m*3 16.9 C 0 km/h
1784 06-09-2010 20:52:01 16.6 C 5.65 g/m*3 16.6 C 0 km/h
1785 06-09-2010 21:04:02 16.5 C 5.2 g/m*3 16.5 C 0 km/h
1786 06-09-2010 21:16:02 16.4 C 5.44 g/m*3 16.4 C 0 km/h
1787 06-09-2010 21:28:02 16.2 C 5.52 g/m*3 16.2 C 0 km/h
1788 06-09-2010 21:41:03 16.1 C 5.48 g/m*3 16.1 C 0 km/h
1789 06-09-2010 21:53:03 15.9 C 5.55 g/m*3 15.9 C 0 km/h
1790 06-09-2010 22:05:03 15.7 C 5.62 g/m*3 15.7 C 0 km/h
1791 06-09-2010 22:17:03 15.6 C 5.59 g/m*3 15.6 C 0 km/h
1792 06-09-2010 22:29:03 15.6 C 5.59 g/m*3 15.6 C 0 km/h
1793 06-09-2010 22:41:03 15.3 C 5.62 g/m*3 15.3 C 0 km/h
1794 06-09-2010 22:53:03 15.3 C 5.62 g/m*3 15.3 C 0 km/h
1795 06-09-2010 23:05:03 15.2 C 5.71 g/m*3 15.2 C 0 km/h
1796 06-09-2010 23:17:03 15.1 C 5.68 g/m*3 15.1 C 0 km/h
1797 06-09-2010 23:29:03 15.2 C 5.58 g/m*3 15.2 C 0 km/h
1798 06-09-2010 23:41:03 15.3 C 5.48 g/m*3 15.3 C 0 km/h
1799 06-09-2010 23:53:03 15.2 C 5.71 g/m*3 15.2 C 0 km/h
1800 07-09-2010 00:05:03 15.2 C 5.71 g/m*3 15.2 C 0 km/h
Sensor: Nr:Datum:Temp:Abs-Feuchte:Windchill:Wind:
Aussen-T/F 1801 07-09-2010 00:17:03 15.4 C 5.52 g/m*3 15.4 C 0 km/h
1802 07-09-2010 00:29:03 15.4 C 5.52 g/m*3 15.4 C 0 km/h
1803 07-09-2010 00:41:03 15.5 C 5.42 g/m*3 15.5 C 0 km/h
1804 07-09-2010 00:53:03 15.4 C 5.39 g/m*3 15.4 C 0 km/h
1805 07-09-2010 01:05:03 15.4 C 5.52 g/m*3 15.4 C 0 km/h
1806 07-09-2010 01:17:04 15.4 C 5.39 g/m*3 15.4 C 0 km/h
1807 07-09-2010 01:29:04 15.4 C 5.39 g/m*3 15.4 C 0 km/h
1808 07-09-2010 01:41:04 15.4 C 5.39 g/m*3 15.4 C 0 km/h
1809 07-09-2010 01:53:04 15.5 C 5.29 g/m*3 15.5 C 0 km/h
1810 07-09-2010 02:05:04 15.5 C 5.29 g/m*3 15.5 C 0 km/h
1811 07-09-2010 02:17:04 15.5 C 5.29 g/m*3 15.5 C 0 km/h
1812 07-09-2010 02:29:04 15.5 C 5.55 g/m*3 15.5 C 0 km/h
1813 07-09-2010 02:41:04 15.4 C 5.39 g/m*3 15.4 C 0 km/h
1814 07-09-2010 02:53:04 15.4 C 5.39 g/m*3 15.4 C 0 km/h
1815 07-09-2010 03:05:04 15.4 C 5.52 g/m*3 15.4 C 0 km/h
1816 07-09-2010 03:17:04 15.4 C 5.26 g/m*3 15.4 C 0 km/h
1817 07-09-2010 03:29:04 14.8 C 5.7 g/m*3 14.8 C 0 km/h
1818 07-09-2010 03:41:04 13.3 C 6.47 g/m*3 13.3 C 0 km/h
1819 07-09-2010 03:53:04 12.8 C 6.94 g/m*3 12.8 C 0 km/h
1820 07-09-2010 04:05:04 13.1 C 6.85 g/m*3 13.1 C 0 km/h
1821 07-09-2010 04:17:04 13.4 C 6.97 g/m*3 13.4 C 0 km/h
1822 07-09-2010 04:29:04 13.1 C 6.62 g/m*3 13.1 C 0 km/h
1823 07-09-2010 04:41:04 12.8 C 7.28 g/m*3 12.8 C 0 km/h
1824 07-09-2010 04:53:04 12.9 C 7.33 g/m*3 12.9 C 0 km/h
1825 07-09-2010 05:05:04 12.9 C 7.21 g/m*3 12.9 C 0 km/h
Sensor: Nr:Datum:Temp:Abs-Feuchte:Windchill:Wind:
Aussen-T/F 1826 07-09-2010 05:17:04 13 C 7.26 g/m*3 13 C 0 km/h
1827 07-09-2010 05:29:05 13 C 7.03 g/m*3 13 C 0 km/h
1828 07-09-2010 05:41:05 13.2 C 6.77 g/m*3 13.2 C 0 km/h
1829 07-09-2010 05:53:05 12.8 C 7.28 g/m*3 12.8 C 0 km/h
1830 07-09-2010 06:05:05 12.5 C 7.26 g/m*3 12.5 C 0 km/h
1831 07-09-2010 06:17:05 12.3 C 7.38 g/m*3 12.3 C 0 km/h
1832 07-09-2010 06:29:05 12.4 C 7.1 g/m*3 12.4 C 0 km/h
1833 07-09-2010 06:41:05 12.6 C 6.75 g/m*3 12.6 C 0 km/h
1834 07-09-2010 06:53:05 12.7 C 6.68 g/m*3 12.7 C 0 km/h
1835 07-09-2010 07:05:05 12.4 C 6.66 g/m*3 12.4 C 0 km/h
1836 07-09-2010 07:17:05 12.2 C 7.01 g/m*3 12.2 C 0 km/h
1837 07-09-2010 07:29:05 12.1 C 6.97 g/m*3 12.1 C 0 km/h
1838 07-09-2010 07:41:05 12 C 7.35 g/m*3 12 C 0 km/h
1839 07-09-2010 07:53:01 11.9 C 7.41 g/m*3 11.9 C 0 km/h
1840 07-09-2010 08:05:02 11.7 C 7.74 g/m*3 11.7 C 0 km/h
1841 07-09-2010 08:17:02 11.6 C 8.11 g/m*3 11.6 C 0 km/h
1842 07-09-2010 08:29:02 11.7 C 8.37 g/m*3 11.7 C 0 km/h
1843 07-09-2010 08:41:02 11.4 C 8.11 g/m*3 11.4 C 0 km/h
1844 07-09-2010 08:53:01 11.4 C 8.21 g/m*3 11.4 C 0 km/h
1845 07-09-2010 09:05:02 11.4 C 8.21 g/m*3 11.4 C 0 km/h
1846 07-09-2010 09:17:02 11.4 C 8.21 g/m*3 11.4 C 0 km/h
1847 07-09-2010 09:29:02 11.5 C 8.47 g/m*3 11.5 C 0 km/h
1848 07-09-2010 09:41:01 11.5 C 8.47 g/m*3 11.5 C 0 km/h
1849 07-09-2010 09:53:02 11.5 C 8.68 g/m*3 11.5 C 0 km/h
1850 07-09-2010 10:05:01 11.4 C 8.72 g/m*3 11.4 C 0 km/h
Sensor: Nr:Datum:Temp:Abs-Feuchte:Windchill:Wind:
Aussen-T/F 1851 07-09-2010 10:17:02 11.4 C 8.83 g/m*3 11.4 C 0 km/h
1852 07-09-2010 10:29:02 11.5 C 8.88 g/m*3 11.5 C 0 km/h
1853 07-09-2010 10:41:01 11.4 C 8.93 g/m*3 11.4 C 0 km/h
1854 07-09-2010 10:53:02 11.6 C 9.04 g/m*3 11.6 C 0 km/h
1855 07-09-2010 11:05:01 11.6 C 9.15 g/m*3 11.6 C 0 km/h
1856 07-09-2010 11:17:01 11.5 C 9.09 g/m*3 11.5 C 0 km/h
1857 07-09-2010 11:29:01 11.2 C 8.92 g/m*3 11.2 C 0 km/h
1858 07-09-2010 11:41:02 11.7 C 9.41 g/m*3 11.7 C 0 km/h
1859 07-09-2010 11:53:02 12.2 C 9.5 g/m*3 12.2 C 0 km/h
1860 07-09-2010 12:05:02 12 C 9.38 g/m*3 12 C 0 km/h
1861 07-09-2010 12:17:02 12.4 C 9.62 g/m*3 12.4 C 0 km/h
1862 07-09-2010 12:29:02 12.4 C 9.4 g/m*3 12.4 C 0 km/h
1863 07-09-2010 12:41:02 12.5 C 9.46 g/m*3 12.5 C 0 km/h
1864 07-09-2010 12:53:02 12.8 C 9.63 g/m*3 12.8 C 0 km/h
1865 07-09-2010 13:05:02 12.7 C 9.35 g/m*3 12.7 C 0 km/h
1866 07-09-2010 13:17:02 12.8 C 9.41 g/m*3 12.8 C 0 km/h
1867 07-09-2010 13:29:02 12.8 C 9.3 g/m*3 12.8 C 0 km/h
1868 07-09-2010 13:41:02 12.7 C 9.13 g/m*3 12.7 C 0 km/h
1869 07-09-2010 13:53:01 12.9 C 9.35 g/m*3 12.9 C 0 km/h
1870 07-09-2010 14:05:01 12.9 C 9.35 g/m*3 12.9 C 0 km/h
1871 07-09-2010 14:17:01 13.1 C 9.36 g/m*3 13.1 C 0 km/h
1872 07-09-2010 14:29:01 13.3 C 9.47 g/m*3 13.3 C 0 km/h
1873 07-09-2010 14:41:01 13.4 C 9.3 g/m*3 13.4 C 0 km/h
1874 07-09-2010 14:53:01 14.1 C 9.34 g/m*3 14.1 C 0 km/h
1875 07-09-2010 15:05:01 14.4 C 9.39 g/m*3 14.4 C 0 km/h
Sensor: Nr:Datum:Temp:Abs-Feuchte:Windchill:Wind:
Aussen-T/F 1876 07-09-2010 15:17:02 14.4 C 8.9 g/m*3 14.4 C 0 km/h
1877 07-09-2010 15:29:02 14.7 C 9.07 g/m*3 14.7 C 0 km/h
1878 07-09-2010 15:41:01 14.7 C 9.07 g/m*3 14.7 C 0 km/h
1879 07-09-2010 15:53:03 14.7 C 9.19 g/m*3 14.7 C 0 km/h
1880 07-09-2010 16:05:02 15.3 C 9.27 g/m*3 15.3 C 0 km/h
1881 07-09-2010 16:17:02 15.6 C 9.04 g/m*3 15.6 C 0 km/h
1882 07-09-2010 16:29:02 15.7 C 9.1 g/m*3 15.7 C 0 km/h
1883 07-09-2010 16:41:02 15.6 C 9.04 g/m*3 15.6 C 0 km/h
1884 07-09-2010 16:53:02 15.4 C 9.07 g/m*3 15.4 C 0 km/h
1885 07-09-2010 17:05:02 15.2 C 8.96 g/m*3 15.2 C 0 km/h
1886 07-09-2010 17:17:02 14.9 C 8.92 g/m*3 14.9 C 0 km/h
1887 07-09-2010 17:29:02 14.8 C 9.12 g/m*3 14.8 C 0 km/h
1888 07-09-2010 17:41:02 14.8 C 9.12 g/m*3 14.8 C 0 km/h
1889 07-09-2010 17:53:02 14.7 C 9.19 g/m*3 14.7 C 0 km/h
1890 07-09-2010 18:05:02 14.1 C 8.86 g/m*3 14.1 C 0 km/h
1891 07-09-2010 18:17:01 14 C 9.05 g/m*3 14 C 0 km/h
1892 07-09-2010 18:29:01 14 C 9.05 g/m*3 14 C 0 km/h
1893 07-09-2010 18:41:02 13.9 C 9.23 g/m*3 13.9 C 0 km/h
1894 07-09-2010 18:53:02 13.9 C 9.23 g/m*3 13.9 C 0 km/h
1895 07-09-2010 19:05:02 13.9 C 9.35 g/m*3 13.9 C 0 km/h
1896 07-09-2010 19:17:01 13.8 C 9.29 g/m*3 13.8 C 0 km/h
1897 07-09-2010 19:29:01 13.8 C 9.41 g/m*3 13.8 C 0 km/h
1898 07-09-2010 19:41:02 13.7 C 9.35 g/m*3 13.7 C 0 km/h
1899 07-09-2010 19:53:02 13.7 C 9.47 g/m*3 13.7 C 0 km/h
1900 07-09-2010 20:05:02 13.5 C 9.47 g/m*3 13.5 C 0 km/h
Sensor: Nr:Datum:Temp:Abs-Feuchte:Windchill:Wind:
Aussen-T/F 1901 07-09-2010 20:17:02 13.3 C 9.47 g/m*3 13.3 C 0 km/h
1902 07-09-2010 20:29:02 13.2 C 9.53 g/m*3 13.2 C 0 km/h
1903 07-09-2010 20:41:02 13.1 C 9.59 g/m*3 13.1 C 0 km/h
1904 07-09-2010 20:53:02 13.1 C 9.7 g/m*3 13.1 C 0 km/h
1905 07-09-2010 21:05:02 13 C 9.75 g/m*3 13 C 0 km/h
1906 07-09-2010 21:17:02 13 C 9.87 g/m*3 13 C 0 km/h
1907 07-09-2010 21:29:02 13 C 9.87 g/m*3 13 C 0 km/h
1908 07-09-2010 21:41:02 13 C 9.98 g/m*3 13 C 0 km/h
1909 07-09-2010 21:53:02 12.8 C 9.97 g/m*3 12.8 C 0 km/h
1910 07-09-2010 22:05:02 12.9 C 10.03 g/m*3 12.9 C 0 km/h
1911 07-09-2010 22:18:05 12.9 C 10.03 g/m*3 12.9 C 0 km/h
1912 07-09-2010 22:30:05 12.9 C 10.03 g/m*3 12.9 C 0 km/h
1913 07-09-2010 22:42:05 12.8 C 9.97 g/m*3 12.8 C 0 km/h
1914 07-09-2010 22:54:05 12.8 C 10.08 g/m*3 12.8 C 0 km/h
1915 07-09-2010 23:06:05 12.9 C 10.14 g/m*3 12.9 C 0 km/h
1916 07-09-2010 23:18:05 12.9 C 10.14 g/m*3 12.9 C 0 km/h
1917 07-09-2010 23:30:05 12.8 C 10.08 g/m*3 12.8 C 0 km/h
1918 07-09-2010 23:42:05 13 C 10.21 g/m*3 13 C 0 km/h
1919 07-09-2010 23:54:05 13 C 10.21 g/m*3 13 C 0 km/h
1920 08-09-2010 00:06:05 12.9 C 10.26 g/m*3 12.9 C 0 km/h
1921 08-09-2010 00:18:05 12.8 C 10.19 g/m*3 12.8 C 0 km/h
1922 08-09-2010 00:30:05 12.9 C 10.26 g/m*3 12.9 C 0 km/h
1923 08-09-2010 00:42:06 12.9 C 10.26 g/m*3 12.9 C 0 km/h
1924 08-09-2010 00:54:06 12.9 C 10.26 g/m*3 12.9 C 0 km/h
1925 08-09-2010 01:06:06 13 C 10.32 g/m*3 13 C 0 km/h
Sensor: Nr:Datum:Temp:Abs-Feuchte:Windchill:Wind:
Aussen-T/F 1926 08-09-2010 01:18:06 13 C 10.32 g/m*3 13 C 0 km/h
1927 08-09-2010 01:30:06 13 C 10.32 g/m*3 13 C 0 km/h
1928 08-09-2010 01:42:06 13 C 10.43 g/m*3 13 C 0 km/h
1929 08-09-2010 01:54:06 13 C 10.43 g/m*3 13 C 0 km/h
1930 08-09-2010 02:06:06 13.1 C 10.5 g/m*3 13.1 C 0 km/h
1931 08-09-2010 02:18:06 13.1 C 10.5 g/m*3 13.1 C 0 km/h
1932 08-09-2010 02:30:06 13.2 C 10.56 g/m*3 13.2 C 0 km/h
1933 08-09-2010 02:42:06 13.2 C 10.68 g/m*3 13.2 C 0 km/h
1934 08-09-2010 02:54:06 13.4 C 10.81 g/m*3 13.4 C 0 km/h
1935 08-09-2010 03:06:06 13.4 C 10.81 g/m*3 13.4 C 0 km/h
1936 08-09-2010 03:18:06 13.5 C 10.88 g/m*3 13.5 C 0 km/h
1937 08-09-2010 03:30:06 13.6 C 10.95 g/m*3 13.6 C 0 km/h
1938 08-09-2010 03:42:06 13.7 C 11.01 g/m*3 13.7 C 0 km/h
1939 08-09-2010 03:54:06 13.6 C 10.95 g/m*3 13.6 C 0 km/h
1940 08-09-2010 04:06:06 13.5 C 10.88 g/m*3 13.5 C 0 km/h
1941 08-09-2010 04:18:06 13.5 C 10.88 g/m*3 13.5 C 0 km/h
1942 08-09-2010 04:30:06 13.6 C 10.95 g/m*3 13.6 C 0 km/h
1943 08-09-2010 04:42:06 13.5 C 10.88 g/m*3 13.5 C 0 km/h
1944 08-09-2010 04:54:07 13.7 C 11.01 g/m*3 13.7 C 0 km/h
1945 08-09-2010 05:06:07 14.1 C 11.29 g/m*3 14.1 C 0 km/h
1946 08-09-2010 05:18:07 14 C 11.34 g/m*3 14 C 0 km/h
1947 08-09-2010 05:30:07 14.1 C 11.41 g/m*3 14.1 C 0 km/h
1948 08-09-2010 05:42:07 14.4 C 11.62 g/m*3 14.4 C 0 km/h
1949 08-09-2010 05:54:07 14.2 C 11.36 g/m*3 14.2 C 0 km/h
1950 08-09-2010 06:06:07 14.4 C 11.5 g/m*3 14.4 C 0 km/h
Sensor: Nr:Datum:Temp:Abs-Feuchte:Windchill:Wind:
Aussen-T/F 1951 08-09-2010 06:18:07 14.4 C 11.5 g/m*3 14.4 C 0 km/h
1952 08-09-2010 06:30:07 14.3 C 11.43 g/m*3 14.3 C 0 km/h
1953 08-09-2010 06:42:07 14.3 C 11.43 g/m*3 14.3 C 0 km/h
1954 08-09-2010 06:54:07 14.4 C 11.37 g/m*3 14.4 C 0 km/h
1955 08-09-2010 07:06:07 14.3 C 11.3 g/m*3 14.3 C 0 km/h
1956 08-09-2010 07:18:04 14.3 C 11.3 g/m*3 14.3 C 0 km/h
1957 08-09-2010 07:30:04 14.3 C 11.3 g/m*3 14.3 C 0 km/h
1958 08-09-2010 07:42:04 14.1 C 11.17 g/m*3 14.1 C 0 km/h
1959 08-09-2010 07:54:02 14.1 C 11.17 g/m*3 14.1 C 0 km/h
1960 08-09-2010 08:06:02 14.1 C 11.17 g/m*3 14.1 C 0 km/h
1961 08-09-2010 08:18:02 14.1 C 11.17 g/m*3 14.1 C 0 km/h
1962 08-09-2010 08:30:02 14.2 C 11.23 g/m*3 14.2 C 0 km/h
1963 08-09-2010 08:42:02 14.3 C 11.3 g/m*3 14.3 C 0 km/h
1964 08-09-2010 08:54:02 14.4 C 11.37 g/m*3 14.4 C 0 km/h
1965 08-09-2010 09:06:01 14.8 C 11.65 g/m*3 14.8 C 0 km/h
1966 08-09-2010 09:18:02 15 C 11.54 g/m*3 15 C 0 km/h
1967 08-09-2010 09:30:02 15.3 C 11.62 g/m*3 15.3 C 0 km/h
1968 08-09-2010 09:42:02 15.5 C 11.76 g/m*3 15.5 C 0 km/h
1969 08-09-2010 09:54:02 15.5 C 11.5 g/m*3 15.5 C 0 km/h
1970 08-09-2010 10:06:02 15.5 C 11.5 g/m*3 15.5 C 0 km/h
1971 08-09-2010 10:18:02 15.3 C 11.36 g/m*3 15.3 C 0 km/h
1972 08-09-2010 10:30:02 15.5 C 11.37 g/m*3 15.5 C 0 km/h
1973 08-09-2010 10:42:02 15.6 C 11.44 g/m*3 15.6 C 0 km/h
1974 08-09-2010 10:54:02 15.7 C 11.37 g/m*3 15.7 C 0 km/h
1975 08-09-2010 11:06:02 15.7 C 11.11 g/m*3 15.7 C 0 km/h
Sensor: Nr:Datum:Temp:Abs-Feuchte:Windchill:Wind:
Aussen-T/F 1976 08-09-2010 11:18:02 15.4 C 10.9 g/m*3 15.4 C 0 km/h
1977 08-09-2010 11:30:02 15.1 C 10.97 g/m*3 15.1 C 0 km/h
1978 08-09-2010 11:42:02 15 C 11.03 g/m*3 15 C 0 km/h
1979 08-09-2010 11:54:02 15 C 11.16 g/m*3 15 C 0 km/h
1980 08-09-2010 12:06:02 14.6 C 11.01 g/m*3 14.6 C 0 km/h
1981 08-09-2010 12:18:03 14.6 C 11.14 g/m*3 14.6 C 0 km/h
1982 08-09-2010 12:30:03 14.7 C 11.21 g/m*3 14.7 C 0 km/h
1983 08-09-2010 12:42:02 14.8 C 11.4 g/m*3 14.8 C 0 km/h
1984 08-09-2010 12:54:01 15 C 11.54 g/m*3 15 C 0 km/h
1985 08-09-2010 13:06:01 15.5 C 11.9 g/m*3 15.5 C 0 km/h
1986 08-09-2010 13:18:02 15.8 C 12.11 g/m*3 15.8 C 0 km/h
1987 08-09-2010 13:30:02 16.3 C 12.35 g/m*3 16.3 C 0 km/h
1988 08-09-2010 13:42:01 16.8 C 12.44 g/m*3 16.8 C 0 km/h
1989 08-09-2010 13:54:02 16.7 C 11.8 g/m*3 16.7 C 0 km/h
1990 08-09-2010 14:06:02 17.4 C 12 g/m*3 17.4 C 0 km/h
1991 08-09-2010 14:18:02 17.2 C 11.42 g/m*3 17.2 C 0 km/h
1992 08-09-2010 14:30:02 17 C 11.29 g/m*3 17 C 0 km/h
1993 08-09-2010 14:42:02 17.9 C 11.6 g/m*3 17.9 C 0 km/h
1994 08-09-2010 14:54:02 18.4 C 11.48 g/m*3 18.4 C 0 km/h
1995 08-09-2010 15:06:01 18.2 C 11.04 g/m*3 18.2 C 0 km/h
1996 08-09-2010 15:18:01 17.8 C 11.08 g/m*3 17.8 C 0 km/h
1997 08-09-2010 15:30:02 17.6 C 11.1 g/m*3 17.6 C 0 km/h
1998 08-09-2010 15:42:01 17.8 C 11.23 g/m*3 17.8 C 0 km/h
1999 08-09-2010 15:54:02 18.3 C 11.41 g/m*3 18.3 C 0 km/h
2000 08-09-2010 16:06:01 19 C 10.92 g/m*3 19 C 0 km/h
Sensor: Nr:Datum:Temp:Abs-Feuchte:Windchill:Wind:
Aussen-T/F 2001 08-09-2010 16:18:01 18.7 C 10.89 g/m*3 18.7 C 0 km/h
2002 08-09-2010 16:30:01 18.5 C 10.6 g/m*3 18.5 C 0 km/h
2003 08-09-2010 16:42:02 18.5 C 10.6 g/m*3 18.5 C 0 km/h
2004 08-09-2010 16:54:02 18 C 10.44 g/m*3 18 C 0 km/h
2005 08-09-2010 17:06:02 19.3 C 10.45 g/m*3 19.3 C 0 km/h
2006 08-09-2010 17:18:02 20.4 C 10.08 g/m*3 20.4 C 0 km/h
2007 08-09-2010 17:30:02 20.5 C 10.14 g/m*3 20.5 C 0 km/h
2008 08-09-2010 17:42:02 19.5 C 10.07 g/m*3 19.5 C 0 km/h
2009 08-09-2010 17:54:02 19.7 C 10.36 g/m*3 19.7 C 0 km/h
2010 08-09-2010 18:06:02 19.3 C 10.28 g/m*3 19.3 C 0 km/h
2011 08-09-2010 18:18:01 20.2 C 9.97 g/m*3 20.2 C 0 km/h
2012 08-09-2010 18:30:01 19.3 C 10.12 g/m*3 19.3 C 0 km/h
2013 08-09-2010 18:42:02 18.3 C 10.16 g/m*3 18.3 C 0 km/h
2014 08-09-2010 18:54:02 18.2 C 10.57 g/m*3 18.2 C 0 km/h
2015 08-09-2010 19:06:02 18.6 C 10.66 g/m*3 18.6 C 0 km/h
2016 08-09-2010 19:18:01 18.7 C 10.57 g/m*3 18.7 C 0 km/h
2017 08-09-2010 19:30:01 18.3 C 10.48 g/m*3 18.3 C 0 km/h
2018 08-09-2010 19:42:02 17.9 C 10.69 g/m*3 17.9 C 0 km/h
2019 08-09-2010 19:54:02 17.5 C 10.29 g/m*3 17.5 C 0 km/h
2020 08-09-2010 20:06:03 17.4 C 10.52 g/m*3 17.4 C 0 km/h
2021 08-09-2010 20:18:02 17 C 10.42 g/m*3 17 C 0 km/h
2022 08-09-2010 20:30:02 16.7 C 10.66 g/m*3 16.7 C 0 km/h
2023 08-09-2010 20:42:02 16.6 C 10.74 g/m*3 16.6 C 0 km/h
2024 08-09-2010 20:54:01 16.3 C 10.27 g/m*3 16.3 C 0 km/h
2025 08-09-2010 21:06:01 15.9 C 10.02 g/m*3 15.9 C 0 km/h
Sensor: Nr:Datum:Temp:Abs-Feuchte:Windchill:Wind:
Aussen-T/F 2026 08-09-2010 21:18:01 15.8 C 9.69 g/m*3 15.8 C 0 km/h
2027 08-09-2010 21:30:01 15.7 C 9.63 g/m*3 15.7 C 0 km/h
2028 08-09-2010 21:42:01 15.7 C 9.63 g/m*3 15.7 C 0 km/h
2029 08-09-2010 21:54:01 15.5 C 9.52 g/m*3 15.5 C 0 km/h
2030 08-09-2010 22:06:01 15.2 C 9.48 g/m*3 15.2 C 0 km/h
2031 08-09-2010 22:18:02 14.9 C 9.56 g/m*3 14.9 C 0 km/h
2032 08-09-2010 22:30:02 14.6 C 9.76 g/m*3 14.6 C 0 km/h
2033 08-09-2010 22:42:02 14.5 C 9.95 g/m*3 14.5 C 0 km/h
2034 08-09-2010 22:55:02 14.7 C 10.2 g/m*3 14.7 C 0 km/h
2035 08-09-2010 23:07:02 14.5 C 9.95 g/m*3 14.5 C 0 km/h
2036 08-09-2010 23:19:02 14.5 C 10.07 g/m*3 14.5 C 0 km/h
2037 08-09-2010 23:31:02 14.6 C 10.01 g/m*3 14.6 C 0 km/h
2038 08-09-2010 23:43:02 14.5 C 10.07 g/m*3 14.5 C 0 km/h
2039 08-09-2010 23:55:03 14.3 C 9.95 g/m*3 14.3 C 0 km/h
2040 09-09-2010 00:07:03 14.4 C 10.14 g/m*3 14.4 C 0 km/h
2041 09-09-2010 00:19:03 14.4 C 10.14 g/m*3 14.4 C 0 km/h
2042 09-09-2010 00:31:03 14.1 C 10.07 g/m*3 14.1 C 0 km/h
2043 09-09-2010 00:43:03 14.5 C 10.32 g/m*3 14.5 C 0 km/h
2044 09-09-2010 00:55:03 14.5 C 10.32 g/m*3 14.5 C 0 km/h
2045 09-09-2010 01:07:03 14.8 C 10.39 g/m*3 14.8 C 0 km/h
2046 09-09-2010 01:19:03 15 C 10 g/m*3 15 C 0 km/h
2047 09-09-2010 01:31:03 15.1 C 10.06 g/m*3 15.1 C 0 km/h
2048 09-09-2010 01:43:03 15.2 C 9.99 g/m*3 15.2 C 0 km/h
2049 09-09-2010 01:55:03 15.1 C 9.93 g/m*3 15.1 C 0 km/h
2050 09-09-2010 02:07:03 15.2 C 9.99 g/m*3 15.2 C 0 km/h
Sensor: Nr:Datum:Temp:Abs-Feuchte:Windchill:Wind:
Aussen-T/F 2051 09-09-2010 02:19:03 15.1 C 9.93 g/m*3 15.1 C 0 km/h
2052 09-09-2010 02:31:03 15.1 C 9.93 g/m*3 15.1 C 0 km/h
2053 09-09-2010 02:43:03 15.1 C 9.93 g/m*3 15.1 C 0 km/h
2054 09-09-2010 02:55:03 15.2 C 9.86 g/m*3 15.2 C 0 km/h
2055 09-09-2010 03:07:03 15.2 C 9.86 g/m*3 15.2 C 0 km/h
2056 09-09-2010 03:19:03 15.3 C 9.79 g/m*3 15.3 C 0 km/h
2057 09-09-2010 03:31:03 15.3 C 9.79 g/m*3 15.3 C 0 km/h
2058 09-09-2010 03:43:03 15.4 C 9.72 g/m*3 15.4 C 0 km/h
2059 09-09-2010 03:55:04 15.4 C 9.72 g/m*3 15.4 C 0 km/h
2060 09-09-2010 04:07:04 15.4 C 9.59 g/m*3 15.4 C 0 km/h
2061 09-09-2010 04:19:04 15.2 C 9.48 g/m*3 15.2 C 0 km/h
2062 09-09-2010 04:31:04 15.2 C 9.35 g/m*3 15.2 C 0 km/h
2063 09-09-2010 04:43:04 15.2 C 9.22 g/m*3 15.2 C 0 km/h
2064 09-09-2010 04:55:04 15.1 C 9.03 g/m*3 15.1 C 0 km/h
2065 09-09-2010 05:07:04 14.9 C 9.05 g/m*3 14.9 C 0 km/h
2066 09-09-2010 05:19:04 14.9 C 9.05 g/m*3 14.9 C 0 km/h
2067 09-09-2010 05:31:04 14.9 C 9.05 g/m*3 14.9 C 0 km/h
2068 09-09-2010 05:43:04 14.9 C 9.05 g/m*3 14.9 C 0 km/h
2069 09-09-2010 05:55:04 14.9 C 8.92 g/m*3 14.9 C 0 km/h
2070 09-09-2010 06:07:04 14.8 C 8.87 g/m*3 14.8 C 0 km/h
2071 09-09-2010 06:19:04 14.8 C 8.87 g/m*3 14.8 C 0 km/h
2072 09-09-2010 06:31:04 14.8 C 8.87 g/m*3 14.8 C 0 km/h
2073 09-09-2010 06:43:04 14.8 C 8.87 g/m*3 14.8 C 0 km/h
2074 09-09-2010 06:55:04 14.7 C 8.94 g/m*3 14.7 C 0 km/h
2075 09-09-2010 07:07:04 14.5 C 9.08 g/m*3 14.5 C 0 km/h
Sensor: Nr:Datum:Temp:Abs-Feuchte:Windchill:Wind:
Aussen-T/F 2076 09-09-2010 07:19:04 14.5 C 9.08 g/m*3 14.5 C 0 km/h
2077 09-09-2010 07:31:04 14.6 C 9.13 g/m*3 14.6 C 0 km/h
2078 09-09-2010 07:43:04 14.6 C 9.01 g/m*3 14.6 C 0 km/h
2079 09-09-2010 07:55:04 14.7 C 9.07 g/m*3 14.7 C 0 km/h
2080 09-09-2010 08:07:02 14.7 C 9.07 g/m*3 14.7 C 0 km/h
2081 09-09-2010 08:19:02 14.8 C 9.12 g/m*3 14.8 C 0 km/h
2082 09-09-2010 08:31:02 14.8 C 9.12 g/m*3 14.8 C 0 km/h
2083 09-09-2010 08:43:02 14.8 C 9.12 g/m*3 14.8 C 0 km/h
2084 09-09-2010 08:55:02 14.9 C 9.05 g/m*3 14.9 C 0 km/h
2085 09-09-2010 09:07:02 14.9 C 9.05 g/m*3 14.9 C 0 km/h
2086 09-09-2010 09:19:03 14.9 C 9.05 g/m*3 14.9 C 0 km/h
2087 09-09-2010 09:31:02 15.2 C 9.09 g/m*3 15.2 C 0 km/h
2088 09-09-2010 09:43:02 15.5 C 9.12 g/m*3 15.5 C 0 km/h
2089 09-09-2010 09:55:01 15.8 C 9.15 g/m*3 15.8 C 0 km/h
2090 09-09-2010 10:07:02 16 C 8.99 g/m*3 16 C 0 km/h
2091 09-09-2010 10:19:02 16.4 C 9.07 g/m*3 16.4 C 0 km/h
2092 09-09-2010 10:31:01 16.8 C 9.15 g/m*3 16.8 C 0 km/h
2093 09-09-2010 10:43:01 17.2 C 9.08 g/m*3 17.2 C 0 km/h
2094 09-09-2010 10:55:02 17.4 C 9.19 g/m*3 17.4 C 0 km/h
2095 09-09-2010 11:07:01 17.5 C 9.09 g/m*3 17.5 C 0 km/h
2096 09-09-2010 11:19:02 17.5 C 9.09 g/m*3 17.5 C 0 km/h
2097 09-09-2010 11:31:02 17.8 C 8.8 g/m*3 17.8 C 0 km/h
2098 09-09-2010 11:43:02 17.8 C 8.65 g/m*3 17.8 C 0 km/h
2099 09-09-2010 11:55:02 18.3 C 8.76 g/m*3 18.3 C 0 km/h
2100 09-09-2010 12:07:01 18.5 C 8.23 g/m*3 18.5 C 0 km/h
Sensor: Nr:Datum:Temp:Abs-Feuchte:Windchill:Wind:
Aussen-T/F 2101 09-09-2010 12:19:02 18.6 C 8.28 g/m*3 18.6 C 0 km/h
2102 09-09-2010 12:31:02 18.6 C 8.12 g/m*3 18.6 C 0 km/h
2103 09-09-2010 12:43:02 19 C 8.15 g/m*3 19 C 0 km/h
2104 09-09-2010 12:55:02 18.5 C 8.07 g/m*3 18.5 C 0 km/h
2105 09-09-2010 13:07:02 18.6 C 8.28 g/m*3 18.6 C 0 km/h
2106 09-09-2010 13:19:02 18.7 C 8.17 g/m*3 18.7 C 0 km/h
2107 09-09-2010 13:31:02 18.7 C 8.01 g/m*3 18.7 C 0 km/h
2108 09-09-2010 13:43:02 19 C 8.15 g/m*3 19 C 0 km/h
2109 09-09-2010 13:55:02 19 C 8.47 g/m*3 19 C 0 km/h
2110 09-09-2010 14:07:02 18.6 C 8.12 g/m*3 18.6 C 0 km/h
2111 09-09-2010 14:19:02 18.4 C 8.18 g/m*3 18.4 C 0 km/h
2112 09-09-2010 14:31:02 18.8 C 8.86 g/m*3 18.8 C 0 km/h
2113 09-09-2010 14:43:02 19.3 C 8.79 g/m*3 19.3 C 0 km/h
2114 09-09-2010 14:55:02 19.8 C 9.05 g/m*3 19.8 C 0 km/h
2115 09-09-2010 15:07:02 20.3 C 8.97 g/m*3 20.3 C 0 km/h
2116 09-09-2010 15:19:02 20.3 C 8.97 g/m*3 20.3 C 0 km/h
2117 09-09-2010 15:31:02 19.5 C 8.89 g/m*3 19.5 C 0 km/h
2118 09-09-2010 15:43:02 18.7 C 9.29 g/m*3 18.7 C 0 km/h
2119 09-09-2010 15:55:02 18.1 C 9.43 g/m*3 18.1 C 0 km/h
2120 09-09-2010 16:07:01 17.7 C 9.51 g/m*3 17.7 C 0 km/h
2121 09-09-2010 16:19:02 16.1 C 10.14 g/m*3 16.1 C 0 km/h
2122 09-09-2010 16:31:01 16.1 C 10.42 g/m*3 16.1 C 0 km/h
2123 09-09-2010 16:43:01 17.1 C 11.79 g/m*3 17.1 C 0 km/h
2124 09-09-2010 16:55:02 18.5 C 12.82 g/m*3 18.5 C 0 km/h
2125 09-09-2010 17:07:02 18.2 C 12.28 g/m*3 18.2 C 0 km/h
Sensor: Nr:Datum:Temp:Abs-Feuchte:Windchill:Wind:
Aussen-T/F 2126 09-09-2010 17:19:02 18 C 12.13 g/m*3 18 C 0 km/h
2127 09-09-2010 17:31:02 17.9 C 11.45 g/m*3 17.9 C 0 km/h
2128 09-09-2010 17:43:02 17.8 C 11.08 g/m*3 17.8 C 0 km/h
2129 09-09-2010 17:55:02 17.7 C 11.16 g/m*3 17.7 C 0 km/h
2130 09-09-2010 18:07:02 17.7 C 11.32 g/m*3 17.7 C 0 km/h
2131 09-09-2010 18:19:01 17.7 C 10.86 g/m*3 17.7 C 0 km/h
2132 09-09-2010 18:31:02 17.7 C 10.41 g/m*3 17.7 C 0 km/h
2133 09-09-2010 18:43:03 17.9 C 10.38 g/m*3 17.9 C 0 km/h
2134 09-09-2010 18:55:02 17.5 C 9.39 g/m*3 17.5 C 0 km/h
2135 09-09-2010 19:07:02 17.2 C 9.37 g/m*3 17.2 C 0 km/h
2136 09-09-2010 19:19:01 16.8 C 9.44 g/m*3 16.8 C 0 km/h
2137 09-09-2010 19:31:02 16.5 C 9.55 g/m*3 16.5 C 0 km/h
2138 09-09-2010 19:43:02 16.2 C 9.52 g/m*3 16.2 C 0 km/h
2139 09-09-2010 19:55:01 16 C 9.4 g/m*3 16 C 0 km/h
2140 09-09-2010 20:07:02 15.9 C 9.48 g/m*3 15.9 C 0 km/h
2141 09-09-2010 20:19:02 15.8 C 9.42 g/m*3 15.8 C 0 km/h
2142 09-09-2010 20:31:01 15.4 C 9.72 g/m*3 15.4 C 0 km/h
2143 09-09-2010 20:43:01 15 C 10 g/m*3 15 C 0 km/h
2144 09-09-2010 20:55:01 14.9 C 10.2 g/m*3 14.9 C 0 km/h
2145 09-09-2010 21:07:01 14.9 C 10.32 g/m*3 14.9 C 0 km/h
2146 09-09-2010 21:19:02 14.9 C 10.32 g/m*3 14.9 C 0 km/h
2147 09-09-2010 21:31:01 14.8 C 10.26 g/m*3 14.8 C 0 km/h
2148 09-09-2010 21:43:01 14.7 C 10.2 g/m*3 14.7 C 0 km/h
2149 09-09-2010 21:55:02 14.7 C 10.2 g/m*3 14.7 C 0 km/h
2150 09-09-2010 22:07:02 14.7 C 10.2 g/m*3 14.7 C 0 km/h
Sensor: Nr:Datum:Temp:Abs-Feuchte:Windchill:Wind:
Aussen-T/F 2151 09-09-2010 22:19:01 14.8 C 10.13 g/m*3 14.8 C 0 km/h
2152 09-09-2010 22:31:01 14.8 C 10.26 g/m*3 14.8 C 0 km/h
2153 09-09-2010 22:43:01 14.7 C 10.2 g/m*3 14.7 C 0 km/h
2154 09-09-2010 22:56:02 14.7 C 10.07 g/m*3 14.7 C 0 km/h
2155 09-09-2010 23:08:02 14.8 C 10.01 g/m*3 14.8 C 0 km/h
2156 09-09-2010 23:20:03 15 C 9.75 g/m*3 15 C 0 km/h
2157 09-09-2010 23:32:03 15 C 9.62 g/m*3 15 C 0 km/h
2158 09-09-2010 23:44:03 15.1 C 9.68 g/m*3 15.1 C 0 km/h
2159 09-09-2010 23:56:03 15 C 9.49 g/m*3 15 C 0 km/h
2160 10-09-2010 00:08:03 14.9 C 9.81 g/m*3 14.9 C 0 km/h
2161 10-09-2010 00:20:03 14.8 C 9.88 g/m*3 14.8 C 0 km/h
2162 10-09-2010 00:32:03 14.6 C 10.01 g/m*3 14.6 C 0 km/h
2163 10-09-2010 00:44:03 14.6 C 10.01 g/m*3 14.6 C 0 km/h
2164 10-09-2010 00:56:03 14.4 C 9.89 g/m*3 14.4 C 0 km/h
2165 10-09-2010 01:08:03 14.3 C 9.83 g/m*3 14.3 C 0 km/h
2166 10-09-2010 01:20:03 14.1 C 9.71 g/m*3 14.1 C 0 km/h
2167 10-09-2010 01:32:03 13.9 C 9.71 g/m*3 13.9 C 0 km/h
2168 10-09-2010 01:44:03 13.8 C 9.77 g/m*3 13.8 C 0 km/h
2169 10-09-2010 01:56:03 13.9 C 9.83 g/m*3 13.9 C 0 km/h
2170 10-09-2010 02:08:03 13.8 C 9.89 g/m*3 13.8 C 0 km/h
2171 10-09-2010 02:20:03 13.8 C 9.89 g/m*3 13.8 C 0 km/h
2172 10-09-2010 02:32:03 13.9 C 10.07 g/m*3 13.9 C 0 km/h
2173 10-09-2010 02:44:03 14 C 10.01 g/m*3 14 C 0 km/h
2174 10-09-2010 02:56:03 14 C 9.89 g/m*3 14 C 0 km/h
2175 10-09-2010 03:08:03 14 C 10.01 g/m*3 14 C 0 km/h
Sensor: Nr:Datum:Temp:Abs-Feuchte:Windchill:Wind:
Aussen-T/F 2176 10-09-2010 03:20:03 14 C 10.01 g/m*3 14 C 0 km/h
2177 10-09-2010 03:32:04 13.9 C 10.07 g/m*3 13.9 C 0 km/h
2178 10-09-2010 03:44:04 13.8 C 10.13 g/m*3 13.8 C 0 km/h
2179 10-09-2010 03:56:04 13.8 C 10.13 g/m*3 13.8 C 0 km/h
2180 10-09-2010 04:08:04 13.9 C 10.31 g/m*3 13.9 C 0 km/h
2181 10-09-2010 04:20:04 14 C 10.25 g/m*3 14 C 0 km/h
2182 10-09-2010 04:32:04 13.9 C 10.31 g/m*3 13.9 C 0 km/h
2183 10-09-2010 04:44:04 13.8 C 10.25 g/m*3 13.8 C 0 km/h
2184 10-09-2010 04:56:04 13.6 C 10.12 g/m*3 13.6 C 0 km/h
2185 10-09-2010 05:08:04 13.4 C 10 g/m*3 13.4 C 0 km/h
2186 10-09-2010 05:20:04 13.2 C 9.99 g/m*3 13.2 C 0 km/h
2187 10-09-2010 05:32:04 13.1 C 10.04 g/m*3 13.1 C 0 km/h
2188 10-09-2010 05:44:04 12.8 C 9.97 g/m*3 12.8 C 0 km/h
2189 10-09-2010 05:56:04 12.8 C 9.97 g/m*3 12.8 C 0 km/h
2190 10-09-2010 06:08:04 13.2 C 10.33 g/m*3 13.2 C 0 km/h
2191 10-09-2010 06:20:04 13 C 10.09 g/m*3 13 C 0 km/h
2192 10-09-2010 06:32:04 13.1 C 10.27 g/m*3 13.1 C 0 km/h
2193 10-09-2010 06:44:04 13.1 C 10.27 g/m*3 13.1 C 0 km/h
2194 10-09-2010 06:56:04 13.2 C 10.22 g/m*3 13.2 C 0 km/h
2195 10-09-2010 07:08:04 13.1 C 10.16 g/m*3 13.1 C 0 km/h
2196 10-09-2010 07:20:04 13.2 C 9.99 g/m*3 13.2 C 0 km/h
2197 10-09-2010 07:32:05 13.3 C 9.7 g/m*3 13.3 C 0 km/h
2198 10-09-2010 07:44:05 13.2 C 9.64 g/m*3 13.2 C 0 km/h
2199 10-09-2010 07:56:02 13.1 C 9.7 g/m*3 13.1 C 0 km/h
2200 10-09-2010 08:08:02 13.1 C 9.81 g/m*3 13.1 C 0 km/h
Sensor: Nr:Datum:Temp:Abs-Feuchte:Windchill:Wind:
Aussen-T/F 2201 10-09-2010 08:20:02 13.1 C 9.93 g/m*3 13.1 C 0 km/h
2202 10-09-2010 08:32:02 13.2 C 9.99 g/m*3 13.2 C 0 km/h
2203 10-09-2010 08:44:03 13.5 C 10.06 g/m*3 13.5 C 0 km/h
2204 10-09-2010 08:56:02 13.7 C 9.95 g/m*3 13.7 C 0 km/h
2205 10-09-2010 09:08:02 14 C 9.77 g/m*3 14 C 0 km/h
2206 10-09-2010 09:20:02 14.4 C 9.64 g/m*3 14.4 C 0 km/h
2207 10-09-2010 09:32:02 14.5 C 9.58 g/m*3 14.5 C 0 km/h
2208 10-09-2010 09:44:02 14.9 C 9.43 g/m*3 14.9 C 0 km/h
2209 10-09-2010 09:56:02 15.2 C 9.22 g/m*3 15.2 C 0 km/h
2210 10-09-2010 10:08:02 15.5 C 9.39 g/m*3 15.5 C 0 km/h
2211 10-09-2010 10:20:03 15.7 C 9.23 g/m*3 15.7 C 0 km/h
2212 10-09-2010 10:32:02 16.2 C 9.38 g/m*3 16.2 C 0 km/h
2213 10-09-2010 10:44:02 16.6 C 9.46 g/m*3 16.6 C 0 km/h
2214 10-09-2010 10:56:02 16.8 C 9.29 g/m*3 16.8 C 0 km/h
2215 10-09-2010 11:08:02 17.2 C 9.37 g/m*3 17.2 C 0 km/h
2216 10-09-2010 11:20:02 17.7 C 9.51 g/m*3 17.7 C 0 km/h
2217 10-09-2010 11:32:02 18.1 C 9.12 g/m*3 18.1 C 0 km/h
2218 10-09-2010 11:44:02 18.1 C 8.96 g/m*3 18.1 C 0 km/h
2219 10-09-2010 11:56:02 18.3 C 9.07 g/m*3 18.3 C 0 km/h
2220 10-09-2010 12:08:01 18.6 C 9.07 g/m*3 18.6 C 0 km/h
2221 10-09-2010 12:20:02 18.7 C 9.13 g/m*3 18.7 C 0 km/h
2222 10-09-2010 12:32:02 18.4 C 9.12 g/m*3 18.4 C 0 km/h
2223 10-09-2010 12:44:02 18.8 C 9.34 g/m*3 18.8 C 0 km/h
2224 10-09-2010 12:56:02 19.2 C 9.23 g/m*3 19.2 C 0 km/h
2225 10-09-2010 13:08:03 19.5 C 8.89 g/m*3 19.5 C 0 km/h
Sensor: Nr:Datum:Temp:Abs-Feuchte:Windchill:Wind:
Aussen-T/F 2226 10-09-2010 13:20:02 19.4 C 8.84 g/m*3 19.4 C 0 km/h
2227 10-09-2010 13:32:02 19 C 8.47 g/m*3 19 C 0 km/h
2228 10-09-2010 13:44:02 19 C 8.47 g/m*3 19 C 0 km/h
2229 10-09-2010 13:56:01 19 C 8.64 g/m*3 19 C 0 km/h
2230 10-09-2010 14:08:02 19.3 C 8.79 g/m*3 19.3 C 0 km/h
2231 10-09-2010 14:20:01 19.9 C 8.76 g/m*3 19.9 C 0 km/h
2232 10-09-2010 14:32:01 20.4 C 8.67 g/m*3 20.4 C 0 km/h
2233 10-09-2010 14:44:01 20.2 C 8.74 g/m*3 20.2 C 0 km/h
2234 10-09-2010 14:56:01 19.9 C 8.76 g/m*3 19.9 C 0 km/h
2235 10-09-2010 15:08:02 20 C 8.64 g/m*3 20 C 0 km/h
2236 10-09-2010 15:20:02 20.6 C 8.95 g/m*3 20.6 C 0 km/h
2237 10-09-2010 15:32:01 20.9 C 8.38 g/m*3 20.9 C 0 km/h
2238 10-09-2010 15:44:01 21.2 C 8.34 g/m*3 21.2 C 0 km/h
2239 10-09-2010 15:56:02 21.4 C 8.62 g/m*3 21.4 C 0 km/h
2240 10-09-2010 16:08:01 21.2 C 8.34 g/m*3 21.2 C 0 km/h
2241 10-09-2010 16:20:02 20.8 C 8.33 g/m*3 20.8 C 0 km/h
2242 10-09-2010 16:32:01 21.1 C 8.48 g/m*3 21.1 C 0 km/h
2243 10-09-2010 16:44:01 21.2 C 8.71 g/m*3 21.2 C 0 km/h
2244 10-09-2010 16:56:02 21.2 C 8.34 g/m*3 21.2 C 0 km/h
2245 10-09-2010 17:08:02 20.9 C 8.56 g/m*3 20.9 C 0 km/h
2246 10-09-2010 17:20:02 20.5 C 8.9 g/m*3 20.5 C 0 km/h
2247 10-09-2010 17:32:03 20.1 C 9.04 g/m*3 20.1 C 0 km/h
2248 10-09-2010 17:44:03 19.8 C 9.39 g/m*3 19.8 C 0 km/h
2249 10-09-2010 17:56:02 19.6 C 8.95 g/m*3 19.6 C 0 km/h
2250 10-09-2010 18:08:02 19.4 C 9.18 g/m*3 19.4 C 0 km/h
Sensor: Nr:Datum:Temp:Abs-Feuchte:Windchill:Wind:
Aussen-T/F 2251 10-09-2010 18:20:02 18.9 C 9.56 g/m*3 18.9 C 0 km/h
2252 10-09-2010 18:32:02 17.8 C 10.17 g/m*3 17.8 C 0 km/h
2253 10-09-2010 18:44:02 16.8 C 10.72 g/m*3 16.8 C 0 km/h
2254 10-09-2010 18:56:02 16.4 C 11.03 g/m*3 16.4 C 0 km/h
2255 10-09-2010 19:08:02 16.4 C 11.31 g/m*3 16.4 C 0 km/h
2256 10-09-2010 19:20:02 16.8 C 11.72 g/m*3 16.8 C 0 km/h
2257 10-09-2010 19:32:02 16.3 C 11.38 g/m*3 16.3 C 0 km/h
2258 10-09-2010 19:44:02 16 C 11.31 g/m*3 16 C 0 km/h
2259 10-09-2010 19:56:02 15.8 C 11.44 g/m*3 15.8 C 0 km/h
2260 10-09-2010 20:08:03 15.8 C 11.58 g/m*3 15.8 C 0 km/h
2261 10-09-2010 20:20:02 15.7 C 11.51 g/m*3 15.7 C 0 km/h
2262 10-09-2010 20:32:03 15.6 C 11.57 g/m*3 15.6 C 0 km/h
2263 10-09-2010 20:44:03 15.6 C 11.57 g/m*3 15.6 C 0 km/h
2264 10-09-2010 20:56:02 15.7 C 11.64 g/m*3 15.7 C 0 km/h
2265 10-09-2010 21:08:01 15.8 C 11.71 g/m*3 15.8 C 0 km/h
2266 10-09-2010 21:20:02 15.8 C 11.71 g/m*3 15.8 C 0 km/h
2267 10-09-2010 21:32:02 15.8 C 11.71 g/m*3 15.8 C 0 km/h
2268 10-09-2010 21:44:02 15.8 C 11.71 g/m*3 15.8 C 0 km/h
2269 10-09-2010 21:56:02 15.8 C 11.58 g/m*3 15.8 C 0 km/h
2270 10-09-2010 22:08:01 15.8 C 11.58 g/m*3 15.8 C 0 km/h
2271 10-09-2010 22:20:02 15.8 C 11.58 g/m*3 15.8 C 0 km/h
2272 10-09-2010 22:32:01 15.7 C 11.51 g/m*3 15.7 C 0 km/h
2273 10-09-2010 22:44:01 15.6 C 11.3 g/m*3 15.6 C 0 km/h
2274 10-09-2010 22:57:03 15.5 C 11.24 g/m*3 15.5 C 0 km/h
2275 10-09-2010 23:09:03 15.6 C 11.3 g/m*3 15.6 C 0 km/h
Sensor: Nr:Datum:Temp:Abs-Feuchte:Windchill:Wind:
Aussen-T/F 2276 10-09-2010 23:21:03 15.5 C 11.24 g/m*3 15.5 C 0 km/h
2277 10-09-2010 23:33:03 15.5 C 11.24 g/m*3 15.5 C 0 km/h
2278 10-09-2010 23:45:03 15.4 C 11.17 g/m*3 15.4 C 0 km/h
2279 10-09-2010 23:57:03 15.3 C 10.97 g/m*3 15.3 C 0 km/h
2280 11-09-2010 00:09:03 15.2 C 10.9 g/m*3 15.2 C 0 km/h
2281 11-09-2010 00:21:03 15.2 C 10.9 g/m*3 15.2 C 0 km/h
2282 11-09-2010 00:33:03 15.1 C 10.84 g/m*3 15.1 C 0 km/h
2283 11-09-2010 00:45:03 15.1 C 10.84 g/m*3 15.1 C 0 km/h
2284 11-09-2010 00:57:03 15.1 C 10.84 g/m*3 15.1 C 0 km/h
2285 11-09-2010 01:09:03 15.1 C 10.84 g/m*3 15.1 C 0 km/h
2286 11-09-2010 01:21:03 15 C 10.77 g/m*3 15 C 0 km/h
2287 11-09-2010 01:33:03 15 C 10.77 g/m*3 15 C 0 km/h
2288 11-09-2010 01:45:04 15 C 10.77 g/m*3 15 C 0 km/h
2289 11-09-2010 01:57:04 14.9 C 10.83 g/m*3 14.9 C 0 km/h
2290 11-09-2010 02:09:04 14.9 C 10.83 g/m*3 14.9 C 0 km/h
2291 11-09-2010 02:21:04 14.8 C 10.77 g/m*3 14.8 C 0 km/h
2292 11-09-2010 02:33:04 14.7 C 10.58 g/m*3 14.7 C 0 km/h
2293 11-09-2010 02:45:04 14.7 C 10.7 g/m*3 14.7 C 0 km/h
2294 11-09-2010 02:57:04 14.6 C 10.76 g/m*3 14.6 C 0 km/h
2295 11-09-2010 03:09:04 14.4 C 10.63 g/m*3 14.4 C 0 km/h
2296 11-09-2010 03:21:04 14.3 C 10.57 g/m*3 14.3 C 0 km/h
2297 11-09-2010 03:33:04 14.1 C 10.44 g/m*3 14.1 C 0 km/h
2298 11-09-2010 03:45:04 14 C 10.37 g/m*3 14 C 0 km/h
2299 11-09-2010 03:57:04 13.6 C 10.12 g/m*3 13.6 C 0 km/h
2300 11-09-2010 04:09:04 13.5 C 10.06 g/m*3 13.5 C 0 km/h
Sensor: Nr:Datum:Temp:Abs-Feuchte:Windchill:Wind:
Aussen-T/F 2301 11-09-2010 04:21:04 13.3 C 9.94 g/m*3 13.3 C 0 km/h
2302 11-09-2010 04:33:04 13.1 C 9.81 g/m*3 13.1 C 0 km/h
2303 11-09-2010 04:45:04 13 C 9.75 g/m*3 13 C 0 km/h
2304 11-09-2010 04:57:04 12.8 C 9.74 g/m*3 12.8 C 0 km/h
2305 11-09-2010 05:09:04 12.6 C 9.62 g/m*3 12.6 C 0 km/h
2306 11-09-2010 05:21:04 12.5 C 9.68 g/m*3 12.5 C 0 km/h
2307 11-09-2010 05:33:04 12.6 C 9.74 g/m*3 12.6 C 0 km/h
2308 11-09-2010 05:45:05 12.7 C 9.91 g/m*3 12.7 C 0 km/h
2309 11-09-2010 05:57:05 12.8 C 9.97 g/m*3 12.8 C 0 km/h
2310 11-09-2010 06:09:05 13 C 10.09 g/m*3 13 C 0 km/h
2311 11-09-2010 06:21:05 13.1 C 10.16 g/m*3 13.1 C 0 km/h
2312 11-09-2010 06:33:05 12.8 C 9.97 g/m*3 12.8 C 0 km/h
2313 11-09-2010 06:45:05 12.5 C 9.78 g/m*3 12.5 C 0 km/h
2314 11-09-2010 06:57:05 12.3 C 9.56 g/m*3 12.3 C 0 km/h
2315 11-09-2010 07:09:05 12.1 C 9.44 g/m*3 12.1 C 0 km/h
2316 11-09-2010 07:21:05 12.1 C 9.44 g/m*3 12.1 C 0 km/h
2317 11-09-2010 07:33:05 12.1 C 9.54 g/m*3 12.1 C 0 km/h
2318 11-09-2010 07:45:05 12.1 C 9.54 g/m*3 12.1 C 0 km/h
2319 11-09-2010 07:57:05 12.4 C 9.72 g/m*3 12.4 C 0 km/h
2320 11-09-2010 08:09:05 12.7 C 10.02 g/m*3 12.7 C 0 km/h
2321 11-09-2010 08:21:03 13 C 10.21 g/m*3 13 C 0 km/h
2322 11-09-2010 08:33:02 13 C 10.21 g/m*3 13 C 0 km/h
2323 11-09-2010 08:45:02 13.1 C 10.27 g/m*3 13.1 C 0 km/h
2324 11-09-2010 08:57:02 13.4 C 10.46 g/m*3 13.4 C 0 km/h
2325 11-09-2010 09:09:02 13.4 C 10.35 g/m*3 13.4 C 0 km/h
Sensor: Nr:Datum:Temp:Abs-Feuchte:Windchill:Wind:
Aussen-T/F 2326 11-09-2010 09:21:02 13.5 C 10.41 g/m*3 13.5 C 0 km/h
2327 11-09-2010 09:33:02 13.7 C 10.54 g/m*3 13.7 C 0 km/h
2328 11-09-2010 09:45:01 13.9 C 10.67 g/m*3 13.9 C 0 km/h
2329 11-09-2010 09:57:01 14.3 C 10.81 g/m*3 14.3 C 0 km/h
2330 11-09-2010 10:09:02 14.7 C 11.08 g/m*3 14.7 C 0 km/h
2331 11-09-2010 10:21:01 15 C 11.03 g/m*3 15 C 0 km/h
2332 11-09-2010 10:33:01 15.6 C 11.3 g/m*3 15.6 C 0 km/h
2333 11-09-2010 10:45:01 16.2 C 11.45 g/m*3 16.2 C 0 km/h
2334 11-09-2010 10:57:01 16.8 C 11.72 g/m*3 16.8 C 0 km/h
2335 11-09-2010 11:09:01 17.1 C 11.5 g/m*3 17.1 C 0 km/h
2336 11-09-2010 11:21:02 17.5 C 11.18 g/m*3 17.5 C 0 km/h
2337 11-09-2010 11:33:01 18.2 C 11.35 g/m*3 18.2 C 0 km/h
2338 11-09-2010 11:45:03 19.1 C 11.31 g/m*3 19.1 C 0 km/h
2339 11-09-2010 11:57:03 19.3 C 11.44 g/m*3 19.3 C 0 km/h
2340 11-09-2010 12:09:02 19.2 C 9.89 g/m*3 19.2 C 0 km/h
2341 11-09-2010 12:21:02 19.6 C 9.96 g/m*3 19.6 C 0 km/h
2342 11-09-2010 12:33:02 19.9 C 9.45 g/m*3 19.9 C 0 km/h
2343 11-09-2010 12:45:02 20.2 C 9.27 g/m*3 20.2 C 0 km/h
2344 11-09-2010 12:57:02 20.6 C 9.31 g/m*3 20.6 C 0 km/h
2345 11-09-2010 13:09:02 20.9 C 9.11 g/m*3 20.9 C 0 km/h
2346 11-09-2010 13:21:02 21.3 C 8.76 g/m*3 21.3 C 0 km/h
2347 11-09-2010 13:33:01 21.7 C 8.97 g/m*3 21.7 C 0 km/h
2348 11-09-2010 13:45:02 22.2 C 8.44 g/m*3 22.2 C 0 km/h
2349 11-09-2010 13:57:03 22.7 C 8.69 g/m*3 22.7 C 0 km/h
2350 11-09-2010 14:09:01 23.3 C 8.15 g/m*3 23.3 C 0 km/h
Sensor: Nr:Datum:Temp:Abs-Feuchte:Windchill:Wind:
Aussen-T/F 2351 11-09-2010 14:21:01 23.9 C 8.44 g/m*3 23.9 C 0 km/h
2352 11-09-2010 14:33:02 24.3 C 8.19 g/m*3 24.3 C 0 km/h
2353 11-09-2010 14:45:02 24.5 C 7.83 g/m*3 24.5 C 0 km/h
2354 11-09-2010 14:57:02 25 C 8.06 g/m*3 25 C 0 km/h
2355 11-09-2010 15:09:02 25.6 C 8.09 g/m*3 25.6 C 0 km/h
2356 11-09-2010 15:21:02 25.7 C 7.9 g/m*3 25.7 C 0 km/h
2357 11-09-2010 15:33:02 25.6 C 8.57 g/m*3 25.6 C 0 km/h
2358 11-09-2010 15:45:02 26.5 C 7.51 g/m*3 26.5 C 0 km/h
2359 11-09-2010 15:57:02 26.8 C 7.13 g/m*3 26.8 C 0 km/h
2360 11-09-2010 16:09:02 25.7 C 7.66 g/m*3 25.7 C 0 km/h
2361 11-09-2010 16:21:02 25.3 C 9.13 g/m*3 25.3 C 0 km/h
2362 11-09-2010 16:33:02 26.5 C 8.01 g/m*3 26.5 C 0 km/h
2363 11-09-2010 16:45:02 26.4 C 7.72 g/m*3 26.4 C 0 km/h
2364 11-09-2010 16:57:02 27.8 C 8.34 g/m*3 27.8 C 0 km/h
2365 11-09-2010 17:09:02 28 C 7.61 g/m*3 28 C 0 km/h
2366 11-09-2010 17:21:02 27.3 C 7.85 g/m*3 27.3 C 0 km/h
2367 11-09-2010 17:33:02 27.5 C 8.47 g/m*3 27.5 C 0 km/h
2368 11-09-2010 17:45:02 27.6 C 8.78 g/m*3 27.6 C 0 km/h
2369 11-09-2010 17:57:02 27.7 C 8.83 g/m*3 27.7 C 0 km/h
2370 11-09-2010 18:09:02 27.5 C 9.26 g/m*3 27.5 C 0 km/h
2371 11-09-2010 18:21:02 26.8 C 9.16 g/m*3 26.8 C 0 km/h
2372 11-09-2010 18:33:01 26.3 C 8.91 g/m*3 26.3 C 0 km/h
2373 11-09-2010 18:45:02 25.3 C 9.36 g/m*3 25.3 C 0 km/h
2374 11-09-2010 18:57:02 24.4 C 9.57 g/m*3 24.4 C 0 km/h
2375 11-09-2010 19:09:01 23.7 C 9.63 g/m*3 23.7 C 0 km/h
Sensor: Nr:Datum:Temp:Abs-Feuchte:Windchill:Wind:
Aussen-T/F 2376 11-09-2010 19:21:02 22.6 C 9.64 g/m*3 22.6 C 0 km/h
2377 11-09-2010 19:33:02 21.6 C 10.05 g/m*3 21.6 C 0 km/h
2378 11-09-2010 19:45:02 20.7 C 9.72 g/m*3 20.7 C 0 km/h
2379 11-09-2010 19:57:02 20.2 C 9.44 g/m*3 20.2 C 0 km/h
2380 11-09-2010 20:09:02 20 C 9.33 g/m*3 20 C 0 km/h
2381 11-09-2010 20:21:02 19.5 C 9.4 g/m*3 19.5 C 0 km/h
2382 11-09-2010 20:33:02 19.3 C 9.45 g/m*3 19.3 C 0 km/h
2383 11-09-2010 20:45:01 19.1 C 9.67 g/m*3 19.1 C 0 km/h
2384 11-09-2010 20:57:01 18.8 C 9.66 g/m*3 18.8 C 0 km/h
2385 11-09-2010 21:09:02 18.6 C 9.71 g/m*3 18.6 C 0 km/h
2386 11-09-2010 21:21:01 18.4 C 9.91 g/m*3 18.4 C 0 km/h
2387 11-09-2010 21:33:01 18.2 C 10.1 g/m*3 18.2 C 0 km/h
2388 11-09-2010 21:45:01 17.7 C 10.11 g/m*3 17.7 C 0 km/h
2389 11-09-2010 21:57:01 17.6 C 10.2 g/m*3 17.6 C 0 km/h
2390 11-09-2010 22:09:02 17.6 C 10.2 g/m*3 17.6 C 0 km/h
2391 11-09-2010 22:21:01 17.4 C 10.23 g/m*3 17.4 C 0 km/h
2392 11-09-2010 22:34:03 17.2 C 10.1 g/m*3 17.2 C 0 km/h
2393 11-09-2010 22:46:03 16.9 C 10.36 g/m*3 16.9 C 0 km/h
2394 11-09-2010 22:58:03 16.9 C 10.5 g/m*3 16.9 C 0 km/h
2395 11-09-2010 23:10:03 17 C 10.42 g/m*3 17 C 0 km/h
2396 11-09-2010 23:22:03 16.6 C 10.45 g/m*3 16.6 C 0 km/h
2397 11-09-2010 23:34:03 16.5 C 10.39 g/m*3 16.5 C 0 km/h
2398 11-09-2010 23:46:03 16.4 C 10.33 g/m*3 16.4 C 0 km/h
2399 11-09-2010 23:58:03 16.3 C 10.41 g/m*3 16.3 C 0 km/h
2400 12-09-2010 00:10:03 16.2 C 10.48 g/m*3 16.2 C 0 km/h
Sensor: Nr:Datum:Temp:Abs-Feuchte:Windchill:Wind:
Aussen-T/F 2401 12-09-2010 00:22:03 16.2 C 10.48 g/m*3 16.2 C 0 km/h
2402 12-09-2010 00:34:03 16.1 C 10.42 g/m*3 16.1 C 0 km/h
2403 12-09-2010 00:46:03 16 C 10.35 g/m*3 16 C 0 km/h
2404 12-09-2010 00:58:03 15.8 C 10.36 g/m*3 15.8 C 0 km/h
2405 12-09-2010 01:10:03 15.6 C 10.37 g/m*3 15.6 C 0 km/h
2406 12-09-2010 01:22:04 15.5 C 10.31 g/m*3 15.5 C 0 km/h
2407 12-09-2010 01:34:04 15.2 C 10.25 g/m*3 15.2 C 0 km/h
2408 12-09-2010 01:46:04 15.2 C 10.38 g/m*3 15.2 C 0 km/h
2409 12-09-2010 01:58:04 15.2 C 10.38 g/m*3 15.2 C 0 km/h
2410 12-09-2010 02:10:04 15 C 10.26 g/m*3 15 C 0 km/h
2411 12-09-2010 02:22:04 15 C 10.39 g/m*3 15 C 0 km/h
2412 12-09-2010 02:34:04 14.9 C 10.45 g/m*3 14.9 C 0 km/h
2413 12-09-2010 02:46:04 14.8 C 10.51 g/m*3 14.8 C 0 km/h
2414 12-09-2010 02:58:04 14.7 C 10.32 g/m*3 14.7 C 0 km/h
2415 12-09-2010 03:10:04 14.7 C 10.32 g/m*3 14.7 C 0 km/h
2416 12-09-2010 03:22:04 14.6 C 10.26 g/m*3 14.6 C 0 km/h
2417 12-09-2010 03:34:04 14.4 C 10.14 g/m*3 14.4 C 0 km/h
2418 12-09-2010 03:46:04 14.3 C 10.07 g/m*3 14.3 C 0 km/h
2419 12-09-2010 03:58:04 14.3 C 10.2 g/m*3 14.3 C 0 km/h
2420 12-09-2010 04:10:04 14.2 C 10.14 g/m*3 14.2 C 0 km/h
2421 12-09-2010 04:22:04 14.1 C 10.07 g/m*3 14.1 C 0 km/h
2422 12-09-2010 04:34:05 14.1 C 10.07 g/m*3 14.1 C 0 km/h
2423 12-09-2010 04:46:05 14.1 C 10.07 g/m*3 14.1 C 0 km/h
2424 12-09-2010 04:58:05 14 C 10.01 g/m*3 14 C 0 km/h
2425 12-09-2010 05:10:05 13.9 C 10.07 g/m*3 13.9 C 0 km/h
Sensor: Nr:Datum:Temp:Abs-Feuchte:Windchill:Wind:
Aussen-T/F 2426 12-09-2010 05:22:05 13.7 C 9.95 g/m*3 13.7 C 0 km/h
2427 12-09-2010 05:34:05 13.8 C 10.01 g/m*3 13.8 C 0 km/h
2428 12-09-2010 05:46:05 13.7 C 9.95 g/m*3 13.7 C 0 km/h
2429 12-09-2010 05:58:05 13.7 C 9.95 g/m*3 13.7 C 0 km/h
2430 12-09-2010 06:10:05 13.7 C 9.95 g/m*3 13.7 C 0 km/h
2431 12-09-2010 06:22:05 13.5 C 9.94 g/m*3 13.5 C 0 km/h
2432 12-09-2010 06:34:05 13.5 C 9.94 g/m*3 13.5 C 0 km/h
2433 12-09-2010 06:46:05 13.5 C 9.94 g/m*3 13.5 C 0 km/h
2434 12-09-2010 06:58:05 13.4 C 9.88 g/m*3 13.4 C 0 km/h
2435 12-09-2010 07:10:05 13.5 C 9.94 g/m*3 13.5 C 0 km/h
2436 12-09-2010 07:22:05 13.5 C 10.06 g/m*3 13.5 C 0 km/h
2437 12-09-2010 07:34:05 13.6 C 10.12 g/m*3 13.6 C 0 km/h
2438 12-09-2010 07:46:02 13.8 C 10.25 g/m*3 13.8 C 0 km/h
2439 12-09-2010 07:58:02 14.1 C 10.32 g/m*3 14.1 C 0 km/h
2440 12-09-2010 08:10:02 14.1 C 10.32 g/m*3 14.1 C 0 km/h
2441 12-09-2010 08:22:01 14.4 C 10.38 g/m*3 14.4 C 0 km/h
2442 12-09-2010 08:34:02 14.5 C 10.32 g/m*3 14.5 C 0 km/h
2443 12-09-2010 08:46:02 14 C 10.13 g/m*3 14 C 0 km/h
2444 12-09-2010 08:58:02 14.3 C 10.32 g/m*3 14.3 C 0 km/h
2445 12-09-2010 09:10:02 14.8 C 10.64 g/m*3 14.8 C 0 km/h
2446 12-09-2010 09:22:02 14.8 C 10.39 g/m*3 14.8 C 0 km/h
2447 12-09-2010 09:34:02 14.8 C 10.51 g/m*3 14.8 C 0 km/h
2448 12-09-2010 09:46:02 15 C 10.51 g/m*3 15 C 0 km/h
2449 12-09-2010 09:58:02 14.8 C 10.51 g/m*3 14.8 C 0 km/h
2450 12-09-2010 10:10:02 15.3 C 10.84 g/m*3 15.3 C 0 km/h
Sensor: Nr:Datum:Temp:Abs-Feuchte:Windchill:Wind:
Aussen-T/F 2451 12-09-2010 10:22:03 15.9 C 11.1 g/m*3 15.9 C 0 km/h
2452 12-09-2010 10:34:02 16.8 C 11.29 g/m*3 16.8 C 0 km/h
2453 12-09-2010 10:46:02 18 C 11.37 g/m*3 18 C 0 km/h
2454 12-09-2010 10:58:02 18.7 C 11.05 g/m*3 18.7 C 0 km/h
2455 12-09-2010 11:10:02 19.5 C 10.41 g/m*3 19.5 C 0 km/h
2456 12-09-2010 11:22:02 20.2 C 10.67 g/m*3 20.2 C 0 km/h
2457 12-09-2010 11:34:02 20.1 C 10.6 g/m*3 20.1 C 0 km/h
2458 12-09-2010 11:46:02 20 C 10.89 g/m*3 20 C 0 km/h
2459 12-09-2010 11:58:02 20.3 C 10.9 g/m*3 20.3 C 0 km/h
2460 12-09-2010 12:10:01 20.5 C 10.85 g/m*3 20.5 C 0 km/h
2461 12-09-2010 12:22:02 20.9 C 11.11 g/m*3 20.9 C 0 km/h
2462 12-09-2010 12:34:01 21.4 C 11.06 g/m*3 21.4 C 0 km/h
2463 12-09-2010 12:46:01 22.4 C 10.33 g/m*3 22.4 C 0 km/h
2464 12-09-2010 12:58:02 22.9 C 10.22 g/m*3 22.9 C 0 km/h
2465 12-09-2010 13:10:01 23.1 C 10.34 g/m*3 23.1 C 0 km/h
2466 12-09-2010 13:22:01 23.7 C 10.48 g/m*3 23.7 C 0 km/h
2467 12-09-2010 13:34:02 24.3 C 9.74 g/m*3 24.3 C 0 km/h
2468 12-09-2010 13:46:02 25 C 8.98 g/m*3 25 C 0 km/h
2469 12-09-2010 13:58:02 25.9 C 9.44 g/m*3 25.9 C 0 km/h
2470 12-09-2010 14:10:02 25.7 C 9.34 g/m*3 25.7 C 0 km/h
2471 12-09-2010 14:22:01 25 C 8.06 g/m*3 25 C 0 km/h
2472 12-09-2010 14:34:02 24.7 C 8.15 g/m*3 24.7 C 0 km/h
2473 12-09-2010 14:46:02 23.1 C 9.72 g/m*3 23.1 C 0 km/h
2474 12-09-2010 14:58:02 20.8 C 10.14 g/m*3 20.8 C 0 km/h
2475 12-09-2010 15:10:02 19.5 C 9.23 g/m*3 19.5 C 0 km/h
Sensor: Nr:Datum:Temp:Abs-Feuchte:Windchill:Wind:
Aussen-T/F 2476 12-09-2010 15:22:02 19.1 C 8.69 g/m*3 19.1 C 0 km/h
2477 12-09-2010 15:34:02 19.4 C 8.84 g/m*3 19.4 C 0 km/h
2478 12-09-2010 15:46:02 19.4 C 8.84 g/m*3 19.4 C 0 km/h
2479 12-09-2010 15:58:02 19.2 C 8.74 g/m*3 19.2 C 0 km/h
2480 12-09-2010 16:10:02 17.9 C 8.86 g/m*3 17.9 C 0 km/h
2481 12-09-2010 16:22:02 18.1 C 9.12 g/m*3 18.1 C 0 km/h
2482 12-09-2010 16:34:02 18.1 C 9.27 g/m*3 18.1 C 0 km/h
2483 12-09-2010 16:46:02 17.6 C 9.3 g/m*3 17.6 C 0 km/h
2484 12-09-2010 16:58:02 17.2 C 9.37 g/m*3 17.2 C 0 km/h
2485 12-09-2010 17:10:02 17.2 C 9.52 g/m*3 17.2 C 0 km/h
2486 12-09-2010 17:22:02 16.6 C 9.04 g/m*3 16.6 C 0 km/h
2487 12-09-2010 17:34:01 16.1 C 9.46 g/m*3 16.1 C 0 km/h
2488 12-09-2010 17:46:02 15.6 C 9.97 g/m*3 15.6 C 0 km/h
2489 12-09-2010 17:58:02 15.5 C 10.31 g/m*3 15.5 C 0 km/h
2490 12-09-2010 18:10:01 15.2 C 10.25 g/m*3 15.2 C 0 km/h
2491 12-09-2010 18:22:02 15.2 C 10.51 g/m*3 15.2 C 0 km/h
2492 12-09-2010 18:34:02 14.9 C 10.58 g/m*3 14.9 C 0 km/h
2493 12-09-2010 18:46:02 14.7 C 10.7 g/m*3 14.7 C 0 km/h
2494 12-09-2010 18:58:02 14.6 C 10.89 g/m*3 14.6 C 0 km/h
2495 12-09-2010 19:10:02 14.5 C 10.82 g/m*3 14.5 C 0 km/h
2496 12-09-2010 19:22:02 14.3 C 10.69 g/m*3 14.3 C 0 km/h
2497 12-09-2010 19:34:02 14.1 C 10.68 g/m*3 14.1 C 0 km/h
2498 12-09-2010 19:46:01 14.3 C 10.93 g/m*3 14.3 C 0 km/h
2499 12-09-2010 19:58:01 14.1 C 10.8 g/m*3 14.1 C 0 km/h
2500 12-09-2010 20:10:02 14 C 10.74 g/m*3 14 C 0 km/h
Sensor: Nr:Datum:Temp:Abs-Feuchte:Windchill:Wind:
Aussen-T/F 2501 12-09-2010 20:22:01 13.9 C 10.79 g/m*3 13.9 C 0 km/h
2502 12-09-2010 20:34:01 13.8 C 10.84 g/m*3 13.8 C 0 km/h
2503 12-09-2010 20:46:01 13.7 C 10.78 g/m*3 13.7 C 0 km/h
2504 12-09-2010 20:58:01 13.7 C 10.89 g/m*3 13.7 C 0 km/h
2505 12-09-2010 21:10:02 13.6 C 10.83 g/m*3 13.6 C 0 km/h
2506 12-09-2010 21:22:01 13.7 C 10.89 g/m*3 13.7 C 0 km/h
2507 12-09-2010 21:34:01 13.7 C 10.89 g/m*3 13.7 C 0 km/h
2508 12-09-2010 21:46:01 13.9 C 11.15 g/m*3 13.9 C 0 km/h
2509 12-09-2010 21:58:01 14 C 11.1 g/m*3 14 C 0 km/h
2510 12-09-2010 22:10:02 13.9 C 11.15 g/m*3 13.9 C 0 km/h
2511 12-09-2010 22:22:01 13.9 C 11.15 g/m*3 13.9 C 0 km/h
2512 12-09-2010 22:34:02 13.8 C 11.08 g/m*3 13.8 C 0 km/h
2513 12-09-2010 22:46:02 13.7 C 11.01 g/m*3 13.7 C 0 km/h
2514 12-09-2010 22:58:02 13.6 C 10.95 g/m*3 13.6 C 0 km/h
2515 12-09-2010 23:10:01 13.5 C 10.88 g/m*3 13.5 C 0 km/h
2516 12-09-2010 23:22:02 13.5 C 10.88 g/m*3 13.5 C 0 km/h
2517 12-09-2010 23:34:02 13.5 C 10.88 g/m*3 13.5 C 0 km/h
2518 12-09-2010 23:46:02 13.7 C 11.01 g/m*3 13.7 C 0 km/h
2519 12-09-2010 23:58:02 13.7 C 11.01 g/m*3 13.7 C 0 km/h
2520 13-09-2010 00:10:03 13.7 C 11.01 g/m*3 13.7 C 0 km/h
2521 13-09-2010 00:22:02 13.6 C 10.95 g/m*3 13.6 C 0 km/h
2522 13-09-2010 00:34:02 13.7 C 11.01 g/m*3 13.7 C 0 km/h
2523 13-09-2010 00:46:02 13.7 C 11.01 g/m*3 13.7 C 0 km/h
2524 13-09-2010 00:58:02 13.7 C 11.01 g/m*3 13.7 C 0 km/h
2525 13-09-2010 01:10:02 13.6 C 10.95 g/m*3 13.6 C 0 km/h
Sensor: Nr:Datum:Temp:Abs-Feuchte:Windchill:Wind:
Aussen-T/F 2526 13-09-2010 01:22:03 13.7 C 11.01 g/m*3 13.7 C 0 km/h
2527 13-09-2010 01:34:02 13.8 C 11.08 g/m*3 13.8 C 0 km/h
2528 13-09-2010 01:46:02 13.7 C 11.01 g/m*3 13.7 C 0 km/h
2529 13-09-2010 01:58:02 13.7 C 11.01 g/m*3 13.7 C 0 km/h
2530 13-09-2010 02:10:02 13.7 C 11.01 g/m*3 13.7 C 0 km/h
2531 13-09-2010 02:22:02 13.5 C 10.88 g/m*3 13.5 C 0 km/h
2532 13-09-2010 02:34:02 13.4 C 10.81 g/m*3 13.4 C 0 km/h
2533 13-09-2010 02:46:02 13.4 C 10.81 g/m*3 13.4 C 0 km/h
2534 13-09-2010 02:58:02 13.6 C 10.95 g/m*3 13.6 C 0 km/h
2535 13-09-2010 03:10:01 13.5 C 10.88 g/m*3 13.5 C 0 km/h
2536 13-09-2010 03:22:01 13.3 C 10.63 g/m*3 13.3 C 0 km/h
2537 13-09-2010 03:34:02 13.2 C 10.56 g/m*3 13.2 C 0 km/h
2538 13-09-2010 03:46:02 13.2 C 10.45 g/m*3 13.2 C 0 km/h
2539 13-09-2010 03:58:02 13.1 C 10.38 g/m*3 13.1 C 0 km/h
2540 13-09-2010 04:10:01 13 C 10.21 g/m*3 13 C 0 km/h
2541 13-09-2010 04:22:02 12.8 C 10.19 g/m*3 12.8 C 0 km/h
2542 13-09-2010 04:34:01 12.9 C 10.26 g/m*3 12.9 C 0 km/h
2543 13-09-2010 04:46:01 13.1 C 10.16 g/m*3 13.1 C 0 km/h
2544 13-09-2010 04:58:02 13.2 C 10.22 g/m*3 13.2 C 0 km/h
2545 13-09-2010 05:10:01 13.3 C 10.05 g/m*3 13.3 C 0 km/h
2546 13-09-2010 05:22:01 13.3 C 9.82 g/m*3 13.3 C 0 km/h
2547 13-09-2010 05:34:02 13.2 C 9.64 g/m*3 13.2 C 0 km/h
2548 13-09-2010 05:46:01 13.2 C 9.64 g/m*3 13.2 C 0 km/h
2549 13-09-2010 05:58:01 13.3 C 9.7 g/m*3 13.3 C 0 km/h
2550 13-09-2010 06:10:02 13.4 C 9.76 g/m*3 13.4 C 0 km/h
Sensor: Nr:Datum:Temp:Abs-Feuchte:Windchill:Wind:
Aussen-T/F 2551 13-09-2010 06:22:01 13.4 C 9.65 g/m*3 13.4 C 0 km/h
2552 13-09-2010 06:34:01 13.3 C 9.59 g/m*3 13.3 C 0 km/h
2553 13-09-2010 06:46:01 13.2 C 9.42 g/m*3 13.2 C 0 km/h
2554 13-09-2010 06:58:01 13.2 C 9.42 g/m*3 13.2 C 0 km/h
2555 13-09-2010 07:10:02 13 C 9.19 g/m*3 13 C 0 km/h
2556 13-09-2010 07:22:01 13 C 9.3 g/m*3 13 C 0 km/h
2557 13-09-2010 07:34:01 12.7 C 9.13 g/m*3 12.7 C 0 km/h
2558 13-09-2010 07:46:01 12.5 C 9.13 g/m*3 12.5 C 0 km/h
2559 13-09-2010 07:58:01 12.4 C 9.18 g/m*3 12.4 C 0 km/h
2560 13-09-2010 08:10:01 12.5 C 9.35 g/m*3 12.5 C 0 km/h
2561 13-09-2010 08:22:01 13 C 9.64 g/m*3 13 C 0 km/h
2562 13-09-2010 08:34:01 13.1 C 9.7 g/m*3 13.1 C 0 km/h
2563 13-09-2010 08:46:02 13.2 C 9.64 g/m*3 13.2 C 0 km/h
2564 13-09-2010 08:58:02 13.4 C 9.76 g/m*3 13.4 C 0 km/h
2565 13-09-2010 09:10:01 13.5 C 9.71 g/m*3 13.5 C 0 km/h
2566 13-09-2010 09:22:02 13.7 C 9.71 g/m*3 13.7 C 0 km/h
2567 13-09-2010 09:34:01 14 C 9.41 g/m*3 14 C 0 km/h
2568 13-09-2010 09:46:02 14.2 C 9.28 g/m*3 14.2 C 0 km/h
2569 13-09-2010 09:58:02 14.5 C 9.2 g/m*3 14.5 C 0 km/h
2570 13-09-2010 10:10:01 14.8 C 9.25 g/m*3 14.8 C 0 km/h
2571 13-09-2010 10:22:01 15 C 9.1 g/m*3 15 C 0 km/h
2572 13-09-2010 10:34:02 15.3 C 9.14 g/m*3 15.3 C 0 km/h
2573 13-09-2010 10:46:01 15.6 C 8.91 g/m*3 15.6 C 0 km/h
2574 13-09-2010 10:58:01 15.9 C 8.8 g/m*3 15.9 C 0 km/h
2575 13-09-2010 11:10:01 16 C 8.58 g/m*3 16 C 0 km/h
Sensor: Nr:Datum:Temp:Abs-Feuchte:Windchill:Wind:
Aussen-T/F 2576 13-09-2010 11:22:01 16.4 C 8.65 g/m*3 16.4 C 0 km/h
2577 13-09-2010 11:34:02 16.3 C 8.74 g/m*3 16.3 C 0 km/h
2578 13-09-2010 11:46:01 17.1 C 8.59 g/m*3 17.1 C 0 km/h
2579 13-09-2010 11:58:01 16.7 C 8.24 g/m*3 16.7 C 0 km/h
2580 13-09-2010 12:10:02 16.4 C 8.23 g/m*3 16.4 C 0 km/h
2581 13-09-2010 12:22:01 16.9 C 8.2 g/m*3 16.9 C 0 km/h
2582 13-09-2010 12:34:01 17.6 C 7.8 g/m*3 17.6 C 0 km/h
2583 13-09-2010 12:46:01 17.6 C 7.5 g/m*3 17.6 C 0 km/h
2584 13-09-2010 12:58:01 17.7 C 7.85 g/m*3 17.7 C 0 km/h
2585 13-09-2010 13:10:01 18 C 7.37 g/m*3 18 C 0 km/h
2586 13-09-2010 13:22:01 18.9 C 7.78 g/m*3 18.9 C 0 km/h
2587 13-09-2010 13:34:01 18.9 C 7.45 g/m*3 18.9 C 0 km/h
2588 13-09-2010 13:46:01 18.7 C 7.2 g/m*3 18.7 C 0 km/h
2589 13-09-2010 13:58:01 20.2 C 7.87 g/m*3 20.2 C 0 km/h
2590 13-09-2010 14:10:01 19.9 C 7.22 g/m*3 19.9 C 0 km/h
2591 13-09-2010 14:22:02 19.5 C 6.55 g/m*3 19.5 C 0 km/h
2592 13-09-2010 14:34:01 19.6 C 6.75 g/m*3 19.6 C 0 km/h
2593 13-09-2010 14:46:02 20.6 C 7.34 g/m*3 20.6 C 0 km/h
2594 13-09-2010 14:58:02 21.3 C 6.9 g/m*3 21.3 C 0 km/h
2595 13-09-2010 15:10:01 20.9 C 6.74 g/m*3 20.9 C 0 km/h
2596 13-09-2010 15:22:01 21.3 C 6.9 g/m*3 21.3 C 0 km/h
2597 13-09-2010 15:34:01 21.2 C 6.67 g/m*3 21.2 C 0 km/h
2598 13-09-2010 15:46:01 20.6 C 7.16 g/m*3 20.6 C 0 km/h
2599 13-09-2010 15:58:01 20 C 7.95 g/m*3 20 C 0 km/h
2600 13-09-2010 16:10:01 20.8 C 7.97 g/m*3 20.8 C 0 km/h
Sensor: Nr:Datum:Temp:Abs-Feuchte:Windchill:Wind:
Aussen-T/F 2601 13-09-2010 16:22:02 21.4 C 6.37 g/m*3 21.4 C 0 km/h
2602 13-09-2010 16:34:01 21.4 C 7.5 g/m*3 21.4 C 0 km/h
2603 13-09-2010 16:46:02 21.8 C 6.52 g/m*3 21.8 C 0 km/h
2604 13-09-2010 16:58:02 22.4 C 6.16 g/m*3 22.4 C 0 km/h
2605 13-09-2010 17:10:01 22.3 C 7.11 g/m*3 22.3 C 0 km/h
2606 13-09-2010 17:22:01 20.5 C 7.65 g/m*3 20.5 C 0 km/h
2607 13-09-2010 17:34:01 20.2 C 7.87 g/m*3 20.2 C 0 km/h
2608 13-09-2010 17:46:01 19.8 C 8.37 g/m*3 19.8 C 0 km/h
2609 13-09-2010 17:58:02 19.6 C 8.61 g/m*3 19.6 C 0 km/h
2610 13-09-2010 18:10:02 18.9 C 8.75 g/m*3 18.9 C 0 km/h
2611 13-09-2010 18:22:02 18.4 C 8.65 g/m*3 18.4 C 0 km/h
2612 13-09-2010 18:34:01 18.2 C 8.55 g/m*3 18.2 C 0 km/h
2613 13-09-2010 18:46:02 17.9 C 8.55 g/m*3 17.9 C 0 km/h
2614 13-09-2010 18:58:02 17.7 C 8.6 g/m*3 17.7 C 0 km/h
2615 13-09-2010 19:10:01 17.7 C 8.6 g/m*3 17.7 C 0 km/h
2616 13-09-2010 19:22:02 17.5 C 8.5 g/m*3 17.5 C 0 km/h
2617 13-09-2010 19:34:01 17 C 8.68 g/m*3 17 C 0 km/h
2618 13-09-2010 19:46:02 16.4 C 8.51 g/m*3 16.4 C 0 km/h
2619 13-09-2010 19:58:02 16 C 8.45 g/m*3 16 C 0 km/h
2620 13-09-2010 20:10:01 15.6 C 8.64 g/m*3 15.6 C 0 km/h
2621 13-09-2010 20:22:01 15.4 C 8.8 g/m*3 15.4 C 0 km/h
2622 13-09-2010 20:34:01 15.2 C 8.96 g/m*3 15.2 C 0 km/h
2623 13-09-2010 20:46:01 15.1 C 9.03 g/m*3 15.1 C 0 km/h
2624 13-09-2010 20:58:02 14.9 C 9.05 g/m*3 14.9 C 0 km/h
2625 13-09-2010 21:10:01 14.7 C 8.94 g/m*3 14.7 C 0 km/h
Sensor: Nr:Datum:Temp:Abs-Feuchte:Windchill:Wind:
Aussen-T/F 2626 13-09-2010 21:22:01 14.6 C 9.01 g/m*3 14.6 C 0 km/h
2627 13-09-2010 21:34:02 14.5 C 8.95 g/m*3 14.5 C 0 km/h
2628 13-09-2010 21:46:01 14.4 C 8.9 g/m*3 14.4 C 0 km/h
2629 13-09-2010 21:58:01 14.4 C 9.02 g/m*3 14.4 C 0 km/h
2630 13-09-2010 22:10:01 14.1 C 8.86 g/m*3 14.1 C 0 km/h
2631 13-09-2010 22:23:05 13.8 C 8.82 g/m*3 13.8 C 0 km/h
2632 13-09-2010 22:35:05 13.7 C 8.88 g/m*3 13.7 C 0 km/h
2633 13-09-2010 22:47:05 13.5 C 8.89 g/m*3 13.5 C 0 km/h
2634 13-09-2010 22:59:05 13.4 C 8.83 g/m*3 13.4 C 0 km/h
2635 13-09-2010 23:11:05 13.3 C 8.78 g/m*3 13.3 C 0 km/h
2636 13-09-2010 23:23:05 13.3 C 9.01 g/m*3 13.3 C 0 km/h
2637 13-09-2010 23:35:05 13.1 C 8.9 g/m*3 13.1 C 0 km/h
2638 13-09-2010 23:47:05 13 C 8.73 g/m*3 13 C 0 km/h
2639 13-09-2010 23:59:05 13 C 8.85 g/m*3 13 C 0 km/h
2640 14-09-2010 00:11:05 13 C 8.96 g/m*3 13 C 0 km/h
2641 14-09-2010 00:23:05 12.8 C 9.18 g/m*3 12.8 C 0 km/h
2642 14-09-2010 00:35:05 12.8 C 9.3 g/m*3 12.8 C 0 km/h
2643 14-09-2010 00:47:05 12.8 C 9.3 g/m*3 12.8 C 0 km/h
2644 14-09-2010 00:59:05 12.7 C 9.24 g/m*3 12.7 C 0 km/h
2645 14-09-2010 01:11:05 12.6 C 9.18 g/m*3 12.6 C 0 km/h
2646 14-09-2010 01:23:05 12.7 C 9.24 g/m*3 12.7 C 0 km/h
2647 14-09-2010 01:35:05 12.8 C 9.3 g/m*3 12.8 C 0 km/h
2648 14-09-2010 01:47:05 12.9 C 9.35 g/m*3 12.9 C 0 km/h
2649 14-09-2010 01:59:05 13 C 9.3 g/m*3 13 C 0 km/h
2650 14-09-2010 02:11:05 13 C 9.3 g/m*3 13 C 0 km/h
Sensor: Nr:Datum:Temp:Abs-Feuchte:Windchill:Wind:
Aussen-T/F 2651 14-09-2010 02:23:05 13 C 9.3 g/m*3 13 C 0 km/h
2652 14-09-2010 02:35:06 13.1 C 9.36 g/m*3 13.1 C 0 km/h
2653 14-09-2010 02:47:06 13.2 C 9.42 g/m*3 13.2 C 0 km/h
2654 14-09-2010 02:59:06 13.2 C 9.3 g/m*3 13.2 C 0 km/h
2655 14-09-2010 03:11:06 13.4 C 9.18 g/m*3 13.4 C 0 km/h
2656 14-09-2010 03:23:06 13.4 C 9.18 g/m*3 13.4 C 0 km/h
2657 14-09-2010 03:35:06 13.3 C 9.24 g/m*3 13.3 C 0 km/h
2658 14-09-2010 03:47:06 13.3 C 9.24 g/m*3 13.3 C 0 km/h
2659 14-09-2010 03:59:06 13.4 C 9.3 g/m*3 13.4 C 0 km/h
2660 14-09-2010 04:11:06 13.2 C 9.19 g/m*3 13.2 C 0 km/h
2661 14-09-2010 04:23:06 13 C 9.3 g/m*3 13 C 0 km/h
2662 14-09-2010 04:35:06 12.8 C 9.41 g/m*3 12.8 C 0 km/h
2663 14-09-2010 04:47:06 12.9 C 9.58 g/m*3 12.9 C 0 km/h
2664 14-09-2010 04:59:06 12.8 C 9.63 g/m*3 12.8 C 0 km/h
2665 14-09-2010 05:11:06 12.9 C 9.81 g/m*3 12.9 C 0 km/h
2666 14-09-2010 05:23:06 12.9 C 9.81 g/m*3 12.9 C 0 km/h
2667 14-09-2010 05:35:06 13 C 9.87 g/m*3 13 C 0 km/h
2668 14-09-2010 05:47:06 13 C 9.87 g/m*3 13 C 0 km/h
2669 14-09-2010 05:59:06 13 C 9.87 g/m*3 13 C 0 km/h
2670 14-09-2010 06:11:06 13.3 C 10.05 g/m*3 13.3 C 0 km/h
2671 14-09-2010 06:23:06 13.5 C 9.83 g/m*3 13.5 C 0 km/h
2672 14-09-2010 06:35:06 13.8 C 9.06 g/m*3 13.8 C 0 km/h
2673 14-09-2010 06:47:06 14.5 C 8.83 g/m*3 14.5 C 0 km/h
2674 14-09-2010 06:59:07 14.4 C 8.53 g/m*3 14.4 C 0 km/h
2675 14-09-2010 07:11:07 14.4 C 8.53 g/m*3 14.4 C 0 km/h
Sensor: Nr:Datum:Temp:Abs-Feuchte:Windchill:Wind:
Aussen-T/F 2676 14-09-2010 07:23:07 14.4 C 8.65 g/m*3 14.4 C 0 km/h
2677 14-09-2010 07:35:04 14.3 C 8.85 g/m*3 14.3 C 0 km/h
2678 14-09-2010 07:47:02 13.6 C 9.18 g/m*3 13.6 C 0 km/h
2679 14-09-2010 07:59:02 13.6 C 9.42 g/m*3 13.6 C 0 km/h
2680 14-09-2010 08:11:01 13.7 C 9.47 g/m*3 13.7 C 0 km/h
2681 14-09-2010 08:23:02 13.7 C 9.47 g/m*3 13.7 C 0 km/h
2682 14-09-2010 08:35:02 14.1 C 9.34 g/m*3 14.1 C 0 km/h
2683 14-09-2010 08:47:02 14.4 C 9.15 g/m*3 14.4 C 0 km/h
2684 14-09-2010 08:59:02 14.6 C 9.13 g/m*3 14.6 C 0 km/h
2685 14-09-2010 09:11:01 14.7 C 9.07 g/m*3 14.7 C 0 km/h
2686 14-09-2010 09:23:02 14.8 C 9.12 g/m*3 14.8 C 0 km/h
2687 14-09-2010 09:35:02 15.1 C 9.03 g/m*3 15.1 C 0 km/h
2688 14-09-2010 09:47:01 15.6 C 9.04 g/m*3 15.6 C 0 km/h
2689 14-09-2010 09:59:01 15.6 C 9.04 g/m*3 15.6 C 0 km/h
2690 14-09-2010 10:11:02 15.6 C 9.04 g/m*3 15.6 C 0 km/h
2691 14-09-2010 10:23:01 15.7 C 9.1 g/m*3 15.7 C 0 km/h
2692 14-09-2010 10:35:01 16 C 8.99 g/m*3 16 C 0 km/h
2693 14-09-2010 10:47:01 16.4 C 8.93 g/m*3 16.4 C 0 km/h
2694 14-09-2010 10:59:01 16.8 C 9.29 g/m*3 16.8 C 0 km/h
2695 14-09-2010 11:11:02 17 C 8.97 g/m*3 17 C 0 km/h
2696 14-09-2010 11:23:01 17.1 C 9.03 g/m*3 17.1 C 0 km/h
2697 14-09-2010 11:35:01 17 C 9.12 g/m*3 17 C 0 km/h
2698 14-09-2010 11:47:01 16.7 C 9.24 g/m*3 16.7 C 0 km/h
2699 14-09-2010 11:59:01 17.5 C 9.39 g/m*3 17.5 C 0 km/h
2700 14-09-2010 12:11:02 17.8 C 9.26 g/m*3 17.8 C 0 km/h
Sensor: Nr:Datum:Temp:Abs-Feuchte:Windchill:Wind:
Aussen-T/F 2701 14-09-2010 12:23:02 18.2 C 9.01 g/m*3 18.2 C 0 km/h
2702 14-09-2010 12:35:01 18.5 C 9.18 g/m*3 18.5 C 0 km/h
2703 14-09-2010 12:47:02 18.8 C 9.18 g/m*3 18.8 C 0 km/h
2704 14-09-2010 12:59:02 18.9 C 9.23 g/m*3 18.9 C 0 km/h
2705 14-09-2010 13:11:01 19.6 C 9.28 g/m*3 19.6 C 0 km/h
2706 14-09-2010 13:23:01 19.7 C 9.34 g/m*3 19.7 C 0 km/h
2707 14-09-2010 13:35:01 20.2 C 9.44 g/m*3 20.2 C 0 km/h
2708 14-09-2010 13:47:02 20.4 C 9.02 g/m*3 20.4 C 0 km/h
2709 14-09-2010 13:59:02 20 C 8.99 g/m*3 20 C 0 km/h
2710 14-09-2010 14:11:02 19.7 C 8.83 g/m*3 19.7 C 0 km/h
2711 14-09-2010 14:23:02 19.7 C 9 g/m*3 19.7 C 0 km/h
2712 14-09-2010 14:35:02 19.8 C 8.71 g/m*3 19.8 C 0 km/h
2713 14-09-2010 14:47:01 19.6 C 8.78 g/m*3 19.6 C 0 km/h
2714 14-09-2010 14:59:01 19.5 C 8.89 g/m*3 19.5 C 0 km/h
2715 14-09-2010 15:11:02 20 C 8.81 g/m*3 20 C 0 km/h
2716 14-09-2010 15:23:01 20 C 8.64 g/m*3 20 C 0 km/h
2717 14-09-2010 15:35:02 20.4 C 8.67 g/m*3 20.4 C 0 km/h
2718 14-09-2010 15:47:01 20.7 C 8.46 g/m*3 20.7 C 0 km/h
2719 14-09-2010 15:59:01 20.9 C 8.56 g/m*3 20.9 C 0 km/h
2720 14-09-2010 16:11:02 20.8 C 8.15 g/m*3 20.8 C 0 km/h
2721 14-09-2010 16:23:01 20.9 C 8.2 g/m*3 20.9 C 0 km/h
2722 14-09-2010 16:35:02 20.6 C 7.7 g/m*3 20.6 C 0 km/h
2723 14-09-2010 16:47:01 20.6 C 7.7 g/m*3 20.6 C 0 km/h
2724 14-09-2010 16:59:01 20.5 C 7.65 g/m*3 20.5 C 0 km/h
2725 14-09-2010 17:11:02 20.5 C 7.47 g/m*3 20.5 C 0 km/h
Sensor: Nr:Datum:Temp:Abs-Feuchte:Windchill:Wind:
Aussen-T/F 2726 14-09-2010 17:23:01 20.4 C 7.43 g/m*3 20.4 C 0 km/h
2727 14-09-2010 17:35:01 20 C 7.26 g/m*3 20 C 0 km/h
2728 14-09-2010 17:47:01 20 C 7.43 g/m*3 20 C 0 km/h
2729 14-09-2010 17:59:01 19.8 C 7.69 g/m*3 19.8 C 0 km/h
2730 14-09-2010 18:11:01 19.6 C 7.77 g/m*3 19.6 C 0 km/h
2731 14-09-2010 18:23:02 19.4 C 7.84 g/m*3 19.4 C 0 km/h
2732 14-09-2010 18:35:01 19.3 C 7.8 g/m*3 19.3 C 0 km/h
2733 14-09-2010 18:47:02 19.3 C 7.8 g/m*3 19.3 C 0 km/h
2734 14-09-2010 18:59:02 19.1 C 7.87 g/m*3 19.1 C 0 km/h
2735 14-09-2010 19:11:01 19 C 7.82 g/m*3 19 C 0 km/h
2736 14-09-2010 19:23:01 18.9 C 7.78 g/m*3 18.9 C 0 km/h
2737 14-09-2010 19:35:01 18.7 C 7.68 g/m*3 18.7 C 0 km/h
2738 14-09-2010 19:47:02 18.7 C 7.68 g/m*3 18.7 C 0 km/h
2739 14-09-2010 19:59:03 18.7 C 7.68 g/m*3 18.7 C 0 km/h
2740 14-09-2010 20:11:01 18.7 C 7.68 g/m*3 18.7 C 0 km/h
2741 14-09-2010 20:23:02 18.6 C 7.64 g/m*3 18.6 C 0 km/h
2742 14-09-2010 20:35:02 18.7 C 7.68 g/m*3 18.7 C 0 km/h
2743 14-09-2010 20:47:02 18.5 C 7.75 g/m*3 18.5 C 0 km/h
2744 14-09-2010 20:59:02 18.5 C 7.75 g/m*3 18.5 C 0 km/h
2745 14-09-2010 21:11:03 18.5 C 7.75 g/m*3 18.5 C 0 km/h
2746 14-09-2010 21:23:02 18.5 C 7.75 g/m*3 18.5 C 0 km/h
2747 14-09-2010 21:35:02 18.6 C 7.96 g/m*3 18.6 C 0 km/h
2748 14-09-2010 21:47:01 18.5 C 7.75 g/m*3 18.5 C 0 km/h
2749 14-09-2010 21:59:01 18.6 C 7.64 g/m*3 18.6 C 0 km/h
2750 14-09-2010 22:12:03 18.6 C 7.8 g/m*3 18.6 C 0 km/h
Sensor: Nr:Datum:Temp:Abs-Feuchte:Windchill:Wind:
Aussen-T/F 2751 14-09-2010 22:24:03 18.5 C 7.75 g/m*3 18.5 C 0 km/h
2752 14-09-2010 22:36:03 18.4 C 7.86 g/m*3 18.4 C 0 km/h
2753 14-09-2010 22:48:03 18.5 C 7.91 g/m*3 18.5 C 0 km/h
2754 14-09-2010 23:00:03 18.5 C 7.91 g/m*3 18.5 C 0 km/h
2755 14-09-2010 23:12:03 18.4 C 7.86 g/m*3 18.4 C 0 km/h
2756 14-09-2010 23:24:03 18.2 C 7.77 g/m*3 18.2 C 0 km/h
2757 14-09-2010 23:36:04 18 C 7.99 g/m*3 18 C 0 km/h
2758 14-09-2010 23:48:04 18 C 7.99 g/m*3 18 C 0 km/h
2759 15-09-2010 00:00:04 18 C 7.99 g/m*3 18 C 0 km/h
2760 15-09-2010 00:12:04 18 C 7.83 g/m*3 18 C 0 km/h
2761 15-09-2010 00:24:04 18 C 7.83 g/m*3 18 C 0 km/h
2762 15-09-2010 00:36:04 18 C 7.83 g/m*3 18 C 0 km/h
2763 15-09-2010 00:48:04 18.1 C 7.88 g/m*3 18.1 C 0 km/h
2764 15-09-2010 01:00:04 18.1 C 7.73 g/m*3 18.1 C 0 km/h
2765 15-09-2010 01:12:04 18.1 C 7.73 g/m*3 18.1 C 0 km/h
2766 15-09-2010 01:24:04 18.2 C 7.62 g/m*3 18.2 C 0 km/h
2767 15-09-2010 01:36:04 18.3 C 7.66 g/m*3 18.3 C 0 km/h
2768 15-09-2010 01:48:04 18.2 C 7.62 g/m*3 18.2 C 0 km/h
2769 15-09-2010 02:00:04 18.3 C 7.66 g/m*3 18.3 C 0 km/h
2770 15-09-2010 02:12:04 18.4 C 7.55 g/m*3 18.4 C 0 km/h
2771 15-09-2010 02:24:04 18.4 C 7.55 g/m*3 18.4 C 0 km/h
2772 15-09-2010 02:36:05 18.3 C 7.66 g/m*3 18.3 C 0 km/h
2773 15-09-2010 02:48:05 18.2 C 7.77 g/m*3 18.2 C 0 km/h
2774 15-09-2010 03:00:05 18.2 C 7.93 g/m*3 18.2 C 0 km/h
2775 15-09-2010 03:12:05 18.1 C 8.03 g/m*3 18.1 C 0 km/h
Sensor: Nr:Datum:Temp:Abs-Feuchte:Windchill:Wind:
Aussen-T/F 2776 15-09-2010 03:24:05 18 C 8.29 g/m*3 18 C 0 km/h
2777 15-09-2010 03:36:05 18 C 8.45 g/m*3 18 C 0 km/h
2778 15-09-2010 03:48:05 18 C 8.45 g/m*3 18 C 0 km/h
2779 15-09-2010 04:00:05 17.9 C 8.7 g/m*3 17.9 C 0 km/h
2780 15-09-2010 04:12:05 17.9 C 9.01 g/m*3 17.9 C 0 km/h
2781 15-09-2010 04:24:05 17.7 C 9.05 g/m*3 17.7 C 0 km/h
2782 15-09-2010 04:36:05 17.6 C 9.3 g/m*3 17.6 C 0 km/h
2783 15-09-2010 04:48:05 17.4 C 9.48 g/m*3 17.4 C 0 km/h
2784 15-09-2010 05:00:05 17.4 C 9.48 g/m*3 17.4 C 0 km/h
2785 15-09-2010 05:12:05 16.9 C 10.07 g/m*3 16.9 C 0 km/h
2786 15-09-2010 05:24:05 14.4 C 9.27 g/m*3 14.4 C 0 km/h
2787 15-09-2010 05:36:05 13.3 C 9.7 g/m*3 13.3 C 0 km/h
2788 15-09-2010 05:48:05 13 C 9.87 g/m*3 13 C 0 km/h
2789 15-09-2010 06:00:05 12.9 C 10.03 g/m*3 12.9 C 0 km/h
2790 15-09-2010 06:12:05 12.8 C 10.08 g/m*3 12.8 C 0 km/h
2791 15-09-2010 06:24:05 12.7 C 10.02 g/m*3 12.7 C 0 km/h
2792 15-09-2010 06:36:05 12.7 C 10.13 g/m*3 12.7 C 0 km/h
2793 15-09-2010 06:48:05 12.8 C 10.19 g/m*3 12.8 C 0 km/h
2794 15-09-2010 07:00:06 12.8 C 10.3 g/m*3 12.8 C 0 km/h
2795 15-09-2010 07:12:06 12.7 C 10.24 g/m*3 12.7 C 0 km/h
2796 15-09-2010 07:24:06 12.7 C 10.24 g/m*3 12.7 C 0 km/h
2797 15-09-2010 07:36:03 12.8 C 10.3 g/m*3 12.8 C 0 km/h
2798 15-09-2010 07:48:02 12.7 C 10.35 g/m*3 12.7 C 0 km/h
2799 15-09-2010 08:00:02 12.6 C 10.29 g/m*3 12.6 C 0 km/h
2800 15-09-2010 08:12:02 12.7 C 10.35 g/m*3 12.7 C 0 km/h
Sensor: Nr:Datum:Temp:Abs-Feuchte:Windchill:Wind:
Aussen-T/F 2801 15-09-2010 08:24:02 12.7 C 10.35 g/m*3 12.7 C 0 km/h
2802 15-09-2010 08:36:01 12.8 C 10.42 g/m*3 12.8 C 0 km/h
2803 15-09-2010 08:48:02 12.7 C 10.35 g/m*3 12.7 C 0 km/h
2804 15-09-2010 09:00:02 12.5 C 10.22 g/m*3 12.5 C 0 km/h
2805 15-09-2010 09:12:01 12.7 C 10.35 g/m*3 12.7 C 0 km/h
2806 15-09-2010 09:24:01 12.7 C 10.24 g/m*3 12.7 C 0 km/h
2807 15-09-2010 09:36:02 13.1 C 10.38 g/m*3 13.1 C 0 km/h
2808 15-09-2010 09:48:02 13.6 C 10.59 g/m*3 13.6 C 0 km/h
2809 15-09-2010 10:00:02 14 C 10.49 g/m*3 14 C 0 km/h
2810 15-09-2010 10:12:02 14 C 10.01 g/m*3 14 C 0 km/h
2811 15-09-2010 10:24:02 14.1 C 9.95 g/m*3 14.1 C 0 km/h
2812 15-09-2010 10:36:02 14.1 C 9.71 g/m*3 14.1 C 0 km/h
2813 15-09-2010 10:48:02 14.1 C 9.59 g/m*3 14.1 C 0 km/h
2814 15-09-2010 11:00:02 14.2 C 9.52 g/m*3 14.2 C 0 km/h
2815 15-09-2010 11:12:02 14.6 C 9.01 g/m*3 14.6 C 0 km/h
2816 15-09-2010 11:24:02 15 C 8.72 g/m*3 15 C 0 km/h
2817 15-09-2010 11:36:02 15.6 C 8.51 g/m*3 15.6 C 0 km/h
2818 15-09-2010 11:48:01 15.7 C 8.43 g/m*3 15.7 C 0 km/h
2819 15-09-2010 12:00:01 16.2 C 7.31 g/m*3 16.2 C 0 km/h
2820 15-09-2010 12:12:01 16.4 C 7.4 g/m*3 16.4 C 0 km/h
2821 15-09-2010 12:24:01 17.2 C 7.18 g/m*3 17.2 C 0 km/h
2822 15-09-2010 12:36:01 16.6 C 7.06 g/m*3 16.6 C 0 km/h
2823 15-09-2010 12:48:02 16.1 C 6.17 g/m*3 16.1 C 0 km/h
2824 15-09-2010 13:00:02 16.1 C 6.44 g/m*3 16.1 C 0 km/h
2825 15-09-2010 13:12:02 16.4 C 6.7 g/m*3 16.4 C 0 km/h
Sensor: Nr:Datum:Temp:Abs-Feuchte:Windchill:Wind:
Aussen-T/F 2826 15-09-2010 13:24:02 17.4 C 6.52 g/m*3 17.4 C 0 km/h
2827 15-09-2010 13:36:02 17.9 C 5.95 g/m*3 17.9 C 0 km/h
2828 15-09-2010 13:48:02 18.4 C 5.82 g/m*3 18.4 C 0 km/h
2829 15-09-2010 14:00:02 18.5 C 5.7 g/m*3 18.5 C 0 km/h
2830 15-09-2010 14:12:02 18.1 C 5.87 g/m*3 18.1 C 0 km/h
2831 15-09-2010 14:24:02 18.5 C 5.54 g/m*3 18.5 C 0 km/h
2832 15-09-2010 14:36:02 18.3 C 5.47 g/m*3 18.3 C 0 km/h
2833 15-09-2010 14:48:02 18.5 C 5.7 g/m*3 18.5 C 0 km/h
2834 15-09-2010 15:00:03 19.5 C 5.87 g/m*3 19.5 C 0 km/h
2835 15-09-2010 15:12:01 19.6 C 5.4 g/m*3 19.6 C 0 km/h
2836 15-09-2010 15:24:01 19.3 C 5.64 g/m*3 19.3 C 0 km/h
2837 15-09-2010 15:36:02 19.2 C 5.94 g/m*3 19.2 C 0 km/h
2838 15-09-2010 15:48:02 20 C 5.88 g/m*3 20 C 0 km/h
2839 15-09-2010 16:00:02 19.6 C 5.91 g/m*3 19.6 C 0 km/h
2840 15-09-2010 16:12:02 19.6 C 5.91 g/m*3 19.6 C 0 km/h
2841 15-09-2010 16:24:02 19.3 C 5.97 g/m*3 19.3 C 0 km/h
2842 15-09-2010 16:36:02 19.6 C 6.08 g/m*3 19.6 C 0 km/h
2843 15-09-2010 16:48:02 19.5 C 6.04 g/m*3 19.5 C 0 km/h
2844 15-09-2010 17:00:02 20.4 C 5.84 g/m*3 20.4 C 0 km/h
2845 15-09-2010 17:12:02 19 C 5.7 g/m*3 19 C 0 km/h
2846 15-09-2010 17:24:02 19.4 C 6.01 g/m*3 19.4 C 0 km/h
2847 15-09-2010 17:36:02 19.9 C 5.84 g/m*3 19.9 C 0 km/h
2848 15-09-2010 17:48:02 19.7 C 5.6 g/m*3 19.7 C 0 km/h
2849 15-09-2010 18:00:02 18.7 C 5.44 g/m*3 18.7 C 0 km/h
2850 15-09-2010 18:12:02 18.2 C 5.28 g/m*3 18.2 C 0 km/h
Sensor: Nr:Datum:Temp:Abs-Feuchte:Windchill:Wind:
Aussen-T/F 2851 15-09-2010 18:24:03 17.5 C 5.22 g/m*3 17.5 C 0 km/h
2852 15-09-2010 18:36:02 17.7 C 5.28 g/m*3 17.7 C 0 km/h
2853 15-09-2010 18:48:02 17.1 C 5.39 g/m*3 17.1 C 0 km/h
2854 15-09-2010 19:00:02 16.9 C 5.61 g/m*3 16.9 C 0 km/h
2855 15-09-2010 19:12:02 16.7 C 5.4 g/m*3 16.7 C 0 km/h
2856 15-09-2010 19:24:02 16.6 C 5.65 g/m*3 16.6 C 0 km/h
2857 15-09-2010 19:36:02 16.4 C 5.72 g/m*3 16.4 C 0 km/h
2858 15-09-2010 19:48:02 16.4 C 5.86 g/m*3 16.4 C 0 km/h
2859 15-09-2010 20:00:02 16.2 C 6.07 g/m*3 16.2 C 0 km/h
2860 15-09-2010 20:12:02 16 C 6.27 g/m*3 16 C 0 km/h
2861 15-09-2010 20:24:02 15.8 C 6.46 g/m*3 15.8 C 0 km/h
2862 15-09-2010 20:36:01 15.7 C 6.15 g/m*3 15.7 C 0 km/h
2863 15-09-2010 20:48:02 15.5 C 6.34 g/m*3 15.5 C 0 km/h
2864 15-09-2010 21:00:03 15.4 C 6.31 g/m*3 15.4 C 0 km/h
2865 15-09-2010 21:12:01 15.2 C 6.49 g/m*3 15.2 C 0 km/h
2866 15-09-2010 21:24:01 15 C 6.41 g/m*3 15 C 0 km/h
2867 15-09-2010 21:37:02 15.1 C 6.32 g/m*3 15.1 C 0 km/h
2868 15-09-2010 21:49:02 15.2 C 6.36 g/m*3 15.2 C 0 km/h
2869 15-09-2010 22:01:02 15.1 C 6.32 g/m*3 15.1 C 0 km/h
2870 15-09-2010 22:13:02 15.1 C 6.06 g/m*3 15.1 C 0 km/h
2871 15-09-2010 22:25:02 14.9 C 5.86 g/m*3 14.9 C 0 km/h
2872 15-09-2010 22:37:02 14.8 C 5.83 g/m*3 14.8 C 0 km/h
2873 15-09-2010 22:49:02 14.9 C 5.74 g/m*3 14.9 C 0 km/h
2874 15-09-2010 23:01:02 15 C 5.51 g/m*3 15 C 0 km/h
2875 15-09-2010 23:13:02 15 C 5.51 g/m*3 15 C 0 km/h
Sensor: Nr:Datum:Temp:Abs-Feuchte:Windchill:Wind:
Aussen-T/F 2876 15-09-2010 23:25:02 14.9 C 5.74 g/m*3 14.9 C 0 km/h
2877 15-09-2010 23:37:02 14.8 C 5.7 g/m*3 14.8 C 0 km/h
2878 15-09-2010 23:49:02 14.6 C 5.76 g/m*3 14.6 C 0 km/h
2879 16-09-2010 00:01:02 14.5 C 5.97 g/m*3 14.5 C 0 km/h
2880 16-09-2010 00:13:02 14.4 C 5.93 g/m*3 14.4 C 0 km/h
2881 16-09-2010 00:25:02 14.2 C 5.86 g/m*3 14.2 C 0 km/h
2882 16-09-2010 00:37:02 13.8 C 5.96 g/m*3 13.8 C 0 km/h
2883 16-09-2010 00:49:02 14 C 5.79 g/m*3 14 C 0 km/h
2884 16-09-2010 01:01:02 14.1 C 5.58 g/m*3 14.1 C 0 km/h
2885 16-09-2010 01:13:03 14.2 C 5.49 g/m*3 14.2 C 0 km/h
2886 16-09-2010 01:25:03 14.1 C 5.34 g/m*3 14.1 C 0 km/h
2887 16-09-2010 01:37:03 14.1 C 5.34 g/m*3 14.1 C 0 km/h
2888 16-09-2010 01:49:03 14 C 5.31 g/m*3 14 C 0 km/h
2889 16-09-2010 02:01:03 13.9 C 5.51 g/m*3 13.9 C 0 km/h
2890 16-09-2010 02:13:03 14.1 C 5.58 g/m*3 14.1 C 0 km/h
2891 16-09-2010 02:25:03 14 C 5.79 g/m*3 14 C 0 km/h
2892 16-09-2010 02:37:03 13.7 C 5.92 g/m*3 13.7 C 0 km/h
2893 16-09-2010 02:49:03 14 C 6.15 g/m*3 14 C 0 km/h
2894 16-09-2010 03:01:03 13.9 C 6.35 g/m*3 13.9 C 0 km/h
2895 16-09-2010 03:13:03 13.9 C 6.59 g/m*3 13.9 C 0 km/h
2896 16-09-2010 03:25:03 13.9 C 6.71 g/m*3 13.9 C 0 km/h
2897 16-09-2010 03:37:03 13.8 C 6.79 g/m*3 13.8 C 0 km/h
2898 16-09-2010 03:49:03 13.7 C 7.1 g/m*3 13.7 C 0 km/h
2899 16-09-2010 04:01:03 13.2 C 7.12 g/m*3 13.2 C 0 km/h
2900 16-09-2010 04:13:03 13.6 C 6.94 g/m*3 13.6 C 0 km/h
Sensor: Nr:Datum:Temp:Abs-Feuchte:Windchill:Wind:
Aussen-T/F 2901 16-09-2010 04:25:03 13.7 C 6.87 g/m*3 13.7 C 0 km/h
2902 16-09-2010 04:37:03 13.7 C 6.99 g/m*3 13.7 C 0 km/h
2903 16-09-2010 04:49:03 13.7 C 6.99 g/m*3 13.7 C 0 km/h
2904 16-09-2010 05:01:03 13.7 C 6.99 g/m*3 13.7 C 0 km/h
2905 16-09-2010 05:13:03 13.6 C 7.06 g/m*3 13.6 C 0 km/h
2906 16-09-2010 05:25:04 13.2 C 7.35 g/m*3 13.2 C 0 km/h
2907 16-09-2010 05:37:04 13.1 C 7.42 g/m*3 13.1 C 0 km/h
2908 16-09-2010 05:49:04 13.2 C 7.46 g/m*3 13.2 C 0 km/h
2909 16-09-2010 06:01:04 13.1 C 7.65 g/m*3 13.1 C 0 km/h
2910 16-09-2010 06:13:04 12.6 C 7.97 g/m*3 12.6 C 0 km/h
2911 16-09-2010 06:25:04 12.5 C 8.03 g/m*3 12.5 C 0 km/h
2912 16-09-2010 06:37:04 12.1 C 8.26 g/m*3 12.1 C 0 km/h
2913 16-09-2010 06:49:04 11.9 C 8.47 g/m*3 11.9 C 0 km/h
2914 16-09-2010 07:01:04 11.9 C 8.47 g/m*3 11.9 C 0 km/h
2915 16-09-2010 07:13:04 11.9 C 8.58 g/m*3 11.9 C 0 km/h
2916 16-09-2010 07:25:04 11.9 C 8.79 g/m*3 11.9 C 0 km/h
2917 16-09-2010 07:37:04 11.6 C 8.73 g/m*3 11.6 C 0 km/h
2918 16-09-2010 07:49:04 11.6 C 8.83 g/m*3 11.6 C 0 km/h
2919 16-09-2010 08:01:02 11.6 C 8.83 g/m*3 11.6 C 0 km/h
2920 16-09-2010 08:13:02 11.7 C 8.79 g/m*3 11.7 C 0 km/h
2921 16-09-2010 08:25:02 12 C 8.85 g/m*3 12 C 0 km/h
2922 16-09-2010 08:37:02 12 C 8.85 g/m*3 12 C 0 km/h
2923 16-09-2010 08:49:02 12 C 8.85 g/m*3 12 C 0 km/h
2924 16-09-2010 09:01:02 12 C 8.95 g/m*3 12 C 0 km/h
2925 16-09-2010 09:13:02 12.1 C 9.01 g/m*3 12.1 C 0 km/h
Sensor: Nr:Datum:Temp:Abs-Feuchte:Windchill:Wind:
Aussen-T/F 2926 16-09-2010 09:25:01 12.6 C 9.29 g/m*3 12.6 C 0 km/h
2927 16-09-2010 09:37:02 13 C 9.41 g/m*3 13 C 0 km/h
2928 16-09-2010 09:49:02 13.5 C 9.59 g/m*3 13.5 C 0 km/h
2929 16-09-2010 10:01:02 13.7 C 9.12 g/m*3 13.7 C 0 km/h
2930 16-09-2010 10:13:02 14 C 8.68 g/m*3 14 C 0 km/h
2931 16-09-2010 10:25:02 14 C 8.56 g/m*3 14 C 0 km/h
2932 16-09-2010 10:37:02 14.3 C 8.35 g/m*3 14.3 C 0 km/h
2933 16-09-2010 10:49:02 14.6 C 8.51 g/m*3 14.6 C 0 km/h
2934 16-09-2010 11:01:02 15.2 C 8.18 g/m*3 15.2 C 0 km/h
2935 16-09-2010 11:13:02 15 C 8.08 g/m*3 15 C 0 km/h
2936 16-09-2010 11:25:02 15.2 C 8.44 g/m*3 15.2 C 0 km/h
2937 16-09-2010 11:37:02 15.1 C 8.26 g/m*3 15.1 C 0 km/h
2938 16-09-2010 11:49:01 15.8 C 8.21 g/m*3 15.8 C 0 km/h
2939 16-09-2010 12:01:02 16.4 C 7.82 g/m*3 16.4 C 0 km/h
2940 16-09-2010 12:13:02 16.7 C 7.82 g/m*3 16.7 C 0 km/h
2941 16-09-2010 12:25:02 17.2 C 7.61 g/m*3 17.2 C 0 km/h
2942 16-09-2010 12:37:02 17.1 C 7.42 g/m*3 17.1 C 0 km/h
2943 16-09-2010 12:49:02 17.7 C 7.69 g/m*3 17.7 C 0 km/h
2944 16-09-2010 13:01:01 17.7 C 7.09 g/m*3 17.7 C 0 km/h
2945 16-09-2010 13:13:01 17.9 C 7.02 g/m*3 17.9 C 0 km/h
2946 16-09-2010 13:25:02 17.4 C 6.97 g/m*3 17.4 C 0 km/h
2947 16-09-2010 13:37:01 16.9 C 7.34 g/m*3 16.9 C 0 km/h
2948 16-09-2010 13:49:01 16.7 C 7.39 g/m*3 16.7 C 0 km/h
2949 16-09-2010 14:01:01 17 C 7.23 g/m*3 17 C 0 km/h
2950 16-09-2010 14:13:01 16 C 7.36 g/m*3 16 C 0 km/h
Sensor: Nr:Datum:Temp:Abs-Feuchte:Windchill:Wind:
Aussen-T/F 2951 16-09-2010 14:25:01 14 C 8.81 g/m*3 14 C 0 km/h
2952 16-09-2010 14:37:02 14.2 C 9.52 g/m*3 14.2 C 0 km/h
2953 16-09-2010 14:49:02 15.2 C 10.25 g/m*3 15.2 C 0 km/h
2954 16-09-2010 15:01:02 15.9 C 10.29 g/m*3 15.9 C 0 km/h
2955 16-09-2010 15:13:02 16.8 C 9.44 g/m*3 16.8 C 0 km/h
2956 16-09-2010 15:25:01 17 C 8.97 g/m*3 17 C 0 km/h
2957 16-09-2010 15:37:02 18.5 C 9.02 g/m*3 18.5 C 0 km/h
2958 16-09-2010 15:49:02 17.9 C 7.79 g/m*3 17.9 C 0 km/h
2959 16-09-2010 16:01:02 18.3 C 7.82 g/m*3 18.3 C 0 km/h
2960 16-09-2010 16:13:03 17.4 C 7.56 g/m*3 17.4 C 0 km/h
2961 16-09-2010 16:25:01 16.6 C 8.05 g/m*3 16.6 C 0 km/h
2962 16-09-2010 16:37:02 15 C 8.85 g/m*3 15 C 0 km/h
2963 16-09-2010 16:49:02 14.5 C 9.7 g/m*3 14.5 C 0 km/h
2964 16-09-2010 17:01:02 14.5 C 9.83 g/m*3 14.5 C 0 km/h
2965 16-09-2010 17:13:02 15.1 C 10.06 g/m*3 15.1 C 0 km/h
2966 16-09-2010 17:25:02 15.5 C 9.65 g/m*3 15.5 C 0 km/h
2967 16-09-2010 17:37:02 15.2 C 9.22 g/m*3 15.2 C 0 km/h
2968 16-09-2010 17:49:02 16.2 C 8.69 g/m*3 16.2 C 0 km/h
2969 16-09-2010 18:01:02 15.3 C 8.88 g/m*3 15.3 C 0 km/h
2970 16-09-2010 18:13:02 15 C 8.72 g/m*3 15 C 0 km/h
2971 16-09-2010 18:25:02 15 C 8.85 g/m*3 15 C 0 km/h
2972 16-09-2010 18:37:01 14.8 C 8.99 g/m*3 14.8 C 0 km/h
2973 16-09-2010 18:49:02 14.4 C 9.27 g/m*3 14.4 C 0 km/h
2974 16-09-2010 19:01:01 13.8 C 9.41 g/m*3 13.8 C 0 km/h
2975 16-09-2010 19:13:01 13.5 C 9.59 g/m*3 13.5 C 0 km/h
Sensor: Nr:Datum:Temp:Abs-Feuchte:Windchill:Wind:
Aussen-T/F 2976 16-09-2010 19:25:02 13.4 C 9.76 g/m*3 13.4 C 0 km/h
2977 16-09-2010 19:37:02 13.3 C 9.82 g/m*3 13.3 C 0 km/h
2978 16-09-2010 19:49:02 13.1 C 9.81 g/m*3 13.1 C 0 km/h
2979 16-09-2010 20:01:02 13 C 9.87 g/m*3 13 C 0 km/h
2980 16-09-2010 20:13:02 13 C 9.98 g/m*3 13 C 0 km/h
2981 16-09-2010 20:25:02 12.8 C 10.08 g/m*3 12.8 C 0 km/h
2982 16-09-2010 20:37:02 12.7 C 10.02 g/m*3 12.7 C 0 km/h
2983 16-09-2010 20:49:02 12.7 C 10.13 g/m*3 12.7 C 0 km/h
2984 16-09-2010 21:01:02 12.6 C 10.07 g/m*3 12.6 C 0 km/h
2985 16-09-2010 21:13:02 12.7 C 10.13 g/m*3 12.7 C 0 km/h
2986 16-09-2010 21:25:01 12.7 C 10.13 g/m*3 12.7 C 0 km/h
2987 16-09-2010 21:37:02 12.6 C 10.07 g/m*3 12.6 C 0 km/h
2988 16-09-2010 21:49:02 12.5 C 10 g/m*3 12.5 C 0 km/h
2989 16-09-2010 22:01:02 12.2 C 9.71 g/m*3 12.2 C 0 km/h
2990 16-09-2010 22:13:02 12.2 C 9.6 g/m*3 12.2 C 0 km/h
2991 16-09-2010 22:25:02 12.2 C 9.6 g/m*3 12.2 C 0 km/h
2992 16-09-2010 22:38:02 12.2 C 9.5 g/m*3 12.2 C 0 km/h
2993 16-09-2010 22:50:02 12.2 C 9.5 g/m*3 12.2 C 0 km/h
2994 16-09-2010 23:02:02 12.2 C 9.5 g/m*3 12.2 C 0 km/h
2995 16-09-2010 23:14:02 12.1 C 9.33 g/m*3 12.1 C 0 km/h
2996 16-09-2010 23:26:02 12.1 C 9.22 g/m*3 12.1 C 0 km/h
2997 16-09-2010 23:38:02 12.1 C 9.22 g/m*3 12.1 C 0 km/h
2998 16-09-2010 23:50:02 12 C 9.17 g/m*3 12 C 0 km/h
2999 17-09-2010 00:02:02 12.1 C 9.12 g/m*3 12.1 C 0 km/h
3000 17-09-2010 00:14:02 12.1 C 9.22 g/m*3 12.1 C 0 km/h
Sensor: Nr:Datum:Temp:Abs-Feuchte:Windchill:Wind:
Aussen-T/F 3001 17-09-2010 00:26:02 12.2 C 9.28 g/m*3 12.2 C 0 km/h
3002 17-09-2010 00:38:02 12.2 C 9.28 g/m*3 12.2 C 0 km/h
3003 17-09-2010 00:50:02 12.2 C 9.28 g/m*3 12.2 C 0 km/h
3004 17-09-2010 01:02:02 12.1 C 9.22 g/m*3 12.1 C 0 km/h
3005 17-09-2010 01:14:03 12.1 C 9.22 g/m*3 12.1 C 0 km/h
3006 17-09-2010 01:26:03 12.1 C 9.33 g/m*3 12.1 C 0 km/h
3007 17-09-2010 01:38:03 12 C 9.27 g/m*3 12 C 0 km/h
3008 17-09-2010 01:50:03 12 C 9.27 g/m*3 12 C 0 km/h
3009 17-09-2010 02:02:03 11.9 C 9.32 g/m*3 11.9 C 0 km/h
3010 17-09-2010 02:14:03 11.9 C 9.32 g/m*3 11.9 C 0 km/h
3011 17-09-2010 02:26:03 12 C 9.38 g/m*3 12 C 0 km/h
3012 17-09-2010 02:38:03 12 C 9.27 g/m*3 12 C 0 km/h
3013 17-09-2010 02:50:03 12 C 9.17 g/m*3 12 C 0 km/h
3014 17-09-2010 03:02:03 12.1 C 9.01 g/m*3 12.1 C 0 km/h
3015 17-09-2010 03:14:03 12.1 C 8.9 g/m*3 12.1 C 0 km/h
3016 17-09-2010 03:26:03 12.1 C 8.9 g/m*3 12.1 C 0 km/h
3017 17-09-2010 03:38:03 12 C 8.95 g/m*3 12 C 0 km/h
3018 17-09-2010 03:50:03 12 C 8.95 g/m*3 12 C 0 km/h
3019 17-09-2010 04:02:03 12 C 9.06 g/m*3 12 C 0 km/h
3020 17-09-2010 04:14:03 11.9 C 8.9 g/m*3 11.9 C 0 km/h
3021 17-09-2010 04:26:03 12 C 8.85 g/m*3 12 C 0 km/h
3022 17-09-2010 04:38:03 11.8 C 8.63 g/m*3 11.8 C 0 km/h
3023 17-09-2010 04:50:03 12 C 8.21 g/m*3 12 C 0 km/h
3024 17-09-2010 05:02:03 11.9 C 8.15 g/m*3 11.9 C 0 km/h
3025 17-09-2010 05:14:03 11.5 C 8.16 g/m*3 11.5 C 0 km/h
Sensor: Nr:Datum:Temp:Abs-Feuchte:Windchill:Wind:
Aussen-T/F 3026 17-09-2010 05:26:04 11.1 C 8.16 g/m*3 11.1 C 0 km/h
3027 17-09-2010 05:38:04 10.8 C 8.3 g/m*3 10.8 C 0 km/h
3028 17-09-2010 05:50:04 10.7 C 8.35 g/m*3 10.7 C 0 km/h
3029 17-09-2010 06:02:04 10.5 C 8.34 g/m*3 10.5 C 0 km/h
3030 17-09-2010 06:14:04 10.5 C 8.44 g/m*3 10.5 C 0 km/h
3031 17-09-2010 06:26:04 10.7 C 8.74 g/m*3 10.7 C 0 km/h
3032 17-09-2010 06:38:04 10.8 C 8.8 g/m*3 10.8 C 0 km/h
3033 17-09-2010 06:50:04 10.5 C 8.63 g/m*3 10.5 C 0 km/h
3034 17-09-2010 07:02:02 10.2 C 8.37 g/m*3 10.2 C 0 km/h
3035 17-09-2010 07:14:02 10 C 8.27 g/m*3 10 C 0 km/h
3036 17-09-2010 07:26:02 9.9 C 8.31 g/m*3 9.9 C 0 km/h
3037 17-09-2010 07:38:01 10 C 7.99 g/m*3 10 C 0 km/h
3038 17-09-2010 07:50:02 10 C 7.8 g/m*3 10 C 0 km/h
3039 17-09-2010 08:02:01 9.9 C 7.84 g/m*3 9.9 C 0 km/h
3040 17-09-2010 08:14:01 10 C 7.8 g/m*3 10 C 0 km/h
3041 17-09-2010 08:26:01 10.1 C 7.66 g/m*3 10.1 C 0 km/h
3042 17-09-2010 08:38:01 10.3 C 7.57 g/m*3 10.3 C 0 km/h
3043 17-09-2010 08:50:01 10.8 C 7.41 g/m*3 10.8 C 0 km/h
3044 17-09-2010 09:02:01 10.8 C 7.31 g/m*3 10.8 C 0 km/h
3045 17-09-2010 09:14:01 10.7 C 7.27 g/m*3 10.7 C 0 km/h
3046 17-09-2010 09:26:02 10.8 C 7.31 g/m*3 10.8 C 0 km/h
3047 17-09-2010 09:38:01 10.9 C 7.26 g/m*3 10.9 C 0 km/h
3048 17-09-2010 09:50:02 11.1 C 7.25 g/m*3 11.1 C 0 km/h
3049 17-09-2010 10:02:02 11.4 C 7.39 g/m*3 11.4 C 0 km/h
3050 17-09-2010 10:14:02 11.7 C 7.53 g/m*3 11.7 C 0 km/h
Sensor: Nr:Datum:Temp:Abs-Feuchte:Windchill:Wind:
Aussen-T/F 3051 17-09-2010 10:26:02 12.1 C 7.61 g/m*3 12.1 C 0 km/h
3052 17-09-2010 10:38:01 12.4 C 7.54 g/m*3 12.4 C 0 km/h
3053 17-09-2010 10:50:02 12.7 C 7.68 g/m*3 12.7 C 0 km/h
3054 17-09-2010 11:02:01 13.1 C 7.65 g/m*3 13.1 C 0 km/h
3055 17-09-2010 11:14:01 13.3 C 7.63 g/m*3 13.3 C 0 km/h
3056 17-09-2010 11:26:01 13.8 C 7.74 g/m*3 13.8 C 0 km/h
3057 17-09-2010 11:38:02 14.1 C 7.4 g/m*3 14.1 C 0 km/h
3058 17-09-2010 11:50:02 14.3 C 7.37 g/m*3 14.3 C 0 km/h
3059 17-09-2010 12:02:02 15.2 C 7.01 g/m*3 15.2 C 0 km/h
3060 17-09-2010 12:14:02 15.2 C 6.62 g/m*3 15.2 C 0 km/h
3061 17-09-2010 12:26:02 15.7 C 6.42 g/m*3 15.7 C 0 km/h
3062 17-09-2010 12:38:02 16.2 C 6.62 g/m*3 16.2 C 0 km/h
3063 17-09-2010 12:50:02 16.2 C 6.21 g/m*3 16.2 C 0 km/h
3064 17-09-2010 13:02:02 15.9 C 6.23 g/m*3 15.9 C 0 km/h
3065 17-09-2010 13:14:02 16.2 C 5.93 g/m*3 16.2 C 0 km/h
3066 17-09-2010 13:26:02 16.3 C 5.83 g/m*3 16.3 C 0 km/h
3067 17-09-2010 13:38:02 17 C 5.79 g/m*3 17 C 0 km/h
3068 17-09-2010 13:50:02 17.9 C 5.65 g/m*3 17.9 C 0 km/h
3069 17-09-2010 14:02:02 18.5 C 5.54 g/m*3 18.5 C 0 km/h
3070 17-09-2010 14:14:02 17.1 C 5.24 g/m*3 17.1 C 0 km/h
3071 17-09-2010 14:26:02 16.8 C 5.29 g/m*3 16.8 C 0 km/h
3072 17-09-2010 14:38:02 17.4 C 5.34 g/m*3 17.4 C 0 km/h
3073 17-09-2010 14:50:02 18.3 C 5 g/m*3 18.3 C 0 km/h
3074 17-09-2010 15:02:02 18.6 C 4.93 g/m*3 18.6 C 0 km/h
3075 17-09-2010 15:14:02 18.2 C 4.97 g/m*3 18.2 C 0 km/h
Sensor: Nr:Datum:Temp:Abs-Feuchte:Windchill:Wind:
Aussen-T/F 3076 17-09-2010 15:26:02 17.2 C 5.13 g/m*3 17.2 C 0 km/h
3077 17-09-2010 15:38:02 16.6 C 5.09 g/m*3 16.6 C 0 km/h
3078 17-09-2010 15:50:02 16.8 C 5.15 g/m*3 16.8 C 0 km/h
3079 17-09-2010 16:02:02 18.4 C 5.19 g/m*3 18.4 C 0 km/h
3080 17-09-2010 16:14:02 18.9 C 5.02 g/m*3 18.9 C 0 km/h
3081 17-09-2010 16:26:02 19.3 C 4.81 g/m*3 19.3 C 0 km/h
3082 17-09-2010 16:38:01 18.9 C 4.86 g/m*3 18.9 C 0 km/h
3083 17-09-2010 16:50:02 19.8 C 4.78 g/m*3 19.8 C 0 km/h
3084 17-09-2010 17:02:01 20.1 C 4.69 g/m*3 20.1 C 0 km/h
3085 17-09-2010 17:14:01 19.7 C 4.25 g/m*3 19.7 C 0 km/h
3086 17-09-2010 17:26:01 18.8 C 4.35 g/m*3 18.8 C 0 km/h
3087 17-09-2010 17:38:02 19.3 C 4.31 g/m*3 19.3 C 0 km/h
3088 17-09-2010 17:50:02 19.4 C 4.67 g/m*3 19.4 C 0 km/h
3089 17-09-2010 18:02:02 17.5 C 5.22 g/m*3 17.5 C 0 km/h
3090 17-09-2010 18:14:02 16 C 5.99 g/m*3 16 C 0 km/h
3091 17-09-2010 18:26:02 17.2 C 6.3 g/m*3 17.2 C 0 km/h
3092 17-09-2010 18:38:02 16.3 C 6.24 g/m*3 16.3 C 0 km/h
3093 17-09-2010 18:50:01 16.3 C 6.66 g/m*3 16.3 C 0 km/h
3094 17-09-2010 19:02:01 16.3 C 6.66 g/m*3 16.3 C 0 km/h
3095 17-09-2010 19:14:02 15.7 C 6.56 g/m*3 15.7 C 0 km/h
3096 17-09-2010 19:26:01 15 C 6.54 g/m*3 15 C 0 km/h
3097 17-09-2010 19:38:01 14.7 C 6.8 g/m*3 14.7 C 0 km/h
3098 17-09-2010 19:50:02 14.5 C 6.84 g/m*3 14.5 C 0 km/h
3099 17-09-2010 20:02:02 14.5 C 6.96 g/m*3 14.5 C 0 km/h
3100 17-09-2010 20:14:02 14.5 C 6.96 g/m*3 14.5 C 0 km/h
Sensor: Nr:Datum:Temp:Abs-Feuchte:Windchill:Wind:
Aussen-T/F 3101 17-09-2010 20:26:02 14.5 C 7.09 g/m*3 14.5 C 0 km/h
3102 17-09-2010 20:38:02 14.1 C 7.28 g/m*3 14.1 C 0 km/h
3103 17-09-2010 20:50:01 13.7 C 6.99 g/m*3 13.7 C 0 km/h
3104 17-09-2010 21:02:02 13.7 C 7.22 g/m*3 13.7 C 0 km/h
3105 17-09-2010 21:14:02 13.5 C 7.13 g/m*3 13.5 C 0 km/h
3106 17-09-2010 21:26:01 13.4 C 7.09 g/m*3 13.4 C 0 km/h
3107 17-09-2010 21:38:01 13.4 C 7.09 g/m*3 13.4 C 0 km/h
3108 17-09-2010 21:50:01 13.4 C 7.21 g/m*3 13.4 C 0 km/h
3109 17-09-2010 22:02:01 13.6 C 6.94 g/m*3 13.6 C 0 km/h
3110 17-09-2010 22:14:01 13.6 C 6.71 g/m*3 13.6 C 0 km/h
3111 17-09-2010 22:26:02 13.4 C 6.63 g/m*3 13.4 C 0 km/h
3112 17-09-2010 22:39:36 13.1 C 6.62 g/m*3 13.1 C 0 km/h
3113 17-09-2010 22:51:37 13 C 6.69 g/m*3 13 C 0 km/h
3114 17-09-2010 23:03:37 12.8 C 6.72 g/m*3 12.8 C 0 km/h
3115 17-09-2010 23:15:37 12.6 C 6.75 g/m*3 12.6 C 0 km/h
3116 17-09-2010 23:27:37 12.6 C 6.86 g/m*3 12.6 C 0 km/h
3117 17-09-2010 23:39:37 12.5 C 6.82 g/m*3 12.5 C 0 km/h
3118 17-09-2010 23:51:37 12.4 C 6.88 g/m*3 12.4 C 0 km/h
3119 18-09-2010 00:03:37 12.2 C 6.8 g/m*3 12.2 C 0 km/h
3120 18-09-2010 00:15:37 12.3 C 6.95 g/m*3 12.3 C 0 km/h
3121 18-09-2010 00:27:37 12 C 6.82 g/m*3 12 C 0 km/h
3122 18-09-2010 00:39:37 12 C 7.03 g/m*3 12 C 0 km/h
3123 18-09-2010 00:51:37 12.1 C 7.08 g/m*3 12.1 C 0 km/h
3124 18-09-2010 01:03:37 11.9 C 7.2 g/m*3 11.9 C 0 km/h
3125 18-09-2010 01:15:37 11.2 C 6.99 g/m*3 11.2 C 0 km/h
Sensor: Nr:Datum:Temp:Abs-Feuchte:Windchill:Wind:
Aussen-T/F 3126 18-09-2010 01:27:37 10.8 C 7.02 g/m*3 10.8 C 0 km/h
3127 18-09-2010 01:39:37 10.4 C 6.94 g/m*3 10.4 C 0 km/h
3128 18-09-2010 01:51:37 10.2 C 6.85 g/m*3 10.2 C 0 km/h
3129 18-09-2010 02:03:37 10.2 C 6.95 g/m*3 10.2 C 0 km/h
3130 18-09-2010 02:15:37 10 C 7.05 g/m*3 10 C 0 km/h
3131 18-09-2010 02:27:37 10 C 7.24 g/m*3 10 C 0 km/h
3132 18-09-2010 02:39:37 9.8 C 7.33 g/m*3 9.8 C 0 km/h
3133 18-09-2010 02:51:37 10 C 7.42 g/m*3 10 C 0 km/h
3134 18-09-2010 03:03:38 9.9 C 7.47 g/m*3 9.9 C 0 km/h
3135 18-09-2010 03:15:38 9.5 C 7.28 g/m*3 9.5 C 0 km/h
3136 18-09-2010 03:27:38 9.4 C 7.33 g/m*3 9.4 C 0 km/h
3137 18-09-2010 03:39:38 9.1 C 7.19 g/m*3 9.1 C 0 km/h
3138 18-09-2010 03:51:38 9 C 7.23 g/m*3 9 C 0 km/h
3139 18-09-2010 04:03:38 8.9 C 7.36 g/m*3 8.9 C 0 km/h
3140 18-09-2010 04:15:38 8.7 C 7.26 g/m*3 8.7 C 0 km/h
3141 18-09-2010 04:27:38 8.5 C 7.17 g/m*3 8.5 C 0 km/h
3142 18-09-2010 04:39:38 8.4 C 7.13 g/m*3 8.4 C 0 km/h
3143 18-09-2010 04:51:38 8.2 C 7.03 g/m*3 8.2 C 0 km/h
3144 18-09-2010 05:03:38 8.2 C 7.12 g/m*3 8.2 C 0 km/h
3145 18-09-2010 05:15:38 8.1 C 7.16 g/m*3 8.1 C 0 km/h
3146 18-09-2010 05:27:38 7.9 C 7.23 g/m*3 7.9 C 0 km/h
3147 18-09-2010 05:39:38 7.7 C 7.14 g/m*3 7.7 C 0 km/h
3148 18-09-2010 05:51:38 7.8 C 7.26 g/m*3 7.8 C 0 km/h
3149 18-09-2010 06:03:38 7.8 C 7.35 g/m*3 7.8 C 0 km/h
3150 18-09-2010 06:15:38 7.5 C 7.28 g/m*3 7.5 C 0 km/h
Sensor: Nr:Datum:Temp:Abs-Feuchte:Windchill:Wind:
Aussen-T/F 3151 18-09-2010 06:27:38 7.5 C 7.28 g/m*3 7.5 C 0 km/h
3152 18-09-2010 06:39:38 7.6 C 7.41 g/m*3 7.6 C 0 km/h
3153 18-09-2010 06:51:38 7.7 C 7.46 g/m*3 7.7 C 0 km/h
3154 18-09-2010 07:03:39 7.7 C 7.46 g/m*3 7.7 C 0 km/h
3155 18-09-2010 07:15:39 7.6 C 7.33 g/m*3 7.6 C 0 km/h
3156 18-09-2010 07:27:39 7.5 C 7.28 g/m*3 7.5 C 0 km/h
3157 18-09-2010 07:39:39 7.3 C 7.19 g/m*3 7.3 C 0 km/h
3158 18-09-2010 07:51:39 7.4 C 7.24 g/m*3 7.4 C 0 km/h
3159 18-09-2010 08:03:02 7.3 C 7.11 g/m*3 7.3 C 0 km/h
3160 18-09-2010 08:15:03 7.4 C 7.16 g/m*3 7.4 C 0 km/h
3161 18-09-2010 08:27:03 7.5 C 7.28 g/m*3 7.5 C 0 km/h
3162 18-09-2010 08:39:02 7.5 C 7.28 g/m*3 7.5 C 0 km/h
3163 18-09-2010 08:51:02 7.6 C 7.33 g/m*3 7.6 C 0 km/h
3164 18-09-2010 09:03:02 7.7 C 7.38 g/m*3 7.7 C 0 km/h
3165 18-09-2010 09:15:02 7.8 C 7.43 g/m*3 7.8 C 0 km/h
3166 18-09-2010 09:27:02 8 C 7.44 g/m*3 8 C 0 km/h
3167 18-09-2010 09:39:02 8.2 C 7.54 g/m*3 8.2 C 0 km/h
3168 18-09-2010 09:51:02 8.9 C 7.97 g/m*3 8.9 C 0 km/h
3169 18-09-2010 10:03:02 9.3 C 8.09 g/m*3 9.3 C 0 km/h
3170 18-09-2010 10:15:02 9.5 C 8.1 g/m*3 9.5 C 0 km/h
3171 18-09-2010 10:27:03 9.8 C 8.07 g/m*3 9.8 C 0 km/h
3172 18-09-2010 10:39:01 10.7 C 8.25 g/m*3 10.7 C 0 km/h
3173 18-09-2010 10:51:02 11.7 C 8.37 g/m*3 11.7 C 0 km/h
3174 18-09-2010 11:03:02 12.2 C 6.91 g/m*3 12.2 C 0 km/h
3175 18-09-2010 11:15:02 13 C 6.8 g/m*3 13 C 0 km/h
Sensor: Nr:Datum:Temp:Abs-Feuchte:Windchill:Wind:
Aussen-T/F 3176 18-09-2010 11:27:02 13.6 C 6.59 g/m*3 13.6 C 0 km/h
3177 18-09-2010 11:39:02 14 C 6.39 g/m*3 14 C 0 km/h
3178 18-09-2010 11:51:01 14.5 C 6.47 g/m*3 14.5 C 0 km/h
3179 18-09-2010 12:03:02 14.6 C 6.13 g/m*3 14.6 C 0 km/h
3180 18-09-2010 12:15:01 15.7 C 6.15 g/m*3 15.7 C 0 km/h
3181 18-09-2010 12:27:01 15.1 C 5.42 g/m*3 15.1 C 0 km/h
3182 18-09-2010 12:39:01 15.4 C 6.04 g/m*3 15.4 C 0 km/h
3183 18-09-2010 12:51:01 14.9 C 5.86 g/m*3 14.9 C 0 km/h
3184 18-09-2010 13:03:02 14.9 C 5.86 g/m*3 14.9 C 0 km/h
3185 18-09-2010 13:15:01 15.3 C 5.48 g/m*3 15.3 C 0 km/h
3186 18-09-2010 13:27:01 15.6 C 5.32 g/m*3 15.6 C 0 km/h
3187 18-09-2010 13:39:01 15.8 C 5.25 g/m*3 15.8 C 0 km/h
3188 18-09-2010 13:51:01 16.4 C 5.16 g/m*3 16.4 C 0 km/h
3189 18-09-2010 14:03:01 16.2 C 4.96 g/m*3 16.2 C 0 km/h
3190 18-09-2010 14:15:02 15.4 C 4.73 g/m*3 15.4 C 0 km/h
3191 18-09-2010 14:27:02 14.7 C 4.66 g/m*3 14.7 C 0 km/h
3192 18-09-2010 14:39:01 14.9 C 4.72 g/m*3 14.9 C 0 km/h
3193 18-09-2010 14:51:02 15.1 C 4.77 g/m*3 15.1 C 0 km/h
3194 18-09-2010 15:03:02 15.4 C 4.6 g/m*3 15.4 C 0 km/h
3195 18-09-2010 15:15:02 16.1 C 4.52 g/m*3 16.1 C 0 km/h
3196 18-09-2010 15:27:02 15.9 C 4.74 g/m*3 15.9 C 0 km/h
3197 18-09-2010 15:39:02 17.3 C 4.57 g/m*3 17.3 C 0 km/h
3198 18-09-2010 15:51:02 16.8 C 4.43 g/m*3 16.8 C 0 km/h
3199 18-09-2010 16:03:01 16.4 C 4.75 g/m*3 16.4 C 0 km/h
3200 18-09-2010 16:15:02 16.2 C 4.55 g/m*3 16.2 C 0 km/h
Sensor: Nr:Datum:Temp:Abs-Feuchte:Windchill:Wind:
Aussen-T/F 3201 18-09-2010 16:27:03 16.1 C 4.66 g/m*3 16.1 C 0 km/h
3202 18-09-2010 16:39:01 16.1 C 4.8 g/m*3 16.1 C 0 km/h
3203 18-09-2010 16:51:02 16.3 C 5.55 g/m*3 16.3 C 0 km/h
3204 18-09-2010 17:03:02 16.3 C 4.99 g/m*3 16.3 C 0 km/h
3205 18-09-2010 17:15:02 16.4 C 6.14 g/m*3 16.4 C 0 km/h
3206 18-09-2010 17:27:02 16.3 C 5.41 g/m*3 16.3 C 0 km/h
3207 18-09-2010 17:39:02 15.6 C 6.12 g/m*3 15.6 C 0 km/h
3208 18-09-2010 17:51:01 14.7 C 5.92 g/m*3 14.7 C 0 km/h
3209 18-09-2010 18:03:02 14.5 C 6.09 g/m*3 14.5 C 0 km/h
3210 18-09-2010 18:15:01 15.6 C 5.98 g/m*3 15.6 C 0 km/h
3211 18-09-2010 18:27:01 16.2 C 5.93 g/m*3 16.2 C 0 km/h
3212 18-09-2010 18:39:01 16.2 C 6.07 g/m*3 16.2 C 0 km/h
3213 18-09-2010 18:51:01 15.8 C 6.19 g/m*3 15.8 C 0 km/h
3214 18-09-2010 19:03:02 15.2 C 6.1 g/m*3 15.2 C 0 km/h
3215 18-09-2010 19:15:01 14 C 5.91 g/m*3 14 C 0 km/h
3216 18-09-2010 19:27:01 13 C 6.12 g/m*3 13 C 0 km/h
3217 18-09-2010 19:39:01 12.2 C 6.04 g/m*3 12.2 C 0 km/h
3218 18-09-2010 19:51:01 11.9 C 6.14 g/m*3 11.9 C 0 km/h
3219 18-09-2010 20:03:02 11.4 C 6.36 g/m*3 11.4 C 0 km/h
3220 18-09-2010 20:15:02 11.2 C 6.39 g/m*3 11.2 C 0 km/h
3221 18-09-2010 20:27:02 11.1 C 6.75 g/m*3 11.1 C 0 km/h
3222 18-09-2010 20:39:01 10.9 C 6.76 g/m*3 10.9 C 0 km/h
3223 18-09-2010 20:51:01 10.8 C 6.72 g/m*3 10.8 C 0 km/h
3224 18-09-2010 21:03:01 10.6 C 6.73 g/m*3 10.6 C 0 km/h
3225 18-09-2010 21:15:02 10.2 C 6.66 g/m*3 10.2 C 0 km/h